Darstellungsparameter: Aktuell verwendete Einstellungen:
Skalierung der Graphiken ... ?
xyx+y,   Skalierungsfaktor:      Skalierung: Modus: x, Faktor: 1
Darstellungszeitraum ... ?
Vom - - bis: - -   Zeitraum: 21.12.2008 - 20.06.2009
Min/Max/Avg-Anzeige ... ?
Zeige MMA aktuell
Zeige MMA Monat
Zeige MMA alles
Zeige --A aktuell
Zeige --A Monat
Zeige --A alles
Keine MMA-Anzeige
MMA:
Keine MMA-Graphiken
MMA-Basis: 21.12.2008 - 20.06.2009
Quicknavigation für Darstellung... ?
Tage:      1T, 2T, 3T, 5T -1T -2T -3T -5T +1T +2T +3T +5T
Wochen: 1W, 2W, 3W -1W -2W -3W +1W +2W +3W
Monate: 1M, 3M, 6M -1M -3M -6M +1M +3M +6M
Jahre:    1J, 3J, 5J, 10J -1J -3J -5J -10J +1J +3J +5J +10J
Nutze für die Darstellung ... ?
Originaldaten oder Mittelwerte auf ...
Stundenbasis Tagesbasis Wochenbasis
Monatsbasis Jahresbasis      Datenbasis: Original-Daten
Darstellen als:
Statistik (Auto) Statistik J:M      Darstellung:
Zur Graphik,    zurück zur Übersicht aller Sensoren.
 
Tabellarische Datenbersicht: ?
 
Sensor: Nr:Datum:Temp:Abs-Feuchte:Windchill:Wind:
Aussen-T/F 1 21-12-2008 00:03:38 5.9 C 6.78 g/m*3 5.9 C 0 km/h
2 21-12-2008 00:15:38 5.9 C 6.71 g/m*3 5.9 C 0 km/h
3 21-12-2008 00:27:38 5.9 C 6.71 g/m*3 5.9 C 0 km/h
4 21-12-2008 00:39:38 5.9 C 6.71 g/m*3 5.9 C 0 km/h
5 21-12-2008 00:51:38 5.9 C 6.71 g/m*3 5.9 C 0 km/h
6 21-12-2008 01:03:38 5.9 C 6.71 g/m*3 5.9 C 0 km/h
7 21-12-2008 01:15:37 5.9 C 6.71 g/m*3 5.9 C 0 km/h
8 21-12-2008 01:27:37 5.9 C 6.63 g/m*3 5.9 C 0 km/h
9 21-12-2008 01:39:38 5.9 C 6.63 g/m*3 5.9 C 0 km/h
10 21-12-2008 01:51:37 5.9 C 6.63 g/m*3 5.9 C 0 km/h
11 21-12-2008 02:03:37 5.9 C 6.63 g/m*3 5.9 C 0 km/h
12 21-12-2008 02:15:37 6 C 6.6 g/m*3 6 C 0 km/h
13 21-12-2008 02:27:37 6.1 C 6.65 g/m*3 6.1 C 0 km/h
14 21-12-2008 02:39:37 6.1 C 6.65 g/m*3 6.1 C 0 km/h
15 21-12-2008 02:52:01 6.1 C 6.65 g/m*3 6.1 C 0 km/h
16 21-12-2008 03:04:01 6.1 C 6.65 g/m*3 6.1 C 0 km/h
17 21-12-2008 03:16:01 6.2 C 6.69 g/m*3 6.2 C 0 km/h
18 21-12-2008 03:28:01 6.2 C 6.69 g/m*3 6.2 C 0 km/h
19 21-12-2008 03:40:01 6.2 C 6.69 g/m*3 6.2 C 0 km/h
20 21-12-2008 03:52:02 6.1 C 6.65 g/m*3 6.1 C 0 km/h
21 21-12-2008 04:04:01 6.1 C 6.65 g/m*3 6.1 C 0 km/h
22 21-12-2008 04:16:01 6.1 C 6.65 g/m*3 6.1 C 0 km/h
23 21-12-2008 04:28:01 6.1 C 6.65 g/m*3 6.1 C 0 km/h
24 21-12-2008 04:40:02 6.1 C 6.65 g/m*3 6.1 C 0 km/h
25 21-12-2008 04:52:01 6.1 C 6.65 g/m*3 6.1 C 0 km/h
Sensor: Nr:Datum:Temp:Abs-Feuchte:Windchill:Wind:
Aussen-T/F 26 21-12-2008 05:04:01 6.1 C 6.65 g/m*3 6.1 C 0 km/h
27 21-12-2008 05:16:02 6.1 C 6.72 g/m*3 6.1 C 0 km/h
28 21-12-2008 05:28:02 6.1 C 6.72 g/m*3 6.1 C 0 km/h
29 21-12-2008 05:40:01 6.1 C 6.72 g/m*3 6.1 C 0 km/h
30 21-12-2008 05:52:01 6.1 C 6.72 g/m*3 6.1 C 0 km/h
31 21-12-2008 06:04:01 6.2 C 6.77 g/m*3 6.2 C 0 km/h
32 21-12-2008 06:16:01 6.2 C 6.77 g/m*3 6.2 C 0 km/h
33 21-12-2008 06:28:01 6.2 C 6.77 g/m*3 6.2 C 0 km/h
34 21-12-2008 06:40:01 6.2 C 6.84 g/m*3 6.2 C 0 km/h
35 21-12-2008 06:52:01 6.4 C 6.93 g/m*3 6.4 C 0 km/h
36 21-12-2008 07:04:01 6.9 C 7.24 g/m*3 6.9 C 0 km/h
37 21-12-2008 07:16:02 7.3 C 7.51 g/m*3 7.3 C 0 km/h
38 21-12-2008 07:28:02 7.5 C 7.6 g/m*3 7.5 C 0 km/h
39 21-12-2008 07:40:01 7.1 C 7.41 g/m*3 7.1 C 0 km/h
40 21-12-2008 07:52:02 6.7 C 7.22 g/m*3 6.7 C 0 km/h
41 21-12-2008 08:04:01 6.6 C 7.17 g/m*3 6.6 C 0 km/h
42 21-12-2008 08:16:02 6.6 C 7.17 g/m*3 6.6 C 0 km/h
43 21-12-2008 08:28:02 7.1 C 7.41 g/m*3 7.1 C 0 km/h
44 21-12-2008 08:40:01 7.7 C 7.7 g/m*3 7.7 C 0 km/h
45 21-12-2008 08:52:02 7.8 C 7.75 g/m*3 7.8 C 0 km/h
46 21-12-2008 09:04:01 7.9 C 7.8 g/m*3 7.9 C 0 km/h
47 21-12-2008 09:16:01 7.8 C 7.75 g/m*3 7.8 C 0 km/h
48 21-12-2008 09:28:01 7.7 C 7.7 g/m*3 7.7 C 0 km/h
49 21-12-2008 09:40:02 7.4 C 7.55 g/m*3 7.4 C 0 km/h
50 21-12-2008 09:52:01 7.1 C 7.41 g/m*3 7.1 C 0 km/h
Sensor: Nr:Datum:Temp:Abs-Feuchte:Windchill:Wind:
Aussen-T/F 51 21-12-2008 10:04:02 7.2 C 7.46 g/m*3 7.2 C 0 km/h
52 21-12-2008 10:16:01 7.3 C 7.51 g/m*3 7.3 C 0 km/h
53 21-12-2008 10:28:01 7.4 C 7.55 g/m*3 7.4 C 0 km/h
54 21-12-2008 10:40:02 7.5 C 7.6 g/m*3 7.5 C 0 km/h
55 21-12-2008 10:52:01 7.5 C 7.6 g/m*3 7.5 C 0 km/h
56 21-12-2008 11:04:02 7.6 C 7.65 g/m*3 7.6 C 0 km/h
57 21-12-2008 11:16:01 7.9 C 7.8 g/m*3 7.9 C 0 km/h
58 21-12-2008 11:28:01 7.9 C 7.8 g/m*3 7.9 C 0 km/h
59 21-12-2008 11:40:01 8.1 C 7.9 g/m*3 8.1 C 0 km/h
60 21-12-2008 11:52:01 8.7 C 8.22 g/m*3 8.7 C 0 km/h
61 21-12-2008 12:04:01 9.1 C 8.43 g/m*3 9.1 C 0 km/h
62 21-12-2008 12:16:01 9.4 C 8.41 g/m*3 9.4 C 0 km/h
63 21-12-2008 12:28:01 9.7 C 8.11 g/m*3 9.7 C 0 km/h
64 21-12-2008 12:40:01 9.8 C 7.61 g/m*3 9.8 C 0 km/h
65 21-12-2008 12:52:01 9.8 C 7.42 g/m*3 9.8 C 0 km/h
66 21-12-2008 13:04:01 10 C 7.14 g/m*3 10 C 0 km/h
67 21-12-2008 13:16:02 10.2 C 7.23 g/m*3 10.2 C 0 km/h
68 21-12-2008 13:28:02 10.7 C 7.07 g/m*3 10.7 C 0 km/h
69 21-12-2008 13:40:01 10.7 C 6.97 g/m*3 10.7 C 0 km/h
70 21-12-2008 13:52:02 10.7 C 6.68 g/m*3 10.7 C 0 km/h
71 21-12-2008 14:04:01 10.5 C 6.6 g/m*3 10.5 C 0 km/h
72 21-12-2008 14:16:01 10.4 C 6.65 g/m*3 10.4 C 0 km/h
73 21-12-2008 14:28:02 10.2 C 6.66 g/m*3 10.2 C 0 km/h
74 21-12-2008 14:40:01 10.1 C 6.71 g/m*3 10.1 C 0 km/h
75 21-12-2008 14:52:01 10.1 C 6.52 g/m*3 10.1 C 0 km/h
Sensor: Nr:Datum:Temp:Abs-Feuchte:Windchill:Wind:
Aussen-T/F 76 21-12-2008 15:04:01 10 C 6.48 g/m*3 10 C 0 km/h
77 21-12-2008 15:16:01 9.9 C 6.54 g/m*3 9.9 C 0 km/h
78 21-12-2008 15:28:01 9.8 C 6.59 g/m*3 9.8 C 0 km/h
79 21-12-2008 15:40:02 9.7 C 6.64 g/m*3 9.7 C 0 km/h
80 21-12-2008 15:52:01 9.6 C 6.6 g/m*3 9.6 C 0 km/h
81 21-12-2008 16:04:02 9.6 C 6.5 g/m*3 9.6 C 0 km/h
82 21-12-2008 16:16:01 9.5 C 6.28 g/m*3 9.5 C 0 km/h
83 21-12-2008 16:28:01 9.5 C 6.28 g/m*3 9.5 C 0 km/h
84 21-12-2008 16:40:02 9.4 C 6.24 g/m*3 9.4 C 0 km/h
85 21-12-2008 16:52:01 9.2 C 6.25 g/m*3 9.2 C 0 km/h
86 21-12-2008 17:04:02 9.2 C 6.16 g/m*3 9.2 C 0 km/h
87 21-12-2008 17:16:01 9.1 C 6.12 g/m*3 9.1 C 0 km/h
88 21-12-2008 17:28:01 9.1 C 6.12 g/m*3 9.1 C 0 km/h
89 21-12-2008 17:40:01 9 C 6.08 g/m*3 9 C 0 km/h
90 21-12-2008 17:52:01 9 C 6.08 g/m*3 9 C 0 km/h
91 21-12-2008 18:04:01 9 C 6.08 g/m*3 9 C 0 km/h
92 21-12-2008 18:16:02 9.1 C 6.03 g/m*3 9.1 C 0 km/h
93 21-12-2008 18:28:02 9.1 C 6.03 g/m*3 9.1 C 0 km/h
94 21-12-2008 18:40:01 9 C 5.99 g/m*3 9 C 0 km/h
95 21-12-2008 18:52:02 8.9 C 6.04 g/m*3 8.9 C 0 km/h
96 21-12-2008 19:04:01 8.9 C 6.04 g/m*3 8.9 C 0 km/h
97 21-12-2008 19:16:02 8.8 C 6.09 g/m*3 8.8 C 0 km/h
98 21-12-2008 19:28:02 8.7 C 6.14 g/m*3 8.7 C 0 km/h
99 21-12-2008 19:40:01 8.7 C 6.31 g/m*3 8.7 C 0 km/h
100 21-12-2008 19:52:02 8.7 C 6.31 g/m*3 8.7 C 0 km/h
Sensor: Nr:Datum:Temp:Abs-Feuchte:Windchill:Wind:
Aussen-T/F 101 21-12-2008 20:04:01 8.7 C 6.31 g/m*3 8.7 C 0 km/h
102 21-12-2008 20:16:01 8.7 C 6.23 g/m*3 8.7 C 0 km/h
103 21-12-2008 20:28:01 8.7 C 6.23 g/m*3 8.7 C 0 km/h
104 21-12-2008 20:40:02 8.8 C 6.18 g/m*3 8.8 C 0 km/h
105 21-12-2008 20:52:01 8.9 C 6.13 g/m*3 8.9 C 0 km/h
106 21-12-2008 21:04:01 8.9 C 6.13 g/m*3 8.9 C 0 km/h
107 21-12-2008 21:16:01 8.9 C 6.04 g/m*3 8.9 C 0 km/h
108 21-12-2008 21:28:01 8.9 C 6.13 g/m*3 8.9 C 0 km/h
109 21-12-2008 21:40:02 8.8 C 6.18 g/m*3 8.8 C 0 km/h
110 21-12-2008 21:52:01 8.7 C 6.14 g/m*3 8.7 C 0 km/h
111 21-12-2008 22:04:02 8.7 C 6.23 g/m*3 8.7 C 0 km/h
112 21-12-2008 22:16:01 8.6 C 6.19 g/m*3 8.6 C 0 km/h
113 21-12-2008 22:28:01 8.6 C 6.19 g/m*3 8.6 C 0 km/h
114 21-12-2008 22:40:02 8.6 C 6.19 g/m*3 8.6 C 0 km/h
115 21-12-2008 22:52:01 8.5 C 6.23 g/m*3 8.5 C 0 km/h
116 21-12-2008 23:04:01 8.5 C 6.23 g/m*3 8.5 C 0 km/h
117 21-12-2008 23:16:01 8.5 C 6.23 g/m*3 8.5 C 0 km/h
118 21-12-2008 23:28:01 8.5 C 6.23 g/m*3 8.5 C 0 km/h
119 21-12-2008 23:40:01 8.5 C 6.32 g/m*3 8.5 C 0 km/h
120 21-12-2008 23:52:01 8.5 C 6.32 g/m*3 8.5 C 0 km/h
121 22-12-2008 00:04:01 8.6 C 6.36 g/m*3 8.6 C 0 km/h
122 22-12-2008 00:16:02 8.6 C 6.36 g/m*3 8.6 C 0 km/h
123 22-12-2008 00:28:02 8.6 C 6.36 g/m*3 8.6 C 0 km/h
124 22-12-2008 00:40:01 8.6 C 6.44 g/m*3 8.6 C 0 km/h
125 22-12-2008 00:52:02 8.6 C 6.44 g/m*3 8.6 C 0 km/h
Sensor: Nr:Datum:Temp:Abs-Feuchte:Windchill:Wind:
Aussen-T/F 126 22-12-2008 01:04:01 8.8 C 6.44 g/m*3 8.8 C 0 km/h
127 22-12-2008 01:16:02 8.8 C 6.44 g/m*3 8.8 C 0 km/h
128 22-12-2008 01:28:02 8.8 C 6.44 g/m*3 8.8 C 0 km/h
129 22-12-2008 01:40:01 8.9 C 6.39 g/m*3 8.9 C 0 km/h
130 22-12-2008 01:52:02 8.9 C 6.39 g/m*3 8.9 C 0 km/h
131 22-12-2008 02:04:01 8.9 C 6.48 g/m*3 8.9 C 0 km/h
132 22-12-2008 02:16:01 8.7 C 6.49 g/m*3 8.7 C 0 km/h
133 22-12-2008 02:28:01 8.7 C 6.57 g/m*3 8.7 C 0 km/h
134 22-12-2008 02:40:01 8.8 C 6.61 g/m*3 8.8 C 0 km/h
135 22-12-2008 02:52:27 8.9 C 6.57 g/m*3 8.9 C 0 km/h
136 22-12-2008 03:04:27 8.9 C 6.57 g/m*3 8.9 C 0 km/h
137 22-12-2008 03:16:27 8.9 C 6.57 g/m*3 8.9 C 0 km/h
138 22-12-2008 03:28:27 8.7 C 6.57 g/m*3 8.7 C 0 km/h
139 22-12-2008 03:40:27 8.6 C 6.7 g/m*3 8.6 C 0 km/h
140 22-12-2008 03:52:27 8.2 C 6.95 g/m*3 8.2 C 0 km/h
141 22-12-2008 04:04:26 8.1 C 7.16 g/m*3 8.1 C 0 km/h
142 22-12-2008 04:16:27 8.1 C 7.24 g/m*3 8.1 C 0 km/h
143 22-12-2008 04:28:27 8.1 C 7.32 g/m*3 8.1 C 0 km/h
144 22-12-2008 04:40:26 8.1 C 7.32 g/m*3 8.1 C 0 km/h
145 22-12-2008 04:52:26 8.3 C 7.25 g/m*3 8.3 C 0 km/h
146 22-12-2008 05:04:26 8.3 C 7.16 g/m*3 8.3 C 0 km/h
147 22-12-2008 05:16:26 8.3 C 7.16 g/m*3 8.3 C 0 km/h
148 22-12-2008 05:28:26 8.2 C 7.2 g/m*3 8.2 C 0 km/h
149 22-12-2008 05:40:26 8.1 C 7.16 g/m*3 8.1 C 0 km/h
150 22-12-2008 05:52:25 8.1 C 7.24 g/m*3 8.1 C 0 km/h
Sensor: Nr:Datum:Temp:Abs-Feuchte:Windchill:Wind:
Aussen-T/F 151 22-12-2008 06:04:26 8.1 C 7.24 g/m*3 8.1 C 0 km/h
152 22-12-2008 06:16:26 8.1 C 7.24 g/m*3 8.1 C 0 km/h
153 22-12-2008 06:28:26 8.1 C 7.16 g/m*3 8.1 C 0 km/h
154 22-12-2008 06:40:25 8.3 C 7.16 g/m*3 8.3 C 0 km/h
155 22-12-2008 06:52:26 8.6 C 7.05 g/m*3 8.6 C 0 km/h
156 22-12-2008 07:04:25 8.6 C 6.96 g/m*3 8.6 C 0 km/h
157 22-12-2008 07:16:25 8.8 C 6.88 g/m*3 8.8 C 0 km/h
158 22-12-2008 07:28:25 8.9 C 6.83 g/m*3 8.9 C 0 km/h
159 22-12-2008 07:40:24 8.9 C 6.83 g/m*3 8.9 C 0 km/h
160 22-12-2008 07:52:25 8.9 C 6.83 g/m*3 8.9 C 0 km/h
161 22-12-2008 08:04:24 8.9 C 6.83 g/m*3 8.9 C 0 km/h
162 22-12-2008 08:16:24 9 C 6.7 g/m*3 9 C 0 km/h
163 22-12-2008 08:28:24 9 C 6.61 g/m*3 9 C 0 km/h
164 22-12-2008 08:40:25 9.1 C 6.65 g/m*3 9.1 C 0 km/h
165 22-12-2008 08:52:24 9 C 6.61 g/m*3 9 C 0 km/h
166 22-12-2008 09:04:24 9.1 C 6.65 g/m*3 9.1 C 0 km/h
167 22-12-2008 09:16:24 9 C 6.61 g/m*3 9 C 0 km/h
168 22-12-2008 09:28:24 9.1 C 6.65 g/m*3 9.1 C 0 km/h
169 22-12-2008 09:40:24 9 C 6.7 g/m*3 9 C 0 km/h
170 22-12-2008 09:52:23 9.1 C 6.74 g/m*3 9.1 C 0 km/h
171 22-12-2008 10:04:24 9.2 C 6.79 g/m*3 9.2 C 0 km/h
172 22-12-2008 10:16:23 9.3 C 6.74 g/m*3 9.3 C 0 km/h
173 22-12-2008 10:28:23 9.2 C 6.79 g/m*3 9.2 C 0 km/h
174 22-12-2008 10:40:23 9.2 C 6.97 g/m*3 9.2 C 0 km/h
175 22-12-2008 10:52:23 9.3 C 7.01 g/m*3 9.3 C 0 km/h
Sensor: Nr:Datum:Temp:Abs-Feuchte:Windchill:Wind:
Aussen-T/F 176 22-12-2008 11:04:23 9.3 C 7.1 g/m*3 9.3 C 0 km/h
177 22-12-2008 11:16:23 9.4 C 7.24 g/m*3 9.4 C 0 km/h
178 22-12-2008 11:28:23 9.5 C 7.19 g/m*3 9.5 C 0 km/h
179 22-12-2008 11:40:23 9.6 C 7.24 g/m*3 9.6 C 0 km/h
180 22-12-2008 11:52:23 9.6 C 7.24 g/m*3 9.6 C 0 km/h
181 22-12-2008 12:04:22 9.9 C 7.28 g/m*3 9.9 C 0 km/h
182 22-12-2008 12:16:22 10 C 7.14 g/m*3 10 C 0 km/h
183 22-12-2008 12:28:22 10 C 7.14 g/m*3 10 C 0 km/h
184 22-12-2008 12:40:22 9.9 C 7.38 g/m*3 9.9 C 0 km/h
185 22-12-2008 12:52:22 9.9 C 7.66 g/m*3 9.9 C 0 km/h
186 22-12-2008 13:04:22 9.9 C 7.56 g/m*3 9.9 C 0 km/h
187 22-12-2008 13:16:22 10 C 7.42 g/m*3 10 C 0 km/h
188 22-12-2008 13:28:22 10 C 7.42 g/m*3 10 C 0 km/h
189 22-12-2008 13:40:22 9.9 C 7.47 g/m*3 9.9 C 0 km/h
190 22-12-2008 13:52:21 10 C 7.33 g/m*3 10 C 0 km/h
191 22-12-2008 14:04:21 10.1 C 7.19 g/m*3 10.1 C 0 km/h
192 22-12-2008 14:16:21 10.3 C 6.99 g/m*3 10.3 C 0 km/h
193 22-12-2008 14:28:21 10.3 C 6.9 g/m*3 10.3 C 0 km/h
194 22-12-2008 14:40:22 9.7 C 7.01 g/m*3 9.7 C 0 km/h
195 22-12-2008 14:52:21 9.6 C 7.05 g/m*3 9.6 C 0 km/h
196 22-12-2008 15:04:21 9.6 C 7.05 g/m*3 9.6 C 0 km/h
197 22-12-2008 15:16:21 9.7 C 6.91 g/m*3 9.7 C 0 km/h
198 22-12-2008 15:28:21 9.7 C 6.82 g/m*3 9.7 C 0 km/h
199 22-12-2008 15:40:21 9.7 C 6.45 g/m*3 9.7 C 0 km/h
200 22-12-2008 15:52:20 9.6 C 6.32 g/m*3 9.6 C 0 km/h
Sensor: Nr:Datum:Temp:Abs-Feuchte:Windchill:Wind:
Aussen-T/F 201 22-12-2008 16:04:21 9.6 C 6.23 g/m*3 9.6 C 0 km/h
202 22-12-2008 16:16:20 9.5 C 6.19 g/m*3 9.5 C 0 km/h
203 22-12-2008 16:28:20 9.6 C 6.05 g/m*3 9.6 C 0 km/h
204 22-12-2008 16:40:20 9.5 C 6.01 g/m*3 9.5 C 0 km/h
205 22-12-2008 16:52:02 9.5 C 5.92 g/m*3 9.5 C 0 km/h
206 22-12-2008 17:04:02 9.5 C 6.01 g/m*3 9.5 C 0 km/h
207 22-12-2008 17:16:02 9.3 C 5.93 g/m*3 9.3 C 0 km/h
208 22-12-2008 17:28:02 9.1 C 6.03 g/m*3 9.1 C 0 km/h
209 22-12-2008 17:40:02 8.8 C 6.18 g/m*3 8.8 C 0 km/h
210 22-12-2008 17:52:02 8.5 C 6.15 g/m*3 8.5 C 0 km/h
211 22-12-2008 18:04:01 8 C 6.12 g/m*3 8 C 0 km/h
212 22-12-2008 18:16:02 7.6 C 6.28 g/m*3 7.6 C 0 km/h
213 22-12-2008 18:28:02 7.3 C 6.32 g/m*3 7.3 C 0 km/h
214 22-12-2008 18:40:02 7.1 C 6.32 g/m*3 7.1 C 0 km/h
215 22-12-2008 18:52:02 6.9 C 6.39 g/m*3 6.9 C 0 km/h
216 22-12-2008 19:04:02 6.9 C 6.47 g/m*3 6.9 C 0 km/h
217 22-12-2008 19:16:02 6.7 C 6.38 g/m*3 6.7 C 0 km/h
218 22-12-2008 19:28:02 6.3 C 6.22 g/m*3 6.3 C 0 km/h
219 22-12-2008 19:40:01 6.2 C 6.25 g/m*3 6.2 C 0 km/h
220 22-12-2008 19:52:02 5.9 C 6.2 g/m*3 5.9 C 0 km/h
221 22-12-2008 20:04:01 5.8 C 6.16 g/m*3 5.8 C 0 km/h
222 22-12-2008 20:16:01 6.1 C 6.28 g/m*3 6.1 C 0 km/h
223 22-12-2008 20:28:01 6.1 C 6.28 g/m*3 6.1 C 0 km/h
224 22-12-2008 20:40:00 6.2 C 6.25 g/m*3 6.2 C 0 km/h
225 22-12-2008 20:52:01 6.3 C 6.29 g/m*3 6.3 C 0 km/h
Sensor: Nr:Datum:Temp:Abs-Feuchte:Windchill:Wind:
Aussen-T/F 226 22-12-2008 21:04:01 6.3 C 6.22 g/m*3 6.3 C 0 km/h
227 22-12-2008 21:16:00 6.5 C 6.3 g/m*3 6.5 C 0 km/h
228 22-12-2008 21:28:00 6.4 C 6.18 g/m*3 6.4 C 0 km/h
229 22-12-2008 21:40:00 6.4 C 6.18 g/m*3 6.4 C 0 km/h
230 22-12-2008 21:52:00 6.5 C 6.3 g/m*3 6.5 C 0 km/h
231 22-12-2008 22:05:02 6.5 C 6.22 g/m*3 6.5 C 0 km/h
232 22-12-2008 22:17:02 6.5 C 6.3 g/m*3 6.5 C 0 km/h
233 22-12-2008 22:29:02 7 C 6.51 g/m*3 7 C 0 km/h
234 22-12-2008 22:41:03 7.2 C 6.52 g/m*3 7.2 C 0 km/h
235 22-12-2008 22:53:03 7.1 C 6.47 g/m*3 7.1 C 0 km/h
236 22-12-2008 23:05:03 7.1 C 6.47 g/m*3 7.1 C 0 km/h
237 22-12-2008 23:17:03 7 C 6.43 g/m*3 7 C 0 km/h
238 22-12-2008 23:29:03 6.8 C 6.42 g/m*3 6.8 C 0 km/h
239 22-12-2008 23:41:03 6.9 C 6.54 g/m*3 6.9 C 0 km/h
240 22-12-2008 23:53:03 6.9 C 6.54 g/m*3 6.9 C 0 km/h
241 23-12-2008 00:05:03 6.8 C 6.5 g/m*3 6.8 C 0 km/h
242 23-12-2008 00:17:03 6.4 C 6.26 g/m*3 6.4 C 0 km/h
243 23-12-2008 00:29:03 6.8 C 6.5 g/m*3 6.8 C 0 km/h
244 23-12-2008 00:41:03 7.1 C 6.4 g/m*3 7.1 C 0 km/h
245 23-12-2008 00:53:03 7.2 C 6.36 g/m*3 7.2 C 0 km/h
246 23-12-2008 01:05:03 7.2 C 6.28 g/m*3 7.2 C 0 km/h
247 23-12-2008 01:17:03 7.2 C 6.2 g/m*3 7.2 C 0 km/h
248 23-12-2008 01:29:03 7.2 C 6.2 g/m*3 7.2 C 0 km/h
249 23-12-2008 01:41:03 7.1 C 6.16 g/m*3 7.1 C 0 km/h
250 23-12-2008 01:53:03 6.9 C 6.24 g/m*3 6.9 C 0 km/h
Sensor: Nr:Datum:Temp:Abs-Feuchte:Windchill:Wind:
Aussen-T/F 251 23-12-2008 02:05:03 6.9 C 6.24 g/m*3 6.9 C 0 km/h
252 23-12-2008 02:17:03 6.7 C 6.23 g/m*3 6.7 C 0 km/h
253 23-12-2008 02:29:03 6.7 C 6.31 g/m*3 6.7 C 0 km/h
254 23-12-2008 02:41:04 6.7 C 6.31 g/m*3 6.7 C 0 km/h
255 23-12-2008 02:53:04 6.4 C 6.18 g/m*3 6.4 C 0 km/h
256 23-12-2008 03:05:04 6.3 C 6.22 g/m*3 6.3 C 0 km/h
257 23-12-2008 03:17:04 6.3 C 6.29 g/m*3 6.3 C 0 km/h
258 23-12-2008 03:29:04 6.2 C 6.25 g/m*3 6.2 C 0 km/h
259 23-12-2008 03:41:04 6.1 C 6.21 g/m*3 6.1 C 0 km/h
260 23-12-2008 03:53:04 6.1 C 6.21 g/m*3 6.1 C 0 km/h
261 23-12-2008 04:05:04 6 C 6.17 g/m*3 6 C 0 km/h
262 23-12-2008 04:17:04 5.7 C 6.12 g/m*3 5.7 C 0 km/h
263 23-12-2008 04:29:04 5.6 C 6.15 g/m*3 5.6 C 0 km/h
264 23-12-2008 04:41:04 5.6 C 6.15 g/m*3 5.6 C 0 km/h
265 23-12-2008 04:53:04 5.4 C 6.14 g/m*3 5.4 C 0 km/h
266 23-12-2008 05:05:04 5.3 C 6.1 g/m*3 5.3 C 0 km/h
267 23-12-2008 05:17:04 5.2 C 6.06 g/m*3 5.2 C 0 km/h
268 23-12-2008 05:29:04 5.1 C 6.02 g/m*3 5.1 C 0 km/h
269 23-12-2008 05:41:04 4.7 C 5.86 g/m*3 4.7 C 0 km/h
270 23-12-2008 05:53:04 4.4 C 5.81 g/m*3 4.4 C 0 km/h
271 23-12-2008 06:05:04 4.2 C 5.73 g/m*3 4.2 C 0 km/h
272 23-12-2008 06:17:04 4.6 C 5.96 g/m*3 4.6 C 0 km/h
273 23-12-2008 06:29:04 4.9 C 6.14 g/m*3 4.9 C 0 km/h
274 23-12-2008 06:41:04 4.8 C 6.04 g/m*3 4.8 C 0 km/h
275 23-12-2008 06:53:05 4.7 C 6 g/m*3 4.7 C 0 km/h
Sensor: Nr:Datum:Temp:Abs-Feuchte:Windchill:Wind:
Aussen-T/F 276 23-12-2008 07:05:05 5 C 6.12 g/m*3 5 C 0 km/h
277 23-12-2008 07:17:02 5 C 6.12 g/m*3 5 C 0 km/h
278 23-12-2008 07:29:02 4.9 C 6.08 g/m*3 4.9 C 0 km/h
279 23-12-2008 07:41:01 5.4 C 6.28 g/m*3 5.4 C 0 km/h
280 23-12-2008 07:53:01 5.3 C 6.17 g/m*3 5.3 C 0 km/h
281 23-12-2008 08:05:01 5.3 C 6.1 g/m*3 5.3 C 0 km/h
282 23-12-2008 08:17:01 5.1 C 5.95 g/m*3 5.1 C 0 km/h
283 23-12-2008 08:29:01 4.9 C 5.94 g/m*3 4.9 C 0 km/h
284 23-12-2008 08:41:01 5 C 5.91 g/m*3 5 C 0 km/h
285 23-12-2008 08:53:01 5 C 5.91 g/m*3 5 C 0 km/h
286 23-12-2008 09:05:01 5 C 5.91 g/m*3 5 C 0 km/h
287 23-12-2008 09:17:00 4.9 C 5.94 g/m*3 4.9 C 0 km/h
288 23-12-2008 09:29:00 4.9 C 5.94 g/m*3 4.9 C 0 km/h
289 23-12-2008 09:41:01 4.9 C 5.94 g/m*3 4.9 C 0 km/h
290 23-12-2008 09:53:00 4.7 C 5.8 g/m*3 4.7 C 0 km/h
291 23-12-2008 10:05:00 4.9 C 5.94 g/m*3 4.9 C 0 km/h
292 23-12-2008 10:16:59 4.9 C 5.94 g/m*3 4.9 C 0 km/h
293 23-12-2008 10:28:59 5 C 5.84 g/m*3 5 C 0 km/h
294 23-12-2008 10:41:00 5.2 C 5.92 g/m*3 5.2 C 0 km/h
295 23-12-2008 10:53:59 5.5 C 5.97 g/m*3 5.5 C 0 km/h
296 23-12-2008 11:05:59 5.6 C 5.94 g/m*3 5.6 C 0 km/h
297 23-12-2008 11:17:00 5.7 C 5.91 g/m*3 5.7 C 0 km/h
298 23-12-2008 11:29:00 5.9 C 5.98 g/m*3 5.9 C 0 km/h
299 23-12-2008 11:41:59 6.1 C 5.92 g/m*3 6.1 C 0 km/h
300 23-12-2008 11:53:59 6.2 C 5.88 g/m*3 6.2 C 0 km/h
Sensor: Nr:Datum:Temp:Abs-Feuchte:Windchill:Wind:
Aussen-T/F 301 23-12-2008 12:05:59 6.3 C 5.85 g/m*3 6.3 C 0 km/h
302 23-12-2008 12:17:59 6.5 C 5.85 g/m*3 6.5 C 0 km/h
303 23-12-2008 12:29:59 6.7 C 5.85 g/m*3 6.7 C 0 km/h
304 23-12-2008 12:41:59 6.9 C 5.85 g/m*3 6.9 C 0 km/h
305 23-12-2008 12:53:59 7.1 C 5.85 g/m*3 7.1 C 0 km/h
306 23-12-2008 13:05:59 7.4 C 5.88 g/m*3 7.4 C 0 km/h
307 23-12-2008 13:17:58 7.4 C 5.88 g/m*3 7.4 C 0 km/h
308 23-12-2008 13:29:58 7.4 C 5.81 g/m*3 7.4 C 0 km/h
309 23-12-2008 13:41:58 7.5 C 5.84 g/m*3 7.5 C 0 km/h
310 23-12-2008 13:53:58 7.6 C 5.88 g/m*3 7.6 C 0 km/h
311 23-12-2008 14:05:58 7.7 C 5.84 g/m*3 7.7 C 0 km/h
312 23-12-2008 14:17:57 7.6 C 5.72 g/m*3 7.6 C 0 km/h
313 23-12-2008 14:29:57 7.6 C 5.64 g/m*3 7.6 C 0 km/h
314 23-12-2008 14:41:58 7.4 C 5.49 g/m*3 7.4 C 0 km/h
315 23-12-2008 14:53:57 7.3 C 5.45 g/m*3 7.3 C 0 km/h
316 23-12-2008 15:05:57 7.4 C 5.49 g/m*3 7.4 C 0 km/h
317 23-12-2008 15:17:58 7.5 C 5.44 g/m*3 7.5 C 0 km/h
318 23-12-2008 15:29:58 7.5 C 5.44 g/m*3 7.5 C 0 km/h
319 23-12-2008 15:41:57 7.5 C 5.28 g/m*3 7.5 C 0 km/h
320 23-12-2008 15:53:57 7.3 C 5.21 g/m*3 7.3 C 0 km/h
321 23-12-2008 16:05:57 7.1 C 5.3 g/m*3 7.1 C 0 km/h
322 23-12-2008 16:17:57 7.1 C 5.38 g/m*3 7.1 C 0 km/h
323 23-12-2008 16:29:57 7 C 5.42 g/m*3 7 C 0 km/h
324 23-12-2008 16:41:57 6.9 C 5.47 g/m*3 6.9 C 0 km/h
325 23-12-2008 16:53:56 6.9 C 5.39 g/m*3 6.9 C 0 km/h
Sensor: Nr:Datum:Temp:Abs-Feuchte:Windchill:Wind:
Aussen-T/F 326 23-12-2008 17:05:56 6.8 C 5.43 g/m*3 6.8 C 0 km/h
327 23-12-2008 17:17:56 6.8 C 5.43 g/m*3 6.8 C 0 km/h
328 23-12-2008 17:29:56 6.7 C 5.47 g/m*3 6.7 C 0 km/h
329 23-12-2008 17:41:56 6.6 C 5.44 g/m*3 6.6 C 0 km/h
330 23-12-2008 17:53:55 6.5 C 5.47 g/m*3 6.5 C 0 km/h
331 23-12-2008 18:05:56 6.5 C 5.47 g/m*3 6.5 C 0 km/h
332 23-12-2008 18:17:56 6.6 C 5.51 g/m*3 6.6 C 0 km/h
333 23-12-2008 18:29:56 6.6 C 5.59 g/m*3 6.6 C 0 km/h
334 23-12-2008 18:41:55 6.5 C 5.55 g/m*3 6.5 C 0 km/h
335 23-12-2008 18:53:56 6.6 C 5.59 g/m*3 6.6 C 0 km/h
336 23-12-2008 19:05:55 6.5 C 5.55 g/m*3 6.5 C 0 km/h
337 23-12-2008 19:17:55 6.5 C 5.55 g/m*3 6.5 C 0 km/h
338 23-12-2008 19:29:55 6.5 C 5.62 g/m*3 6.5 C 0 km/h
339 23-12-2008 19:41:54 6.5 C 5.62 g/m*3 6.5 C 0 km/h
340 23-12-2008 19:53:55 6.5 C 5.62 g/m*3 6.5 C 0 km/h
341 23-12-2008 20:05:55 6.5 C 5.7 g/m*3 6.5 C 0 km/h
342 23-12-2008 20:17:54 6.5 C 5.7 g/m*3 6.5 C 0 km/h
343 23-12-2008 20:29:54 6.5 C 5.7 g/m*3 6.5 C 0 km/h
344 23-12-2008 20:41:55 6.4 C 5.74 g/m*3 6.4 C 0 km/h
345 23-12-2008 20:53:54 6.5 C 5.77 g/m*3 6.5 C 0 km/h
346 23-12-2008 21:05:54 6.4 C 5.74 g/m*3 6.4 C 0 km/h
347 23-12-2008 21:17:54 6.4 C 5.74 g/m*3 6.4 C 0 km/h
348 23-12-2008 21:29:54 6.3 C 5.77 g/m*3 6.3 C 0 km/h
349 23-12-2008 21:41:54 6.3 C 5.77 g/m*3 6.3 C 0 km/h
350 23-12-2008 21:53:53 6.1 C 5.7 g/m*3 6.1 C 0 km/h
Sensor: Nr:Datum:Temp:Abs-Feuchte:Windchill:Wind:
Aussen-T/F 351 23-12-2008 22:05:54 6.1 C 5.7 g/m*3 6.1 C 0 km/h
352 23-12-2008 22:17:54 6.2 C 5.66 g/m*3 6.2 C 0 km/h
353 23-12-2008 22:29:54 6.2 C 5.59 g/m*3 6.2 C 0 km/h
354 23-12-2008 22:41:53 6.2 C 5.59 g/m*3 6.2 C 0 km/h
355 23-12-2008 22:53:53 6.2 C 5.59 g/m*3 6.2 C 0 km/h
356 23-12-2008 23:05:53 6.1 C 5.55 g/m*3 6.1 C 0 km/h
357 23-12-2008 23:17:53 6.2 C 5.44 g/m*3 6.2 C 0 km/h
358 23-12-2008 23:29:53 6.2 C 5.44 g/m*3 6.2 C 0 km/h
359 23-12-2008 23:41:52 6.2 C 5.44 g/m*3 6.2 C 0 km/h
360 23-12-2008 23:53:53 6.1 C 5.41 g/m*3 6.1 C 0 km/h
361 24-12-2008 00:05:53 6.1 C 5.41 g/m*3 6.1 C 0 km/h
362 24-12-2008 00:17:53 6 C 5.37 g/m*3 6 C 0 km/h
363 24-12-2008 00:29:53 6.1 C 5.41 g/m*3 6.1 C 0 km/h
364 24-12-2008 00:41:52 6.1 C 5.33 g/m*3 6.1 C 0 km/h
365 24-12-2008 00:53:53 6 C 5.37 g/m*3 6 C 0 km/h
366 24-12-2008 01:05:52 6 C 5.37 g/m*3 6 C 0 km/h
367 24-12-2008 01:17:52 5.8 C 5.37 g/m*3 5.8 C 0 km/h
368 24-12-2008 01:29:53 5.5 C 5.34 g/m*3 5.5 C 0 km/h
369 24-12-2008 01:41:51 5.3 C 5.34 g/m*3 5.3 C 0 km/h
370 24-12-2008 01:53:52 5.2 C 5.3 g/m*3 5.2 C 0 km/h
371 24-12-2008 02:05:51 5.3 C 5.41 g/m*3 5.3 C 0 km/h
372 24-12-2008 02:17:51 5.2 C 5.44 g/m*3 5.2 C 0 km/h
373 24-12-2008 02:29:51 5.3 C 5.48 g/m*3 5.3 C 0 km/h
374 24-12-2008 02:41:52 5.1 C 5.4 g/m*3 5.1 C 0 km/h
375 24-12-2008 02:54:52 4.9 C 5.47 g/m*3 4.9 C 0 km/h
Sensor: Nr:Datum:Temp:Abs-Feuchte:Windchill:Wind:
Aussen-T/F 376 24-12-2008 03:06:52 4.7 C 5.4 g/m*3 4.7 C 0 km/h
377 24-12-2008 03:18:53 4.5 C 5.39 g/m*3 4.5 C 0 km/h
378 24-12-2008 03:30:52 4.1 C 5.18 g/m*3 4.1 C 0 km/h
379 24-12-2008 03:42:52 3.7 C 5.17 g/m*3 3.7 C 0 km/h
380 24-12-2008 03:54:52 3.5 C 5.1 g/m*3 3.5 C 0 km/h
381 24-12-2008 04:06:52 3.3 C 5.1 g/m*3 3.3 C 0 km/h
382 24-12-2008 04:18:52 3 C 4.99 g/m*3 3 C 0 km/h
383 24-12-2008 04:30:52 2.9 C 5.08 g/m*3 2.9 C 0 km/h
384 24-12-2008 04:42:52 2.7 C 5.01 g/m*3 2.7 C 0 km/h
385 24-12-2008 04:54:52 2.5 C 4.94 g/m*3 2.5 C 0 km/h
386 24-12-2008 05:06:51 2.3 C 4.93 g/m*3 2.3 C 0 km/h
387 24-12-2008 05:18:51 2.3 C 4.93 g/m*3 2.3 C 0 km/h
388 24-12-2008 05:30:51 2.1 C 4.92 g/m*3 2.1 C 0 km/h
389 24-12-2008 05:42:51 2 C 4.89 g/m*3 2 C 0 km/h
390 24-12-2008 05:54:50 2.3 C 5.05 g/m*3 2.3 C 0 km/h
391 24-12-2008 06:06:51 2.8 C 5.34 g/m*3 2.8 C 0 km/h
392 24-12-2008 06:18:51 2.9 C 5.37 g/m*3 2.9 C 0 km/h
393 24-12-2008 06:30:50 2.8 C 5.28 g/m*3 2.8 C 0 km/h
394 24-12-2008 06:42:50 2.7 C 5.24 g/m*3 2.7 C 0 km/h
395 24-12-2008 06:54:51 2.8 C 5.22 g/m*3 2.8 C 0 km/h
396 24-12-2008 07:06:50 2.9 C 5.26 g/m*3 2.9 C 0 km/h
397 24-12-2008 07:18:50 3 C 5.29 g/m*3 3 C 0 km/h
398 24-12-2008 07:30:50 3.3 C 5.4 g/m*3 3.3 C 0 km/h
399 24-12-2008 07:42:50 3.3 C 5.4 g/m*3 3.3 C 0 km/h
400 24-12-2008 07:54:50 3.2 C 5.36 g/m*3 3.2 C 0 km/h
Sensor: Nr:Datum:Temp:Abs-Feuchte:Windchill:Wind:
Aussen-T/F 401 24-12-2008 08:06:50 3.2 C 5.36 g/m*3 3.2 C 0 km/h
402 24-12-2008 08:18:49 3.3 C 5.4 g/m*3 3.3 C 0 km/h
403 24-12-2008 08:30:50 3.5 C 5.47 g/m*3 3.5 C 0 km/h
404 24-12-2008 08:42:50 3.6 C 5.51 g/m*3 3.6 C 0 km/h
405 24-12-2008 08:54:49 3.5 C 5.47 g/m*3 3.5 C 0 km/h
406 24-12-2008 09:06:49 3.5 C 5.47 g/m*3 3.5 C 0 km/h
407 24-12-2008 09:18:49 3.4 C 5.44 g/m*3 3.4 C 0 km/h
408 24-12-2008 09:30:49 3.4 C 5.44 g/m*3 3.4 C 0 km/h
409 24-12-2008 09:42:49 3.5 C 5.53 g/m*3 3.5 C 0 km/h
410 24-12-2008 09:54:48 3.6 C 5.51 g/m*3 3.6 C 0 km/h
411 24-12-2008 10:06:49 3.6 C 5.51 g/m*3 3.6 C 0 km/h
412 24-12-2008 10:18:49 3.7 C 5.55 g/m*3 3.7 C 0 km/h
413 24-12-2008 10:30:48 3.9 C 5.68 g/m*3 3.9 C 0 km/h
414 24-12-2008 10:42:48 4 C 5.66 g/m*3 4 C 0 km/h
415 24-12-2008 10:54:49 4 C 5.66 g/m*3 4 C 0 km/h
416 24-12-2008 11:06:48 4.1 C 5.76 g/m*3 4.1 C 0 km/h
417 24-12-2008 11:18:48 4.1 C 5.76 g/m*3 4.1 C 0 km/h
418 24-12-2008 11:30:47 4.2 C 5.8 g/m*3 4.2 C 0 km/h
419 24-12-2008 11:42:47 4.3 C 5.77 g/m*3 4.3 C 0 km/h
420 24-12-2008 11:54:48 4.3 C 5.77 g/m*3 4.3 C 0 km/h
421 24-12-2008 12:06:47 4.4 C 5.75 g/m*3 4.4 C 0 km/h
422 24-12-2008 12:18:47 4.5 C 5.72 g/m*3 4.5 C 0 km/h
423 24-12-2008 12:30:48 4.8 C 5.77 g/m*3 4.8 C 0 km/h
424 24-12-2008 12:42:48 5 C 5.71 g/m*3 5 C 0 km/h
425 24-12-2008 12:54:47 5.3 C 5.68 g/m*3 5.3 C 0 km/h
Sensor: Nr:Datum:Temp:Abs-Feuchte:Windchill:Wind:
Aussen-T/F 426 24-12-2008 13:06:47 5.6 C 5.66 g/m*3 5.6 C 0 km/h
427 24-12-2008 13:18:47 5.5 C 5.55 g/m*3 5.5 C 0 km/h
428 24-12-2008 13:30:47 5.3 C 5.48 g/m*3 5.3 C 0 km/h
429 24-12-2008 13:42:47 5.3 C 5.48 g/m*3 5.3 C 0 km/h
430 24-12-2008 13:54:46 5.2 C 5.44 g/m*3 5.2 C 0 km/h
431 24-12-2008 14:06:47 5.2 C 5.44 g/m*3 5.2 C 0 km/h
432 24-12-2008 14:18:47 5.2 C 5.44 g/m*3 5.2 C 0 km/h
433 24-12-2008 14:30:46 5.3 C 5.48 g/m*3 5.3 C 0 km/h
434 24-12-2008 14:42:46 5.3 C 5.48 g/m*3 5.3 C 0 km/h
435 24-12-2008 14:54:46 5.2 C 5.44 g/m*3 5.2 C 0 km/h
436 24-12-2008 15:06:46 5.2 C 5.44 g/m*3 5.2 C 0 km/h
437 24-12-2008 15:18:46 5.1 C 5.47 g/m*3 5.1 C 0 km/h
438 24-12-2008 15:30:45 4.9 C 5.6 g/m*3 4.9 C 0 km/h
439 24-12-2008 15:42:45 4.9 C 5.74 g/m*3 4.9 C 0 km/h
440 24-12-2008 15:54:46 5.1 C 5.88 g/m*3 5.1 C 0 km/h
441 24-12-2008 16:06:45 5.3 C 6.1 g/m*3 5.3 C 0 km/h
442 24-12-2008 16:18:45 5.3 C 6.17 g/m*3 5.3 C 0 km/h
443 24-12-2008 16:30:45 5.4 C 6.21 g/m*3 5.4 C 0 km/h
444 24-12-2008 16:42:45 5.4 C 6.21 g/m*3 5.4 C 0 km/h
445 24-12-2008 16:54:45 5.3 C 6.17 g/m*3 5.3 C 0 km/h
446 24-12-2008 17:06:45 5.2 C 6.13 g/m*3 5.2 C 0 km/h
447 24-12-2008 17:18:44 5.2 C 6.13 g/m*3 5.2 C 0 km/h
448 24-12-2008 17:30:45 5.1 C 6.02 g/m*3 5.1 C 0 km/h
449 24-12-2008 17:42:45 5.2 C 5.99 g/m*3 5.2 C 0 km/h
450 24-12-2008 17:54:44 5.2 C 5.85 g/m*3 5.2 C 0 km/h
Sensor: Nr:Datum:Temp:Abs-Feuchte:Windchill:Wind:
Aussen-T/F 451 24-12-2008 18:06:44 5.3 C 5.82 g/m*3 5.3 C 0 km/h
452 24-12-2008 18:18:45 5.3 C 5.82 g/m*3 5.3 C 0 km/h
453 24-12-2008 18:30:44 5.3 C 5.82 g/m*3 5.3 C 0 km/h
454 24-12-2008 18:42:44 5.3 C 5.82 g/m*3 5.3 C 0 km/h
455 24-12-2008 18:54:44 5.3 C 5.82 g/m*3 5.3 C 0 km/h
456 24-12-2008 19:06:44 5.2 C 5.85 g/m*3 5.2 C 0 km/h
457 24-12-2008 19:18:44 5.2 C 5.92 g/m*3 5.2 C 0 km/h
458 24-12-2008 19:30:43 5.2 C 5.92 g/m*3 5.2 C 0 km/h
459 24-12-2008 19:42:43 5.2 C 5.92 g/m*3 5.2 C 0 km/h
460 24-12-2008 19:54:44 5.2 C 5.92 g/m*3 5.2 C 0 km/h
461 24-12-2008 20:06:43 5.3 C 5.96 g/m*3 5.3 C 0 km/h
462 24-12-2008 20:18:43 5.2 C 5.92 g/m*3 5.2 C 0 km/h
463 24-12-2008 20:30:43 5.2 C 5.99 g/m*3 5.2 C 0 km/h
464 24-12-2008 20:42:43 5.2 C 6.06 g/m*3 5.2 C 0 km/h
465 24-12-2008 20:54:43 5.2 C 6.06 g/m*3 5.2 C 0 km/h
466 24-12-2008 21:06:43 5.2 C 6.13 g/m*3 5.2 C 0 km/h
467 24-12-2008 21:18:42 5.2 C 6.13 g/m*3 5.2 C 0 km/h
468 24-12-2008 21:30:42 5.2 C 6.13 g/m*3 5.2 C 0 km/h
469 24-12-2008 21:42:42 5.2 C 6.13 g/m*3 5.2 C 0 km/h
470 24-12-2008 21:54:43 5.3 C 6.17 g/m*3 5.3 C 0 km/h
471 24-12-2008 22:06:42 5.3 C 6.17 g/m*3 5.3 C 0 km/h
472 24-12-2008 22:18:42 5.3 C 6.17 g/m*3 5.3 C 0 km/h
473 24-12-2008 22:30:42 5.3 C 6.17 g/m*3 5.3 C 0 km/h
474 24-12-2008 22:42:42 5.3 C 6.17 g/m*3 5.3 C 0 km/h
475 24-12-2008 22:54:42 5.3 C 6.17 g/m*3 5.3 C 0 km/h
Sensor: Nr:Datum:Temp:Abs-Feuchte:Windchill:Wind:
Aussen-T/F 476 24-12-2008 23:06:41 5.3 C 6.1 g/m*3 5.3 C 0 km/h
477 24-12-2008 23:18:42 5.3 C 6.1 g/m*3 5.3 C 0 km/h
478 24-12-2008 23:30:42 5.3 C 6.1 g/m*3 5.3 C 0 km/h
479 24-12-2008 23:42:42 5.4 C 6.07 g/m*3 5.4 C 0 km/h
480 24-12-2008 23:54:41 5.4 C 6 g/m*3 5.4 C 0 km/h
481 25-12-2008 00:06:42 5.4 C 5.86 g/m*3 5.4 C 0 km/h
482 25-12-2008 00:18:41 5.3 C 5.82 g/m*3 5.3 C 0 km/h
483 25-12-2008 00:30:41 5.2 C 5.78 g/m*3 5.2 C 0 km/h
484 25-12-2008 00:42:41 5.2 C 5.78 g/m*3 5.2 C 0 km/h
485 25-12-2008 00:54:41 5.2 C 5.78 g/m*3 5.2 C 0 km/h
486 25-12-2008 01:06:40 5.1 C 5.75 g/m*3 5.1 C 0 km/h
487 25-12-2008 01:18:41 5 C 5.71 g/m*3 5 C 0 km/h
488 25-12-2008 01:30:40 5 C 5.64 g/m*3 5 C 0 km/h
489 25-12-2008 01:42:40 5.1 C 5.47 g/m*3 5.1 C 0 km/h
490 25-12-2008 01:54:40 5.2 C 5.37 g/m*3 5.2 C 0 km/h
491 25-12-2008 02:06:40 5.3 C 5.41 g/m*3 5.3 C 0 km/h
492 25-12-2008 02:18:40 4.7 C 5.26 g/m*3 4.7 C 0 km/h
493 25-12-2008 02:30:40 4.8 C 5.43 g/m*3 4.8 C 0 km/h
494 25-12-2008 02:42:40 4.9 C 5.54 g/m*3 4.9 C 0 km/h
495 25-12-2008 02:55:41 5 C 5.5 g/m*3 5 C 0 km/h
496 25-12-2008 03:07:41 5 C 5.57 g/m*3 5 C 0 km/h
497 25-12-2008 03:19:41 4.8 C 5.5 g/m*3 4.8 C 0 km/h
498 25-12-2008 03:31:41 4.5 C 5.46 g/m*3 4.5 C 0 km/h
499 25-12-2008 03:43:41 4.3 C 5.38 g/m*3 4.3 C 0 km/h
500 25-12-2008 03:55:41 4.2 C 5.41 g/m*3 4.2 C 0 km/h
Sensor: Nr:Datum:Temp:Abs-Feuchte:Windchill:Wind:
Aussen-T/F 501 25-12-2008 04:07:40 4.4 C 5.55 g/m*3 4.4 C 0 km/h
502 25-12-2008 04:19:40 4.5 C 5.59 g/m*3 4.5 C 0 km/h
503 25-12-2008 04:31:41 4.6 C 5.62 g/m*3 4.6 C 0 km/h
504 25-12-2008 04:43:41 4.6 C 5.62 g/m*3 4.6 C 0 km/h
505 25-12-2008 04:55:40 4.6 C 5.56 g/m*3 4.6 C 0 km/h
506 25-12-2008 05:07:40 4.6 C 5.56 g/m*3 4.6 C 0 km/h
507 25-12-2008 05:19:40 4.6 C 5.56 g/m*3 4.6 C 0 km/h
508 25-12-2008 05:31:40 4.6 C 5.56 g/m*3 4.6 C 0 km/h
509 25-12-2008 05:43:40 4.7 C 5.6 g/m*3 4.7 C 0 km/h
510 25-12-2008 05:55:40 4.7 C 5.53 g/m*3 4.7 C 0 km/h
511 25-12-2008 06:07:40 4.7 C 5.53 g/m*3 4.7 C 0 km/h
512 25-12-2008 06:19:39 4.7 C 5.53 g/m*3 4.7 C 0 km/h
513 25-12-2008 06:31:39 4.7 C 5.53 g/m*3 4.7 C 0 km/h
514 25-12-2008 06:43:39 4.7 C 5.46 g/m*3 4.7 C 0 km/h
515 25-12-2008 06:55:39 4.7 C 5.46 g/m*3 4.7 C 0 km/h
516 25-12-2008 07:07:39 4.8 C 5.5 g/m*3 4.8 C 0 km/h
517 25-12-2008 07:19:38 4.8 C 5.43 g/m*3 4.8 C 0 km/h
518 25-12-2008 07:31:39 4.8 C 5.43 g/m*3 4.8 C 0 km/h
519 25-12-2008 07:43:39 4.8 C 5.43 g/m*3 4.8 C 0 km/h
520 25-12-2008 07:55:38 4.8 C 5.43 g/m*3 4.8 C 0 km/h
521 25-12-2008 08:07:38 4.7 C 5.4 g/m*3 4.7 C 0 km/h
522 25-12-2008 08:19:39 4.7 C 5.4 g/m*3 4.7 C 0 km/h
523 25-12-2008 08:31:38 4.7 C 5.4 g/m*3 4.7 C 0 km/h
524 25-12-2008 08:43:38 4.8 C 5.43 g/m*3 4.8 C 0 km/h
525 25-12-2008 08:55:38 4.8 C 5.43 g/m*3 4.8 C 0 km/h
Sensor: Nr:Datum:Temp:Abs-Feuchte:Windchill:Wind:
Aussen-T/F 526 25-12-2008 09:07:38 4.8 C 5.43 g/m*3 4.8 C 0 km/h
527 25-12-2008 09:24:38 5 C 5.44 g/m*3 5 C 0 km/h
528 25-12-2008 09:36:37 5.1 C 5.47 g/m*3 5.1 C 0 km/h
529 25-12-2008 09:48:38 5.3 C 5.48 g/m*3 5.3 C 0 km/h
530 25-12-2008 10:00:37 5.4 C 5.58 g/m*3 5.4 C 0 km/h
531 25-12-2008 10:12:37 5.7 C 5.62 g/m*3 5.7 C 0 km/h
532 25-12-2008 10:24:37 5.8 C 5.59 g/m*3 5.8 C 0 km/h
533 25-12-2008 10:36:37 6 C 5.52 g/m*3 6 C 0 km/h
534 25-12-2008 10:48:37 6.2 C 5.44 g/m*3 6.2 C 0 km/h
535 25-12-2008 11:00:36 6.3 C 5.4 g/m*3 6.3 C 0 km/h
536 25-12-2008 11:12:36 6.3 C 5.33 g/m*3 6.3 C 0 km/h
537 25-12-2008 11:25:37 6.3 C 5.26 g/m*3 6.3 C 0 km/h
538 25-12-2008 11:37:36 6.4 C 5.07 g/m*3 6.4 C 0 km/h
539 25-12-2008 11:49:37 6.9 C 4.93 g/m*3 6.9 C 0 km/h
540 25-12-2008 12:01:36 7 C 4.8 g/m*3 7 C 0 km/h
541 25-12-2008 12:13:36 7 C 4.8 g/m*3 7 C 0 km/h
542 25-12-2008 12:25:36 6.9 C 4.85 g/m*3 6.9 C 0 km/h
543 25-12-2008 12:37:36 7.1 C 4.76 g/m*3 7.1 C 0 km/h
544 25-12-2008 12:49:36 7.1 C 4.6 g/m*3 7.1 C 0 km/h
545 25-12-2008 13:01:35 7 C 4.65 g/m*3 7 C 0 km/h
546 25-12-2008 13:13:35 7 C 4.65 g/m*3 7 C 0 km/h
547 25-12-2008 13:25:36 6.9 C 4.7 g/m*3 6.9 C 0 km/h
548 25-12-2008 13:37:35 7 C 4.57 g/m*3 7 C 0 km/h
549 25-12-2008 13:49:35 7 C 4.49 g/m*3 7 C 0 km/h
550 25-12-2008 14:01:35 7.1 C 4.37 g/m*3 7.1 C 0 km/h
Sensor: Nr:Datum:Temp:Abs-Feuchte:Windchill:Wind:
Aussen-T/F 551 25-12-2008 14:13:35 7.1 C 4.52 g/m*3 7.1 C 0 km/h
552 25-12-2008 14:25:35 7.1 C 4.37 g/m*3 7.1 C 0 km/h
553 25-12-2008 14:37:35 7 C 4.26 g/m*3 7 C 0 km/h
554 25-12-2008 14:49:35 7.1 C 4.21 g/m*3 7.1 C 0 km/h
555 25-12-2008 15:01:35 7.2 C 4.24 g/m*3 7.2 C 0 km/h
556 25-12-2008 15:13:35 7.1 C 4.29 g/m*3 7.1 C 0 km/h
557 25-12-2008 15:25:35 7 C 4.26 g/m*3 7 C 0 km/h
558 25-12-2008 15:37:34 6.9 C 4.39 g/m*3 6.9 C 0 km/h
559 25-12-2008 15:49:34 6.6 C 4.45 g/m*3 6.6 C 0 km/h
560 25-12-2008 16:01:34 6.1 C 4.24 g/m*3 6.1 C 0 km/h
561 25-12-2008 16:13:34 5.9 C 4.33 g/m*3 5.9 C 0 km/h
562 25-12-2008 16:25:34 5.6 C 4.31 g/m*3 5.6 C 0 km/h
563 25-12-2008 16:37:34 5.1 C 4.24 g/m*3 5.1 C 0 km/h
564 25-12-2008 16:49:33 4.8 C 4.29 g/m*3 4.8 C 0 km/h
565 25-12-2008 17:01:34 4.7 C 4.26 g/m*3 4.7 C 0 km/h
566 25-12-2008 17:13:34 4.5 C 4.14 g/m*3 4.5 C 0 km/h
567 25-12-2008 17:25:33 4.2 C 4.12 g/m*3 4.2 C 0 km/h
568 25-12-2008 17:37:34 4 C 4.07 g/m*3 4 C 0 km/h
569 25-12-2008 17:49:34 3.7 C 3.99 g/m*3 3.7 C 0 km/h
570 25-12-2008 18:01:33 3.5 C 3.87 g/m*3 3.5 C 0 km/h
571 25-12-2008 18:13:34 3.3 C 3.76 g/m*3 3.3 C 0 km/h
572 25-12-2008 18:25:33 3.1 C 3.47 g/m*3 3.1 C 0 km/h
573 25-12-2008 18:37:33 3 C 3.33 g/m*3 3 C 0 km/h
574 25-12-2008 18:49:33 2.7 C 3.38 g/m*3 2.7 C 0 km/h
575 25-12-2008 19:01:32 2.4 C 3.31 g/m*3 2.4 C 0 km/h
Sensor: Nr:Datum:Temp:Abs-Feuchte:Windchill:Wind:
Aussen-T/F 576 25-12-2008 19:13:32 2.2 C 3.27 g/m*3 2.2 C 0 km/h
577 25-12-2008 19:25:33 1.8 C 3.18 g/m*3 1.8 C 0 km/h
578 25-12-2008 19:37:32 1.5 C 3.12 g/m*3 1.5 C 0 km/h
579 25-12-2008 19:49:32 1.3 C 3.07 g/m*3 1.3 C 0 km/h
580 25-12-2008 20:01:32 1.1 C 3.08 g/m*3 1.1 C 0 km/h
581 25-12-2008 20:13:32 1 C 3.11 g/m*3 1 C 0 km/h
582 25-12-2008 20:25:31 1 C 3.06 g/m*3 1 C 0 km/h
583 25-12-2008 20:37:32 1 C 3.06 g/m*3 1 C 0 km/h
584 25-12-2008 20:49:32 1.1 C 3.08 g/m*3 1.1 C 0 km/h
585 25-12-2008 21:01:32 1 C 3.01 g/m*3 1 C 0 km/h
586 25-12-2008 21:13:32 1 C 3.01 g/m*3 1 C 0 km/h
587 25-12-2008 21:25:31 0.9 C 2.99 g/m*3 0.9 C 0 km/h
588 25-12-2008 21:37:31 0.8 C 2.97 g/m*3 0.8 C 0 km/h
589 25-12-2008 21:49:31 0.7 C 2.9 g/m*3 0.7 C 0 km/h
590 25-12-2008 22:01:31 0.6 C 2.88 g/m*3 0.6 C 0 km/h
591 25-12-2008 22:13:31 0.6 C 2.88 g/m*3 0.6 C 0 km/h
592 25-12-2008 22:25:31 0.5 C 2.86 g/m*3 0.5 C 0 km/h
593 25-12-2008 22:37:31 0.6 C 2.93 g/m*3 0.6 C 0 km/h
594 25-12-2008 22:49:30 0.7 C 2.9 g/m*3 0.7 C 0 km/h
595 25-12-2008 23:01:30 0.5 C 2.86 g/m*3 0.5 C 0 km/h
596 25-12-2008 23:13:30 0.3 C 2.82 g/m*3 0.3 C 0 km/h
597 25-12-2008 23:25:30 0 C 2.81 g/m*3 0 C 0 km/h
598 25-12-2008 23:37:30 -0.4 C 2.83 g/m*3 -0.4 C 0 km/h
599 25-12-2008 23:49:29 -0.5 C 2.81 g/m*3 -0.5 C 0 km/h
600 26-12-2008 00:01:30 -0.6 C 2.79 g/m*3 -0.6 C 0 km/h
Sensor: Nr:Datum:Temp:Abs-Feuchte:Windchill:Wind:
Aussen-T/F 601 26-12-2008 00:13:30 -0.6 C 2.79 g/m*3 -0.6 C 0 km/h
602 26-12-2008 00:25:30 -0.7 C 2.82 g/m*3 -0.7 C 0 km/h
603 26-12-2008 00:37:29 -0.7 C 2.82 g/m*3 -0.7 C 0 km/h
604 26-12-2008 00:49:30 -0.5 C 2.86 g/m*3 -0.5 C 0 km/h
605 26-12-2008 01:01:29 -0.2 C 2.91 g/m*3 -0.2 C 0 km/h
606 26-12-2008 01:13:29 0.2 C 2.95 g/m*3 0.2 C 0 km/h
607 26-12-2008 01:25:29 0.4 C 2.94 g/m*3 0.4 C 0 km/h
608 26-12-2008 01:37:29 0.5 C 2.91 g/m*3 0.5 C 0 km/h
609 26-12-2008 01:49:29 0.5 C 2.86 g/m*3 0.5 C 0 km/h
610 26-12-2008 02:01:28 0.5 C 2.81 g/m*3 0.5 C 0 km/h
611 26-12-2008 02:13:28 0.4 C 2.84 g/m*3 0.4 C 0 km/h
612 26-12-2008 02:25:29 0.2 C 2.8 g/m*3 0.2 C 0 km/h
613 26-12-2008 02:37:29 0.2 C 2.75 g/m*3 0.2 C 0 km/h
614 26-12-2008 02:50:01 0.2 C 2.7 g/m*3 0.2 C 0 km/h
615 26-12-2008 03:02:01 0.1 C 2.68 g/m*3 0.1 C 0 km/h
616 26-12-2008 03:14:01 -0.2 C 2.58 g/m*3 -0.2 C 0 km/h
617 26-12-2008 03:26:01 -0.5 C 2.48 g/m*3 -0.5 C 0 km/h
618 26-12-2008 03:38:02 -0.6 C 2.46 g/m*3 -0.6 C 0 km/h
619 26-12-2008 03:50:02 -0.8 C 2.48 g/m*3 -0.8 C 0 km/h
620 26-12-2008 04:02:01 -0.8 C 2.52 g/m*3 -0.8 C 0 km/h
621 26-12-2008 04:14:01 -0.9 C 2.5 g/m*3 -0.9 C 0 km/h
622 26-12-2008 04:26:01 -1 C 2.49 g/m*3 -1 C 0 km/h
623 26-12-2008 04:38:02 -1 C 2.49 g/m*3 -1 C 0 km/h
624 26-12-2008 04:50:01 -1.1 C 2.47 g/m*3 -1.1 C 0 km/h
625 26-12-2008 05:02:01 -1.1 C 2.47 g/m*3 -1.1 C 0 km/h
Sensor: Nr:Datum:Temp:Abs-Feuchte:Windchill:Wind:
Aussen-T/F 626 26-12-2008 05:14:01 -1.2 C 2.5 g/m*3 -1.2 C 0 km/h
627 26-12-2008 05:26:01 -1.3 C 2.48 g/m*3 -1.3 C 0 km/h
628 26-12-2008 05:38:01 -1.3 C 2.48 g/m*3 -1.3 C 0 km/h
629 26-12-2008 05:50:01 -1.4 C 2.51 g/m*3 -1.4 C 0 km/h
630 26-12-2008 06:02:01 -1.4 C 2.51 g/m*3 -1.4 C 0 km/h
631 26-12-2008 06:14:01 -1.6 C 2.47 g/m*3 -1.6 C 0 km/h
632 26-12-2008 06:26:01 -1.6 C 2.47 g/m*3 -1.6 C 0 km/h
633 26-12-2008 06:38:01 -1.6 C 2.47 g/m*3 -1.6 C 0 km/h
634 26-12-2008 06:50:01 -1.7 C 2.45 g/m*3 -1.7 C 0 km/h
635 26-12-2008 07:02:01 -1.7 C 2.45 g/m*3 -1.7 C 0 km/h
636 26-12-2008 07:14:01 -1.7 C 2.5 g/m*3 -1.7 C 0 km/h
637 26-12-2008 07:26:02 -1.8 C 2.48 g/m*3 -1.8 C 0 km/h
638 26-12-2008 07:38:01 -1.7 C 2.5 g/m*3 -1.7 C 0 km/h
639 26-12-2008 07:50:02 -1.8 C 2.44 g/m*3 -1.8 C 0 km/h
640 26-12-2008 08:02:01 -1.9 C 2.46 g/m*3 -1.9 C 0 km/h
641 26-12-2008 08:14:01 -1.9 C 2.46 g/m*3 -1.9 C 0 km/h
642 26-12-2008 08:26:01 -2 C 2.49 g/m*3 -2 C 0 km/h
643 26-12-2008 08:38:01 -2 C 2.49 g/m*3 -2 C 0 km/h
644 26-12-2008 08:50:01 -2 C 2.53 g/m*3 -2 C 0 km/h
645 26-12-2008 09:02:02 -2 C 2.53 g/m*3 -2 C 0 km/h
646 26-12-2008 09:14:02 -1.9 C 2.55 g/m*3 -1.9 C 0 km/h
647 26-12-2008 09:26:01 -1.9 C 2.55 g/m*3 -1.9 C 0 km/h
648 26-12-2008 09:38:02 -1.8 C 2.56 g/m*3 -1.8 C 0 km/h
649 26-12-2008 09:50:01 -1.7 C 2.58 g/m*3 -1.7 C 0 km/h
650 26-12-2008 10:02:02 -1.6 C 2.6 g/m*3 -1.6 C 0 km/h
Sensor: Nr:Datum:Temp:Abs-Feuchte:Windchill:Wind:
Aussen-T/F 651 26-12-2008 10:14:02 -1.5 C 2.58 g/m*3 -1.5 C 0 km/h
652 26-12-2008 10:26:01 -1.5 C 2.58 g/m*3 -1.5 C 0 km/h
653 26-12-2008 10:38:02 -1.4 C 2.55 g/m*3 -1.4 C 0 km/h
654 26-12-2008 10:50:01 -1.3 C 2.57 g/m*3 -1.3 C 0 km/h
655 26-12-2008 11:02:02 -1.2 C 2.54 g/m*3 -1.2 C 0 km/h
656 26-12-2008 11:14:02 -1 C 2.58 g/m*3 -1 C 0 km/h
657 26-12-2008 11:26:01 -0.8 C 2.52 g/m*3 -0.8 C 0 km/h
658 26-12-2008 11:38:01 -0.9 C 2.5 g/m*3 -0.9 C 0 km/h
659 26-12-2008 11:50:01 -0.8 C 2.52 g/m*3 -0.8 C 0 km/h
660 26-12-2008 12:02:01 -0.6 C 2.51 g/m*3 -0.6 C 0 km/h
661 26-12-2008 12:14:01 -0.6 C 2.51 g/m*3 -0.6 C 0 km/h
662 26-12-2008 12:26:01 -0.5 C 2.53 g/m*3 -0.5 C 0 km/h
663 26-12-2008 12:38:01 -0.3 C 2.56 g/m*3 -0.3 C 0 km/h
664 26-12-2008 12:50:01 -0.2 C 2.48 g/m*3 -0.2 C 0 km/h
665 26-12-2008 13:02:01 0 C 2.52 g/m*3 0 C 0 km/h
666 26-12-2008 13:14:01 0.1 C 2.54 g/m*3 0.1 C 0 km/h
667 26-12-2008 13:26:02 0.2 C 2.55 g/m*3 0.2 C 0 km/h
668 26-12-2008 13:38:01 0.4 C 2.54 g/m*3 0.4 C 0 km/h
669 26-12-2008 13:50:02 0.3 C 2.57 g/m*3 0.3 C 0 km/h
670 26-12-2008 14:02:01 0.4 C 2.54 g/m*3 0.4 C 0 km/h
671 26-12-2008 14:14:01 0.4 C 2.54 g/m*3 0.4 C 0 km/h
672 26-12-2008 14:26:02 0.5 C 2.56 g/m*3 0.5 C 0 km/h
673 26-12-2008 14:38:01 0.5 C 2.56 g/m*3 0.5 C 0 km/h
674 26-12-2008 14:50:01 0.5 C 2.56 g/m*3 0.5 C 0 km/h
675 26-12-2008 15:02:01 0.6 C 2.52 g/m*3 0.6 C 0 km/h
Sensor: Nr:Datum:Temp:Abs-Feuchte:Windchill:Wind:
Aussen-T/F 676 26-12-2008 15:14:01 0.6 C 2.52 g/m*3 0.6 C 0 km/h
677 26-12-2008 15:26:01 0.5 C 2.56 g/m*3 0.5 C 0 km/h
678 26-12-2008 15:38:02 0.6 C 2.58 g/m*3 0.6 C 0 km/h
679 26-12-2008 15:50:01 0.3 C 2.57 g/m*3 0.3 C 0 km/h
680 26-12-2008 16:02:02 0.2 C 2.6 g/m*3 0.2 C 0 km/h
681 26-12-2008 16:14:02 -0.3 C 2.66 g/m*3 -0.3 C 0 km/h
682 26-12-2008 16:26:01 -0.5 C 2.67 g/m*3 -0.5 C 0 km/h
683 26-12-2008 16:38:01 -0.5 C 2.67 g/m*3 -0.5 C 0 km/h
684 26-12-2008 16:50:01 -0.5 C 2.62 g/m*3 -0.5 C 0 km/h
685 26-12-2008 17:02:01 -0.7 C 2.58 g/m*3 -0.7 C 0 km/h
686 26-12-2008 17:14:01 -1 C 2.62 g/m*3 -1 C 0 km/h
687 26-12-2008 17:26:01 -1.3 C 2.61 g/m*3 -1.3 C 0 km/h
688 26-12-2008 17:38:01 -1.3 C 2.66 g/m*3 -1.3 C 0 km/h
689 26-12-2008 17:50:01 -1.3 C 2.61 g/m*3 -1.3 C 0 km/h
690 26-12-2008 18:02:01 -1.4 C 2.59 g/m*3 -1.4 C 0 km/h
691 26-12-2008 18:14:01 -1.6 C 2.64 g/m*3 -1.6 C 0 km/h
692 26-12-2008 18:26:02 -1.9 C 2.63 g/m*3 -1.9 C 0 km/h
693 26-12-2008 18:38:01 -2 C 2.66 g/m*3 -2 C 0 km/h
694 26-12-2008 18:50:02 -2.1 C 2.64 g/m*3 -2.1 C 0 km/h
695 26-12-2008 19:02:01 -2.1 C 2.68 g/m*3 -2.1 C 0 km/h
696 26-12-2008 19:14:01 -2 C 2.7 g/m*3 -2 C 0 km/h
697 26-12-2008 19:26:01 -1.9 C 2.63 g/m*3 -1.9 C 0 km/h
698 26-12-2008 19:38:01 -2.3 C 2.64 g/m*3 -2.3 C 0 km/h
699 26-12-2008 19:50:01 -2.4 C 2.66 g/m*3 -2.4 C 0 km/h
700 26-12-2008 20:02:02 -2.5 C 2.69 g/m*3 -2.5 C 0 km/h
Sensor: Nr:Datum:Temp:Abs-Feuchte:Windchill:Wind:
Aussen-T/F 701 26-12-2008 20:14:02 -2.4 C 2.66 g/m*3 -2.4 C 0 km/h
702 26-12-2008 20:26:01 -2.3 C 2.64 g/m*3 -2.3 C 0 km/h
703 26-12-2008 20:38:02 -2.5 C 2.6 g/m*3 -2.5 C 0 km/h
704 26-12-2008 20:50:01 -2.5 C 2.6 g/m*3 -2.5 C 0 km/h
705 26-12-2008 21:02:02 -2.6 C 2.59 g/m*3 -2.6 C 0 km/h
706 26-12-2008 21:14:02 -2.6 C 2.59 g/m*3 -2.6 C 0 km/h
707 26-12-2008 21:26:01 -2.7 C 2.57 g/m*3 -2.7 C 0 km/h
708 26-12-2008 21:38:02 -2.8 C 2.59 g/m*3 -2.8 C 0 km/h
709 26-12-2008 21:50:01 -3 C 2.55 g/m*3 -3 C 0 km/h
710 26-12-2008 22:02:02 -3 C 2.59 g/m*3 -3 C 0 km/h
711 26-12-2008 22:14:02 -3.1 C 2.57 g/m*3 -3.1 C 0 km/h
712 26-12-2008 22:26:01 -3.1 C 2.61 g/m*3 -3.1 C 0 km/h
713 26-12-2008 22:38:01 -3.1 C 2.57 g/m*3 -3.1 C 0 km/h
714 26-12-2008 22:50:01 -3.1 C 2.57 g/m*3 -3.1 C 0 km/h
715 26-12-2008 23:02:01 -3.2 C 2.59 g/m*3 -3.2 C 0 km/h
716 26-12-2008 23:14:01 -3.3 C 2.58 g/m*3 -3.3 C 0 km/h
717 26-12-2008 23:26:02 -3.6 C 2.56 g/m*3 -3.6 C 0 km/h
718 26-12-2008 23:38:01 -3.5 C 2.65 g/m*3 -3.5 C 0 km/h
719 26-12-2008 23:50:02 -3.4 C 2.67 g/m*3 -3.4 C 0 km/h
720 27-12-2008 00:02:01 -3.4 C 2.63 g/m*3 -3.4 C 0 km/h
721 27-12-2008 00:14:01 -3.3 C 2.65 g/m*3 -3.3 C 0 km/h
722 27-12-2008 00:26:02 -3.2 C 2.71 g/m*3 -3.2 C 0 km/h
723 27-12-2008 00:38:01 -3.1 C 2.69 g/m*3 -3.1 C 0 km/h
724 27-12-2008 00:50:02 -3.1 C 2.69 g/m*3 -3.1 C 0 km/h
725 27-12-2008 01:02:01 -3.1 C 2.69 g/m*3 -3.1 C 0 km/h
Sensor: Nr:Datum:Temp:Abs-Feuchte:Windchill:Wind:
Aussen-T/F 726 27-12-2008 01:14:01 -3 C 2.67 g/m*3 -3 C 0 km/h
727 27-12-2008 01:26:02 -3.1 C 2.65 g/m*3 -3.1 C 0 km/h
728 27-12-2008 01:38:01 -3 C 2.71 g/m*3 -3 C 0 km/h
729 27-12-2008 01:50:02 -2.9 C 2.73 g/m*3 -2.9 C 0 km/h
730 27-12-2008 02:02:01 -2.8 C 2.71 g/m*3 -2.8 C 0 km/h
731 27-12-2008 02:14:01 -2.8 C 2.67 g/m*3 -2.8 C 0 km/h
732 27-12-2008 02:26:01 -2.8 C 2.67 g/m*3 -2.8 C 0 km/h
733 27-12-2008 02:38:02 -2.9 C 2.65 g/m*3 -2.9 C 0 km/h
734 27-12-2008 02:50:19 -2.7 C 2.69 g/m*3 -2.7 C 0 km/h
735 27-12-2008 03:02:19 -2.7 C 2.69 g/m*3 -2.7 C 0 km/h
736 27-12-2008 03:14:18 -2.7 C 2.69 g/m*3 -2.7 C 0 km/h
737 27-12-2008 03:26:18 -2.7 C 2.65 g/m*3 -2.7 C 0 km/h
738 27-12-2008 03:38:18 -2.7 C 2.65 g/m*3 -2.7 C 0 km/h
739 27-12-2008 03:50:19 -2.8 C 2.67 g/m*3 -2.8 C 0 km/h
740 27-12-2008 04:02:18 -2.7 C 2.65 g/m*3 -2.7 C 0 km/h
741 27-12-2008 04:14:18 -2.5 C 2.69 g/m*3 -2.5 C 0 km/h
742 27-12-2008 04:26:18 -2.5 C 2.65 g/m*3 -2.5 C 0 km/h
743 27-12-2008 04:38:18 -2.5 C 2.65 g/m*3 -2.5 C 0 km/h
744 27-12-2008 04:50:18 -2.5 C 2.65 g/m*3 -2.5 C 0 km/h
745 27-12-2008 05:02:18 -2.5 C 2.65 g/m*3 -2.5 C 0 km/h
746 27-12-2008 05:14:17 -2.4 C 2.62 g/m*3 -2.4 C 0 km/h
747 27-12-2008 05:26:17 -2.3 C 2.64 g/m*3 -2.3 C 0 km/h
748 27-12-2008 05:38:18 -2.3 C 2.6 g/m*3 -2.3 C 0 km/h
749 27-12-2008 05:50:17 -2.3 C 2.56 g/m*3 -2.3 C 0 km/h
750 27-12-2008 06:02:18 -2.3 C 2.6 g/m*3 -2.3 C 0 km/h
Sensor: Nr:Datum:Temp:Abs-Feuchte:Windchill:Wind:
Aussen-T/F 751 27-12-2008 06:14:17 -2.3 C 2.6 g/m*3 -2.3 C 0 km/h
752 27-12-2008 06:26:17 -2.3 C 2.6 g/m*3 -2.3 C 0 km/h
753 27-12-2008 06:38:17 -2.3 C 2.56 g/m*3 -2.3 C 0 km/h
754 27-12-2008 06:50:16 -2.3 C 2.56 g/m*3 -2.3 C 0 km/h
755 27-12-2008 07:02:17 -2.4 C 2.54 g/m*3 -2.4 C 0 km/h
756 27-12-2008 07:14:16 -2.3 C 2.52 g/m*3 -2.3 C 0 km/h
757 27-12-2008 07:26:16 -2.3 C 2.52 g/m*3 -2.3 C 0 km/h
758 27-12-2008 07:38:16 -2.1 C 2.6 g/m*3 -2.1 C 0 km/h
759 27-12-2008 07:50:16 -2.3 C 2.56 g/m*3 -2.3 C 0 km/h
760 27-12-2008 08:02:16 -2.4 C 2.54 g/m*3 -2.4 C 0 km/h
761 27-12-2008 08:14:16 -2.4 C 2.54 g/m*3 -2.4 C 0 km/h
762 27-12-2008 08:26:16 -2.4 C 2.54 g/m*3 -2.4 C 0 km/h
763 27-12-2008 08:38:16 -2.3 C 2.56 g/m*3 -2.3 C 0 km/h
764 27-12-2008 08:50:16 -2.1 C 2.55 g/m*3 -2.1 C 0 km/h
765 27-12-2008 09:02:15 -2.1 C 2.55 g/m*3 -2.1 C 0 km/h
766 27-12-2008 09:14:15 -2 C 2.53 g/m*3 -2 C 0 km/h
767 27-12-2008 09:26:16 -2 C 2.49 g/m*3 -2 C 0 km/h
768 27-12-2008 09:38:15 -1.9 C 2.46 g/m*3 -1.9 C 0 km/h
769 27-12-2008 09:50:16 -1.7 C 2.5 g/m*3 -1.7 C 0 km/h
770 27-12-2008 10:02:16 -1.7 C 2.45 g/m*3 -1.7 C 0 km/h
771 27-12-2008 10:14:14 -1.6 C 2.47 g/m*3 -1.6 C 0 km/h
772 27-12-2008 10:26:14 -1.4 C 2.46 g/m*3 -1.4 C 0 km/h
773 27-12-2008 10:38:15 -1.3 C 2.43 g/m*3 -1.3 C 0 km/h
774 27-12-2008 10:50:14 -1.2 C 2.45 g/m*3 -1.2 C 0 km/h
775 27-12-2008 11:02:15 -1 C 2.49 g/m*3 -1 C 0 km/h
Sensor: Nr:Datum:Temp:Abs-Feuchte:Windchill:Wind:
Aussen-T/F 776 27-12-2008 11:14:14 -1 C 2.49 g/m*3 -1 C 0 km/h
777 27-12-2008 11:26:14 -0.8 C 2.48 g/m*3 -0.8 C 0 km/h
778 27-12-2008 11:38:15 -0.6 C 2.51 g/m*3 -0.6 C 0 km/h
779 27-12-2008 11:50:14 -0.6 C 2.46 g/m*3 -0.6 C 0 km/h
780 27-12-2008 12:02:14 -0.6 C 2.42 g/m*3 -0.6 C 0 km/h
781 27-12-2008 12:14:14 -0.4 C 2.45 g/m*3 -0.4 C 0 km/h
782 27-12-2008 12:26:14 -0.2 C 2.48 g/m*3 -0.2 C 0 km/h
783 27-12-2008 12:38:13 0 C 2.47 g/m*3 0 C 0 km/h
784 27-12-2008 12:50:14 0 C 2.47 g/m*3 0 C 0 km/h
785 27-12-2008 13:02:13 -0.1 C 2.41 g/m*3 -0.1 C 0 km/h
786 27-12-2008 13:14:13 -0.2 C 2.44 g/m*3 -0.2 C 0 km/h
787 27-12-2008 13:26:13 -0.3 C 2.42 g/m*3 -0.3 C 0 km/h
788 27-12-2008 13:38:13 -0.4 C 2.4 g/m*3 -0.4 C 0 km/h
789 27-12-2008 13:50:13 -0.5 C 2.39 g/m*3 -0.5 C 0 km/h
790 27-12-2008 14:02:13 -0.6 C 2.37 g/m*3 -0.6 C 0 km/h
791 27-12-2008 14:14:12 -0.7 C 2.35 g/m*3 -0.7 C 0 km/h
792 27-12-2008 14:26:12 -0.7 C 2.4 g/m*3 -0.7 C 0 km/h
793 27-12-2008 14:38:13 -0.7 C 2.4 g/m*3 -0.7 C 0 km/h
794 27-12-2008 14:50:12 -0.8 C 2.38 g/m*3 -0.8 C 0 km/h
795 27-12-2008 15:02:12 -0.7 C 2.45 g/m*3 -0.7 C 0 km/h
796 27-12-2008 15:14:12 -0.6 C 2.46 g/m*3 -0.6 C 0 km/h
797 27-12-2008 15:26:12 -0.6 C 2.46 g/m*3 -0.6 C 0 km/h
798 27-12-2008 15:38:12 -0.8 C 2.43 g/m*3 -0.8 C 0 km/h
799 27-12-2008 15:50:11 -0.9 C 2.46 g/m*3 -0.9 C 0 km/h
800 27-12-2008 16:02:12 -1 C 2.49 g/m*3 -1 C 0 km/h
Sensor: Nr:Datum:Temp:Abs-Feuchte:Windchill:Wind:
Aussen-T/F 801 27-12-2008 16:14:12 -1.1 C 2.47 g/m*3 -1.1 C 0 km/h
802 27-12-2008 16:26:12 -1.1 C 2.47 g/m*3 -1.1 C 0 km/h
803 27-12-2008 16:38:11 -1.2 C 2.45 g/m*3 -1.2 C 0 km/h
804 27-12-2008 16:50:12 -1.3 C 2.43 g/m*3 -1.3 C 0 km/h
805 27-12-2008 17:02:11 -1.3 C 2.48 g/m*3 -1.3 C 0 km/h
806 27-12-2008 17:14:11 -1.2 C 2.5 g/m*3 -1.2 C 0 km/h
807 27-12-2008 17:26:11 -1.2 C 2.5 g/m*3 -1.2 C 0 km/h
808 27-12-2008 17:38:11 -1.3 C 2.48 g/m*3 -1.3 C 0 km/h
809 27-12-2008 17:50:37 -1.4 C 2.51 g/m*3 -1.4 C 0 km/h
810 27-12-2008 18:02:37 -1.4 C 2.51 g/m*3 -1.4 C 0 km/h
811 27-12-2008 18:14:38 -1.4 C 2.51 g/m*3 -1.4 C 0 km/h
812 27-12-2008 18:26:38 -1.4 C 2.51 g/m*3 -1.4 C 0 km/h
813 27-12-2008 18:38:38 -1.4 C 2.51 g/m*3 -1.4 C 0 km/h
814 27-12-2008 18:50:38 -1.4 C 2.51 g/m*3 -1.4 C 0 km/h
815 27-12-2008 19:02:38 -1.4 C 2.55 g/m*3 -1.4 C 0 km/h
816 27-12-2008 19:14:38 -1.5 C 2.53 g/m*3 -1.5 C 0 km/h
817 27-12-2008 19:26:02 -1.6 C 2.51 g/m*3 -1.6 C 0 km/h
818 27-12-2008 19:38:01 -1.6 C 2.56 g/m*3 -1.6 C 0 km/h
819 27-12-2008 19:50:01 -1.6 C 2.56 g/m*3 -1.6 C 0 km/h
820 27-12-2008 20:02:01 -1.6 C 2.6 g/m*3 -1.6 C 0 km/h
821 27-12-2008 20:14:01 -1.6 C 2.6 g/m*3 -1.6 C 0 km/h
822 27-12-2008 20:26:00 -1.8 C 2.56 g/m*3 -1.8 C 0 km/h
823 27-12-2008 20:38:00 -1.9 C 2.59 g/m*3 -1.9 C 0 km/h
824 27-12-2008 20:50:00 -2 C 2.57 g/m*3 -2 C 0 km/h
825 27-12-2008 21:02:00 -1.9 C 2.59 g/m*3 -1.9 C 0 km/h
Sensor: Nr:Datum:Temp:Abs-Feuchte:Windchill:Wind:
Aussen-T/F 826 27-12-2008 21:14:00 -2 C 2.57 g/m*3 -2 C 0 km/h
827 27-12-2008 21:26:00 -2.1 C 2.6 g/m*3 -2.1 C 0 km/h
828 27-12-2008 21:38:00 -2.2 C 2.62 g/m*3 -2.2 C 0 km/h
829 27-12-2008 21:50:00 -2.2 C 2.58 g/m*3 -2.2 C 0 km/h
830 27-12-2008 22:02:59 -2.3 C 2.6 g/m*3 -2.3 C 0 km/h
831 27-12-2008 22:14:00 -2.4 C 2.58 g/m*3 -2.4 C 0 km/h
832 27-12-2008 22:26:00 -2.5 C 2.56 g/m*3 -2.5 C 0 km/h
833 27-12-2008 22:38:59 -2.7 C 2.57 g/m*3 -2.7 C 0 km/h
834 27-12-2008 22:50:59 -2.8 C 2.59 g/m*3 -2.8 C 0 km/h
835 27-12-2008 23:02:00 -2.9 C 2.57 g/m*3 -2.9 C 0 km/h
836 27-12-2008 23:14:00 -3 C 2.55 g/m*3 -3 C 0 km/h
837 27-12-2008 23:26:59 -3.1 C 2.57 g/m*3 -3.1 C 0 km/h
838 27-12-2008 23:38:59 -3.2 C 2.56 g/m*3 -3.2 C 0 km/h
839 27-12-2008 23:50:59 -3.3 C 2.58 g/m*3 -3.3 C 0 km/h
840 28-12-2008 00:02:59 -3.2 C 2.59 g/m*3 -3.2 C 0 km/h
841 28-12-2008 00:14:59 -3.2 C 2.59 g/m*3 -3.2 C 0 km/h
842 28-12-2008 00:26:59 -3.1 C 2.57 g/m*3 -3.1 C 0 km/h
843 28-12-2008 00:38:58 -3.1 C 2.57 g/m*3 -3.1 C 0 km/h
844 28-12-2008 00:50:59 -3 C 2.55 g/m*3 -3 C 0 km/h
845 28-12-2008 01:02:58 -3 C 2.55 g/m*3 -3 C 0 km/h
846 28-12-2008 01:14:58 -3.1 C 2.54 g/m*3 -3.1 C 0 km/h
847 28-12-2008 01:26:58 -3.1 C 2.54 g/m*3 -3.1 C 0 km/h
848 28-12-2008 01:38:57 -3.1 C 2.54 g/m*3 -3.1 C 0 km/h
849 28-12-2008 01:50:58 -3.4 C 2.48 g/m*3 -3.4 C 0 km/h
850 28-12-2008 02:02:57 -3.5 C 2.5 g/m*3 -3.5 C 0 km/h
Sensor: Nr:Datum:Temp:Abs-Feuchte:Windchill:Wind:
Aussen-T/F 851 28-12-2008 02:14:57 -3.7 C 2.47 g/m*3 -3.7 C 0 km/h
852 28-12-2008 02:26:57 -3.7 C 2.5 g/m*3 -3.7 C 0 km/h
853 28-12-2008 02:38:57 -3.5 C 2.54 g/m*3 -3.5 C 0 km/h
854 28-12-2008 02:51:58 -3.4 C 2.56 g/m*3 -3.4 C 0 km/h
855 28-12-2008 03:03:58 -3.7 C 2.5 g/m*3 -3.7 C 0 km/h
856 28-12-2008 03:15:58 -3.6 C 2.56 g/m*3 -3.6 C 0 km/h
857 28-12-2008 03:27:58 -3.5 C 2.58 g/m*3 -3.5 C 0 km/h
858 28-12-2008 03:39:58 -3.3 C 2.61 g/m*3 -3.3 C 0 km/h
859 28-12-2008 03:51:58 -3.3 C 2.58 g/m*3 -3.3 C 0 km/h
860 28-12-2008 04:03:58 -3.1 C 2.57 g/m*3 -3.1 C 0 km/h
861 28-12-2008 04:15:58 -3.1 C 2.54 g/m*3 -3.1 C 0 km/h
862 28-12-2008 04:27:58 -3 C 2.55 g/m*3 -3 C 0 km/h
863 28-12-2008 04:39:58 -2.8 C 2.55 g/m*3 -2.8 C 0 km/h
864 28-12-2008 04:51:58 -2.6 C 2.55 g/m*3 -2.6 C 0 km/h
865 28-12-2008 05:03:57 -2.6 C 2.51 g/m*3 -2.6 C 0 km/h
866 28-12-2008 05:15:57 -2.5 C 2.52 g/m*3 -2.5 C 0 km/h
867 28-12-2008 05:27:57 -2.4 C 2.5 g/m*3 -2.4 C 0 km/h
868 28-12-2008 05:39:57 -2.4 C 2.5 g/m*3 -2.4 C 0 km/h
869 28-12-2008 05:51:56 -2.5 C 2.48 g/m*3 -2.5 C 0 km/h
870 28-12-2008 06:03:57 -2.5 C 2.48 g/m*3 -2.5 C 0 km/h
871 28-12-2008 06:15:57 -2.7 C 2.45 g/m*3 -2.7 C 0 km/h
872 28-12-2008 06:27:57 -2.7 C 2.45 g/m*3 -2.7 C 0 km/h
873 28-12-2008 06:39:56 -2.8 C 2.47 g/m*3 -2.8 C 0 km/h
874 28-12-2008 06:51:57 -2.7 C 2.45 g/m*3 -2.7 C 0 km/h
875 28-12-2008 07:03:56 -2.5 C 2.48 g/m*3 -2.5 C 0 km/h
Sensor: Nr:Datum:Temp:Abs-Feuchte:Windchill:Wind:
Aussen-T/F 876 28-12-2008 07:15:56 -2.7 C 2.45 g/m*3 -2.7 C 0 km/h
877 28-12-2008 07:27:56 -2.8 C 2.43 g/m*3 -2.8 C 0 km/h
878 28-12-2008 07:39:56 -3.1 C 2.38 g/m*3 -3.1 C 0 km/h
879 28-12-2008 07:51:56 -3.5 C 2.35 g/m*3 -3.5 C 0 km/h
880 28-12-2008 08:03:55 -3.7 C 2.43 g/m*3 -3.7 C 0 km/h
881 28-12-2008 08:15:55 -4 C 2.38 g/m*3 -4 C 0 km/h
882 28-12-2008 08:27:55 -4.1 C 2.43 g/m*3 -4.1 C 0 km/h
883 28-12-2008 08:39:55 -4.2 C 2.45 g/m*3 -4.2 C 0 km/h
884 28-12-2008 08:51:55 -4.3 C 2.43 g/m*3 -4.3 C 0 km/h
885 28-12-2008 09:03:55 -4.2 C 2.49 g/m*3 -4.2 C 0 km/h
886 28-12-2008 09:15:55 -4.2 C 2.49 g/m*3 -4.2 C 0 km/h
887 28-12-2008 09:27:55 -4.1 C 2.51 g/m*3 -4.1 C 0 km/h
888 28-12-2008 09:39:55 -4.1 C 2.51 g/m*3 -4.1 C 0 km/h
889 28-12-2008 09:51:54 -3.9 C 2.54 g/m*3 -3.9 C 0 km/h
890 28-12-2008 10:03:55 -3.5 C 2.58 g/m*3 -3.5 C 0 km/h
891 28-12-2008 10:15:54 -3.2 C 2.56 g/m*3 -3.2 C 0 km/h
892 28-12-2008 10:27:54 -2.9 C 2.53 g/m*3 -2.9 C 0 km/h
893 28-12-2008 10:39:54 -2.8 C 2.51 g/m*3 -2.8 C 0 km/h
894 28-12-2008 10:51:54 -2.7 C 2.49 g/m*3 -2.7 C 0 km/h
895 28-12-2008 11:03:54 -2.7 C 2.49 g/m*3 -2.7 C 0 km/h
896 28-12-2008 11:15:54 -2.5 C 2.48 g/m*3 -2.5 C 0 km/h
897 28-12-2008 11:27:54 -2.4 C 2.5 g/m*3 -2.4 C 0 km/h
898 28-12-2008 11:39:53 -2.4 C 2.5 g/m*3 -2.4 C 0 km/h
899 28-12-2008 11:51:54 -2 C 2.53 g/m*3 -2 C 0 km/h
900 28-12-2008 12:03:53 -2 C 2.53 g/m*3 -2 C 0 km/h
Sensor: Nr:Datum:Temp:Abs-Feuchte:Windchill:Wind:
Aussen-T/F 901 28-12-2008 12:15:53 -1.9 C 2.5 g/m*3 -1.9 C 0 km/h
902 28-12-2008 12:27:53 -1.8 C 2.48 g/m*3 -1.8 C 0 km/h
903 28-12-2008 12:39:53 -1.7 C 2.5 g/m*3 -1.7 C 0 km/h
904 28-12-2008 12:51:53 -1.4 C 2.51 g/m*3 -1.4 C 0 km/h
905 28-12-2008 13:03:52 -1.4 C 2.51 g/m*3 -1.4 C 0 km/h
906 28-12-2008 13:15:53 -1.3 C 2.48 g/m*3 -1.3 C 0 km/h
907 28-12-2008 13:27:53 -1.3 C 2.48 g/m*3 -1.3 C 0 km/h
908 28-12-2008 13:39:53 -1.2 C 2.5 g/m*3 -1.2 C 0 km/h
909 28-12-2008 13:51:52 -1.1 C 2.51 g/m*3 -1.1 C 0 km/h
910 28-12-2008 14:03:53 -1.1 C 2.47 g/m*3 -1.1 C 0 km/h
911 28-12-2008 14:15:52 -1.1 C 2.47 g/m*3 -1.1 C 0 km/h
912 28-12-2008 14:27:52 -1.1 C 2.51 g/m*3 -1.1 C 0 km/h
913 28-12-2008 14:39:52 -1.2 C 2.5 g/m*3 -1.2 C 0 km/h
914 28-12-2008 14:51:52 -1.5 C 2.53 g/m*3 -1.5 C 0 km/h
915 28-12-2008 15:03:52 -1.4 C 2.55 g/m*3 -1.4 C 0 km/h
916 28-12-2008 15:15:51 -1.4 C 2.51 g/m*3 -1.4 C 0 km/h
917 28-12-2008 15:27:51 -1.3 C 2.52 g/m*3 -1.3 C 0 km/h
918 28-12-2008 15:39:51 -1.2 C 2.54 g/m*3 -1.2 C 0 km/h
919 28-12-2008 15:51:51 -1.3 C 2.52 g/m*3 -1.3 C 0 km/h
920 28-12-2008 16:03:51 -1.6 C 2.51 g/m*3 -1.6 C 0 km/h
921 28-12-2008 16:15:51 -1.6 C 2.47 g/m*3 -1.6 C 0 km/h
922 28-12-2008 16:27:51 -1.9 C 2.46 g/m*3 -1.9 C 0 km/h
923 28-12-2008 16:39:51 -2.4 C 2.42 g/m*3 -2.4 C 0 km/h
924 28-12-2008 16:51:51 -2.2 C 2.49 g/m*3 -2.2 C 0 km/h
925 28-12-2008 17:03:50 -2.5 C 2.48 g/m*3 -2.5 C 0 km/h
Sensor: Nr:Datum:Temp:Abs-Feuchte:Windchill:Wind:
Aussen-T/F 926 28-12-2008 17:15:51 -2.7 C 2.49 g/m*3 -2.7 C 0 km/h
927 28-12-2008 17:27:51 -2.8 C 2.51 g/m*3 -2.8 C 0 km/h
928 28-12-2008 17:39:50 -2.9 C 2.53 g/m*3 -2.9 C 0 km/h
929 28-12-2008 17:51:50 -3.1 C 2.54 g/m*3 -3.1 C 0 km/h
930 28-12-2008 18:03:50 -3.2 C 2.52 g/m*3 -3.2 C 0 km/h
931 28-12-2008 18:15:50 -3.3 C 2.54 g/m*3 -3.3 C 0 km/h
932 28-12-2008 18:27:50 -3.3 C 2.58 g/m*3 -3.3 C 0 km/h
933 28-12-2008 18:39:50 -3.3 C 2.58 g/m*3 -3.3 C 0 km/h
934 28-12-2008 18:51:49 -3.3 C 2.58 g/m*3 -3.3 C 0 km/h
935 28-12-2008 19:03:50 -3.5 C 2.54 g/m*3 -3.5 C 0 km/h
936 28-12-2008 19:15:50 -3.5 C 2.58 g/m*3 -3.5 C 0 km/h
937 28-12-2008 19:27:50 -3.4 C 2.6 g/m*3 -3.4 C 0 km/h
938 28-12-2008 19:39:49 -3.6 C 2.56 g/m*3 -3.6 C 0 km/h
939 28-12-2008 19:51:49 -3.4 C 2.6 g/m*3 -3.4 C 0 km/h
940 28-12-2008 20:03:49 -3.5 C 2.58 g/m*3 -3.5 C 0 km/h
941 28-12-2008 20:15:49 -3.7 C 2.58 g/m*3 -3.7 C 0 km/h
942 28-12-2008 20:27:49 -3.9 C 2.54 g/m*3 -3.9 C 0 km/h
943 28-12-2008 20:39:48 -4 C 2.56 g/m*3 -4 C 0 km/h
944 28-12-2008 20:51:49 -3.9 C 2.62 g/m*3 -3.9 C 0 km/h
945 28-12-2008 21:03:48 -4 C 2.6 g/m*3 -4 C 0 km/h
946 28-12-2008 21:15:48 -4.1 C 2.58 g/m*3 -4.1 C 0 km/h
947 28-12-2008 21:27:48 -4.3 C 2.54 g/m*3 -4.3 C 0 km/h
948 28-12-2008 21:39:48 -4.4 C 2.56 g/m*3 -4.4 C 0 km/h
949 28-12-2008 21:51:48 -4.5 C 2.58 g/m*3 -4.5 C 0 km/h
950 28-12-2008 22:03:47 -4.5 C 2.61 g/m*3 -4.5 C 0 km/h
Sensor: Nr:Datum:Temp:Abs-Feuchte:Windchill:Wind:
Aussen-T/F 951 28-12-2008 22:15:47 -4.6 C 2.59 g/m*3 -4.6 C 0 km/h
952 28-12-2008 22:27:47 -4.6 C 2.59 g/m*3 -4.6 C 0 km/h
953 28-12-2008 22:39:48 -4.8 C 2.59 g/m*3 -4.8 C 0 km/h
954 28-12-2008 22:51:47 -4.8 C 2.59 g/m*3 -4.8 C 0 km/h
955 28-12-2008 23:03:47 -4.8 C 2.59 g/m*3 -4.8 C 0 km/h
956 28-12-2008 23:15:47 -5.1 C 2.54 g/m*3 -5.1 C 0 km/h
957 28-12-2008 23:27:47 -5.2 C 2.55 g/m*3 -5.2 C 0 km/h
958 28-12-2008 23:39:47 -5 C 2.59 g/m*3 -5 C 0 km/h
959 28-12-2008 23:51:46 -5.2 C 2.58 g/m*3 -5.2 C 0 km/h
960 29-12-2008 00:03:47 -5.2 C 2.58 g/m*3 -5.2 C 0 km/h
961 29-12-2008 00:15:46 -5.3 C 2.57 g/m*3 -5.3 C 0 km/h
962 29-12-2008 00:27:46 -5.2 C 2.58 g/m*3 -5.2 C 0 km/h
963 29-12-2008 00:39:46 -5.3 C 2.57 g/m*3 -5.3 C 0 km/h
964 29-12-2008 00:51:46 -5.3 C 2.57 g/m*3 -5.3 C 0 km/h
965 29-12-2008 01:03:46 -5.5 C 2.53 g/m*3 -5.5 C 0 km/h
966 29-12-2008 01:15:45 -5.5 C 2.53 g/m*3 -5.5 C 0 km/h
967 29-12-2008 01:27:45 -5.6 C 2.54 g/m*3 -5.6 C 0 km/h
968 29-12-2008 01:39:46 -5.7 C 2.52 g/m*3 -5.7 C 0 km/h
969 29-12-2008 01:51:45 -5.8 C 2.51 g/m*3 -5.8 C 0 km/h
970 29-12-2008 02:03:45 -5.7 C 2.56 g/m*3 -5.7 C 0 km/h
971 29-12-2008 02:15:46 -5.7 C 2.56 g/m*3 -5.7 C 0 km/h
972 29-12-2008 02:27:46 -6 C 2.5 g/m*3 -6 C 0 km/h
973 29-12-2008 02:39:45 -6.1 C 2.48 g/m*3 -6.1 C 0 km/h
974 29-12-2008 02:52:47 -6.2 C 2.47 g/m*3 -6.2 C 0 km/h
975 29-12-2008 03:04:47 -6.2 C 2.5 g/m*3 -6.2 C 0 km/h
Sensor: Nr:Datum:Temp:Abs-Feuchte:Windchill:Wind:
Aussen-T/F 976 29-12-2008 03:16:47 -6.2 C 2.5 g/m*3 -6.2 C 0 km/h
977 29-12-2008 03:28:47 -6.1 C 2.55 g/m*3 -6.1 C 0 km/h
978 29-12-2008 03:40:46 -6.2 C 2.53 g/m*3 -6.2 C 0 km/h
979 29-12-2008 03:52:46 -6.2 C 2.53 g/m*3 -6.2 C 0 km/h
980 29-12-2008 04:04:46 -6.2 C 2.53 g/m*3 -6.2 C 0 km/h
981 29-12-2008 04:16:47 -6.4 C 2.49 g/m*3 -6.4 C 0 km/h
982 29-12-2008 04:28:47 -6.4 C 2.49 g/m*3 -6.4 C 0 km/h
983 29-12-2008 04:40:46 -6.4 C 2.52 g/m*3 -6.4 C 0 km/h
984 29-12-2008 04:52:46 -6.5 C 2.5 g/m*3 -6.5 C 0 km/h
985 29-12-2008 05:04:46 -6.5 C 2.5 g/m*3 -6.5 C 0 km/h
986 29-12-2008 05:16:45 -6.7 C 2.47 g/m*3 -6.7 C 0 km/h
987 29-12-2008 05:28:45 -6.8 C 2.45 g/m*3 -6.8 C 0 km/h
988 29-12-2008 05:40:46 -6.9 C 2.43 g/m*3 -6.9 C 0 km/h
989 29-12-2008 05:52:46 -6.9 C 2.43 g/m*3 -6.9 C 0 km/h
990 29-12-2008 06:04:45 -7.1 C 2.4 g/m*3 -7.1 C 0 km/h
991 29-12-2008 06:16:45 -7.1 C 2.4 g/m*3 -7.1 C 0 km/h
992 29-12-2008 06:28:46 -6.9 C 2.46 g/m*3 -6.9 C 0 km/h
993 29-12-2008 06:40:44 -7 C 2.44 g/m*3 -7 C 0 km/h
994 29-12-2008 06:52:45 -7.1 C 2.43 g/m*3 -7.1 C 0 km/h
995 29-12-2008 07:04:44 -7.2 C 2.41 g/m*3 -7.2 C 0 km/h
996 29-12-2008 07:16:44 -7.3 C 2.39 g/m*3 -7.3 C 0 km/h
997 29-12-2008 07:28:44 -7.4 C 2.37 g/m*3 -7.4 C 0 km/h
998 29-12-2008 07:40:45 -7.7 C 2.32 g/m*3 -7.7 C 0 km/h
999 29-12-2008 07:52:44 -7.8 C 2.3 g/m*3 -7.8 C 0 km/h
1000 29-12-2008 08:04:44 -7.7 C 2.32 g/m*3 -7.7 C 0 km/h
Sensor: Nr:Datum:Temp:Abs-Feuchte:Windchill:Wind:
Aussen-T/F 1001 29-12-2008 08:16:44 -7.6 C 2.37 g/m*3 -7.6 C 0 km/h
1002 29-12-2008 08:28:44 -7.7 C 2.35 g/m*3 -7.7 C 0 km/h
1003 29-12-2008 08:40:44 -7.7 C 2.35 g/m*3 -7.7 C 0 km/h
1004 29-12-2008 08:52:44 -7.8 C 2.33 g/m*3 -7.8 C 0 km/h
1005 29-12-2008 09:04:43 -7.9 C 2.31 g/m*3 -7.9 C 0 km/h
1006 29-12-2008 09:16:44 -7.7 C 2.35 g/m*3 -7.7 C 0 km/h
1007 29-12-2008 09:28:44 -7.6 C 2.39 g/m*3 -7.6 C 0 km/h
1008 29-12-2008 09:40:43 -7.5 C 2.41 g/m*3 -7.5 C 0 km/h
1009 29-12-2008 09:52:43 -7.4 C 2.43 g/m*3 -7.4 C 0 km/h
1010 29-12-2008 10:04:43 -7.2 C 2.47 g/m*3 -7.2 C 0 km/h
1011 29-12-2008 10:16:43 -7 C 2.5 g/m*3 -7 C 0 km/h
1012 29-12-2008 10:28:43 -6.9 C 2.52 g/m*3 -6.9 C 0 km/h
1013 29-12-2008 10:40:42 -6.6 C 2.61 g/m*3 -6.6 C 0 km/h
1014 29-12-2008 10:52:42 -6.3 C 2.66 g/m*3 -6.3 C 0 km/h
1015 29-12-2008 11:04:43 -6.2 C 2.68 g/m*3 -6.2 C 0 km/h
1016 29-12-2008 11:16:42 -6.1 C 2.7 g/m*3 -6.1 C 0 km/h
1017 29-12-2008 11:28:42 -5.7 C 2.78 g/m*3 -5.7 C 0 km/h
1018 29-12-2008 11:40:42 -5.5 C 2.82 g/m*3 -5.5 C 0 km/h
1019 29-12-2008 11:52:42 -5.3 C 2.87 g/m*3 -5.3 C 0 km/h
1020 29-12-2008 12:04:41 -5.1 C 2.87 g/m*3 -5.1 C 0 km/h
1021 29-12-2008 12:16:42 -4.9 C 2.92 g/m*3 -4.9 C 0 km/h
1022 29-12-2008 12:28:42 -4.7 C 2.92 g/m*3 -4.7 C 0 km/h
1023 29-12-2008 12:40:42 -4.5 C 2.93 g/m*3 -4.5 C 0 km/h
1024 29-12-2008 12:52:41 -4.3 C 2.9 g/m*3 -4.3 C 0 km/h
1025 29-12-2008 13:04:42 -4 C 2.89 g/m*3 -4 C 0 km/h
Sensor: Nr:Datum:Temp:Abs-Feuchte:Windchill:Wind:
Aussen-T/F 1026 29-12-2008 13:16:41 -3.8 C 2.89 g/m*3 -3.8 C 0 km/h
1027 29-12-2008 13:28:41 -3.6 C 2.86 g/m*3 -3.6 C 0 km/h
1028 29-12-2008 13:40:41 -3.4 C 2.83 g/m*3 -3.4 C 0 km/h
1029 29-12-2008 13:52:41 -3.1 C 2.85 g/m*3 -3.1 C 0 km/h
1030 29-12-2008 14:04:41 -3 C 2.79 g/m*3 -3 C 0 km/h
1031 29-12-2008 14:16:40 -2.9 C 2.81 g/m*3 -2.9 C 0 km/h
1032 29-12-2008 14:28:40 -2.7 C 2.81 g/m*3 -2.7 C 0 km/h
1033 29-12-2008 14:40:41 -2.7 C 2.77 g/m*3 -2.7 C 0 km/h
1034 29-12-2008 14:52:41 -2.8 C 2.75 g/m*3 -2.8 C 0 km/h
1035 29-12-2008 15:04:40 -2.7 C 2.77 g/m*3 -2.7 C 0 km/h
1036 29-12-2008 15:16:40 -2.6 C 2.79 g/m*3 -2.6 C 0 km/h
1037 29-12-2008 15:28:40 -2.8 C 2.75 g/m*3 -2.8 C 0 km/h
1038 29-12-2008 15:40:40 -2.8 C 2.79 g/m*3 -2.8 C 0 km/h
1039 29-12-2008 15:52:40 -3 C 2.75 g/m*3 -3 C 0 km/h
1040 29-12-2008 16:04:40 -3 C 2.79 g/m*3 -3 C 0 km/h
1041 29-12-2008 16:16:39 -3.1 C 2.81 g/m*3 -3.1 C 0 km/h
1042 29-12-2008 16:28:39 -3.3 C 2.77 g/m*3 -3.3 C 0 km/h
1043 29-12-2008 16:40:38 -3.4 C 2.79 g/m*3 -3.4 C 0 km/h
1044 29-12-2008 16:52:38 -3.5 C 2.77 g/m*3 -3.5 C 0 km/h
1045 29-12-2008 17:04:38 -3.5 C 2.77 g/m*3 -3.5 C 0 km/h
1046 29-12-2008 17:16:38 -3.7 C 2.73 g/m*3 -3.7 C 0 km/h
1047 29-12-2008 17:28:38 -3.9 C 2.69 g/m*3 -3.9 C 0 km/h
1048 29-12-2008 17:40:38 -4 C 2.71 g/m*3 -4 C 0 km/h
1049 29-12-2008 17:52:38 -4 C 2.74 g/m*3 -4 C 0 km/h
1050 29-12-2008 18:04:38 -4.1 C 2.76 g/m*3 -4.1 C 0 km/h
Sensor: Nr:Datum:Temp:Abs-Feuchte:Windchill:Wind:
Aussen-T/F 1051 29-12-2008 18:16:38 -4.3 C 2.72 g/m*3 -4.3 C 0 km/h
1052 29-12-2008 18:28:38 -4.2 C 2.74 g/m*3 -4.2 C 0 km/h
1053 29-12-2008 18:40:37 -4.2 C 2.74 g/m*3 -4.2 C 0 km/h
1054 29-12-2008 18:52:37 -4.4 C 2.7 g/m*3 -4.4 C 0 km/h
1055 29-12-2008 19:04:37 -4.5 C 2.68 g/m*3 -4.5 C 0 km/h
1056 29-12-2008 19:16:37 -4.6 C 2.7 g/m*3 -4.6 C 0 km/h
1057 29-12-2008 19:28:37 -4.7 C 2.68 g/m*3 -4.7 C 0 km/h
1058 29-12-2008 19:40:37 -4.9 C 2.64 g/m*3 -4.9 C 0 km/h
1059 29-12-2008 19:52:37 -4.9 C 2.68 g/m*3 -4.9 C 0 km/h
1060 29-12-2008 20:04:37 -4.9 C 2.68 g/m*3 -4.9 C 0 km/h
1061 29-12-2008 20:16:36 -5.2 C 2.62 g/m*3 -5.2 C 0 km/h
1062 29-12-2008 20:28:36 -5.2 C 2.65 g/m*3 -5.2 C 0 km/h
1063 29-12-2008 20:40:37 -5.3 C 2.63 g/m*3 -5.3 C 0 km/h
1064 29-12-2008 20:52:36 -5.4 C 2.61 g/m*3 -5.4 C 0 km/h
1065 29-12-2008 21:04:36 -5.5 C 2.59 g/m*3 -5.5 C 0 km/h
1066 29-12-2008 21:16:36 -5.6 C 2.61 g/m*3 -5.6 C 0 km/h
1067 29-12-2008 21:28:36 -5.8 C 2.57 g/m*3 -5.8 C 0 km/h
1068 29-12-2008 21:40:36 -5.9 C 2.55 g/m*3 -5.9 C 0 km/h
1069 29-12-2008 21:53:37 -6 C 2.53 g/m*3 -6 C 0 km/h
1070 29-12-2008 22:05:37 -6 C 2.53 g/m*3 -6 C 0 km/h
1071 29-12-2008 22:17:37 -6 C 2.57 g/m*3 -6 C 0 km/h
1072 29-12-2008 22:29:37 -6.1 C 2.55 g/m*3 -6.1 C 0 km/h
1073 29-12-2008 22:41:37 -6 C 2.6 g/m*3 -6 C 0 km/h
1074 29-12-2008 22:53:37 -6.1 C 2.58 g/m*3 -6.1 C 0 km/h
1075 29-12-2008 23:05:38 -6.3 C 2.54 g/m*3 -6.3 C 0 km/h
Sensor: Nr:Datum:Temp:Abs-Feuchte:Windchill:Wind:
Aussen-T/F 1076 29-12-2008 23:17:38 -6.4 C 2.52 g/m*3 -6.4 C 0 km/h
1077 29-12-2008 23:29:38 -6.4 C 2.52 g/m*3 -6.4 C 0 km/h
1078 29-12-2008 23:41:38 -6.6 C 2.49 g/m*3 -6.6 C 0 km/h
1079 29-12-2008 23:53:38 -6.8 C 2.45 g/m*3 -6.8 C 0 km/h
1080 30-12-2008 00:05:38 -6.9 C 2.43 g/m*3 -6.9 C 0 km/h
1081 30-12-2008 00:17:38 -6.9 C 2.46 g/m*3 -6.9 C 0 km/h
1082 30-12-2008 00:29:38 -7 C 2.44 g/m*3 -7 C 0 km/h
1083 30-12-2008 00:41:38 -6.8 C 2.51 g/m*3 -6.8 C 0 km/h
1084 30-12-2008 00:53:38 -6.9 C 2.49 g/m*3 -6.9 C 0 km/h
1085 30-12-2008 01:05:38 -7 C 2.47 g/m*3 -7 C 0 km/h
1086 30-12-2008 01:17:38 -7.2 C 2.44 g/m*3 -7.2 C 0 km/h
1087 30-12-2008 01:29:38 -7.1 C 2.45 g/m*3 -7.1 C 0 km/h
1088 30-12-2008 01:41:38 -7.2 C 2.44 g/m*3 -7.2 C 0 km/h
1089 30-12-2008 01:53:38 -7.2 C 2.44 g/m*3 -7.2 C 0 km/h
1090 30-12-2008 02:05:38 -7.3 C 2.42 g/m*3 -7.3 C 0 km/h
1091 30-12-2008 02:17:38 -7.2 C 2.47 g/m*3 -7.2 C 0 km/h
1092 30-12-2008 02:29:38 -7.3 C 2.45 g/m*3 -7.3 C 0 km/h
1093 30-12-2008 02:41:38 -7.5 C 2.41 g/m*3 -7.5 C 0 km/h
1094 30-12-2008 02:53:39 -7.7 C 2.38 g/m*3 -7.7 C 0 km/h
1095 30-12-2008 03:05:39 -7.7 C 2.38 g/m*3 -7.7 C 0 km/h
1096 30-12-2008 03:17:39 -7.5 C 2.41 g/m*3 -7.5 C 0 km/h
1097 30-12-2008 03:29:39 -7.7 C 2.38 g/m*3 -7.7 C 0 km/h
1098 30-12-2008 03:41:39 -7.8 C 2.36 g/m*3 -7.8 C 0 km/h
1099 30-12-2008 03:53:39 -7.9 C 2.34 g/m*3 -7.9 C 0 km/h
1100 30-12-2008 04:05:39 -8 C 2.32 g/m*3 -8 C 0 km/h
Sensor: Nr:Datum:Temp:Abs-Feuchte:Windchill:Wind:
Aussen-T/F 1101 30-12-2008 04:17:39 -8 C 2.32 g/m*3 -8 C 0 km/h
1102 30-12-2008 04:29:39 -8.1 C 2.31 g/m*3 -8.1 C 0 km/h
1103 30-12-2008 04:41:39 -8.2 C 2.29 g/m*3 -8.2 C 0 km/h
1104 30-12-2008 04:53:39 -8.1 C 2.31 g/m*3 -8.1 C 0 km/h
1105 30-12-2008 05:05:39 -8.2 C 2.29 g/m*3 -8.2 C 0 km/h
1106 30-12-2008 05:17:39 -8.2 C 2.26 g/m*3 -8.2 C 0 km/h
1107 30-12-2008 05:29:39 -8.3 C 2.25 g/m*3 -8.3 C 0 km/h
1108 30-12-2008 05:41:39 -8.3 C 2.22 g/m*3 -8.3 C 0 km/h
1109 30-12-2008 05:53:39 -8.3 C 2.22 g/m*3 -8.3 C 0 km/h
1110 30-12-2008 06:05:39 -8.3 C 2.22 g/m*3 -8.3 C 0 km/h
1111 30-12-2008 06:17:39 -8.4 C 2.2 g/m*3 -8.4 C 0 km/h
1112 30-12-2008 06:29:39 -8.4 C 2.18 g/m*3 -8.4 C 0 km/h
1113 30-12-2008 06:41:39 -8.4 C 2.18 g/m*3 -8.4 C 0 km/h
1114 30-12-2008 06:53:40 -8.3 C 2.19 g/m*3 -8.3 C 0 km/h
1115 30-12-2008 07:05:40 -8.4 C 2.15 g/m*3 -8.4 C 0 km/h
1116 30-12-2008 07:17:40 -8.2 C 2.21 g/m*3 -8.2 C 0 km/h
1117 30-12-2008 07:29:40 -8.3 C 2.17 g/m*3 -8.3 C 0 km/h
1118 30-12-2008 07:41:40 -8.2 C 2.18 g/m*3 -8.2 C 0 km/h
1119 30-12-2008 07:53:40 -8.3 C 2.17 g/m*3 -8.3 C 0 km/h
1120 30-12-2008 08:05:40 -8.5 C 2.13 g/m*3 -8.5 C 0 km/h
1121 30-12-2008 08:17:37 -8.4 C 2.15 g/m*3 -8.4 C 0 km/h
1122 30-12-2008 08:29:37 -8.3 C 2.17 g/m*3 -8.3 C 0 km/h
1123 30-12-2008 08:41:37 -8.3 C 2.17 g/m*3 -8.3 C 0 km/h
1124 30-12-2008 08:53:37 -8.5 C 2.13 g/m*3 -8.5 C 0 km/h
1125 30-12-2008 09:05:37 -8.2 C 2.18 g/m*3 -8.2 C 0 km/h
Sensor: Nr:Datum:Temp:Abs-Feuchte:Windchill:Wind:
Aussen-T/F 1126 30-12-2008 09:17:36 -8.3 C 2.17 g/m*3 -8.3 C 0 km/h
1127 30-12-2008 09:29:36 -8.2 C 2.18 g/m*3 -8.2 C 0 km/h
1128 30-12-2008 09:41:37 -8.2 C 2.18 g/m*3 -8.2 C 0 km/h
1129 30-12-2008 09:53:02 -8 C 2.22 g/m*3 -8 C 0 km/h
1130 30-12-2008 10:05:01 -7.9 C 2.23 g/m*3 -7.9 C 0 km/h
1131 30-12-2008 10:17:01 -7.7 C 2.26 g/m*3 -7.7 C 0 km/h
1132 30-12-2008 10:29:01 -7.6 C 2.28 g/m*3 -7.6 C 0 km/h
1133 30-12-2008 10:41:02 -7.5 C 2.3 g/m*3 -7.5 C 0 km/h
1134 30-12-2008 10:53:01 -7.4 C 2.32 g/m*3 -7.4 C 0 km/h
1135 30-12-2008 11:05:01 -7.1 C 2.4 g/m*3 -7.1 C 0 km/h
1136 30-12-2008 11:17:01 -6.9 C 2.43 g/m*3 -6.9 C 0 km/h
1137 30-12-2008 11:29:01 -6.6 C 2.52 g/m*3 -6.6 C 0 km/h
1138 30-12-2008 11:41:00 -6.5 C 2.5 g/m*3 -6.5 C 0 km/h
1139 30-12-2008 11:53:01 -6.2 C 2.59 g/m*3 -6.2 C 0 km/h
1140 30-12-2008 12:05:00 -5.9 C 2.65 g/m*3 -5.9 C 0 km/h
1141 30-12-2008 12:17:00 -5.7 C 2.69 g/m*3 -5.7 C 0 km/h
1142 30-12-2008 12:29:01 -5.5 C 2.73 g/m*3 -5.5 C 0 km/h
1143 30-12-2008 12:41:00 -5.2 C 2.82 g/m*3 -5.2 C 0 km/h
1144 30-12-2008 12:53:00 -5.1 C 2.81 g/m*3 -5.1 C 0 km/h
1145 30-12-2008 13:05:59 -4.9 C 2.85 g/m*3 -4.9 C 0 km/h
1146 30-12-2008 13:17:00 -4.6 C 2.94 g/m*3 -4.6 C 0 km/h
1147 30-12-2008 13:29:00 -4.1 C 3.01 g/m*3 -4.1 C 0 km/h
1148 30-12-2008 13:41:00 -3.7 C 3.06 g/m*3 -3.7 C 0 km/h
1149 30-12-2008 13:53:59 -3.6 C 3.01 g/m*3 -3.6 C 0 km/h
1150 30-12-2008 14:04:59 -3.5 C 3.03 g/m*3 -3.5 C 0 km/h
Sensor: Nr:Datum:Temp:Abs-Feuchte:Windchill:Wind:
Aussen-T/F 1151 30-12-2008 14:17:59 -3.4 C 3.02 g/m*3 -3.4 C 0 km/h
1152 30-12-2008 14:29:59 -3.3 C 3 g/m*3 -3.3 C 0 km/h
1153 30-12-2008 14:41:59 -3.2 C 2.98 g/m*3 -3.2 C 0 km/h
1154 30-12-2008 14:53:58 -3.1 C 2.96 g/m*3 -3.1 C 0 km/h
1155 30-12-2008 15:05:59 -3.1 C 2.96 g/m*3 -3.1 C 0 km/h
1156 30-12-2008 15:17:58 -3.1 C 2.96 g/m*3 -3.1 C 0 km/h
1157 30-12-2008 15:29:58 -3.1 C 2.93 g/m*3 -3.1 C 0 km/h
1158 30-12-2008 15:41:58 -3.1 C 2.96 g/m*3 -3.1 C 0 km/h
1159 30-12-2008 15:53:58 -3.3 C 2.92 g/m*3 -3.3 C 0 km/h
1160 30-12-2008 16:05:58 -3.4 C 2.9 g/m*3 -3.4 C 0 km/h
1161 30-12-2008 16:17:58 -3.4 C 2.94 g/m*3 -3.4 C 0 km/h
1162 30-12-2008 16:29:58 -3.5 C 2.92 g/m*3 -3.5 C 0 km/h
1163 30-12-2008 16:41:57 -3.7 C 2.88 g/m*3 -3.7 C 0 km/h
1164 30-12-2008 16:53:58 -3.8 C 2.82 g/m*3 -3.8 C 0 km/h
1165 30-12-2008 17:05:57 -3.9 C 2.8 g/m*3 -3.9 C 0 km/h
1166 30-12-2008 17:17:58 -3.9 C 2.84 g/m*3 -3.9 C 0 km/h
1167 30-12-2008 17:29:58 -4.1 C 2.76 g/m*3 -4.1 C 0 km/h
1168 30-12-2008 17:41:57 -4.2 C 2.78 g/m*3 -4.2 C 0 km/h
1169 30-12-2008 17:53:57 -4.3 C 2.72 g/m*3 -4.3 C 0 km/h
1170 30-12-2008 18:05:57 -4.4 C 2.74 g/m*3 -4.4 C 0 km/h
1171 30-12-2008 18:17:57 -4.5 C 2.72 g/m*3 -4.5 C 0 km/h
1172 30-12-2008 18:29:58 -4.5 C 2.75 g/m*3 -4.5 C 0 km/h
1173 30-12-2008 18:41:56 -4.5 C 2.75 g/m*3 -4.5 C 0 km/h
1174 30-12-2008 18:53:57 -4.6 C 2.73 g/m*3 -4.6 C 0 km/h
1175 30-12-2008 19:05:56 -4.5 C 2.75 g/m*3 -4.5 C 0 km/h
Sensor: Nr:Datum:Temp:Abs-Feuchte:Windchill:Wind:
Aussen-T/F 1176 30-12-2008 19:17:56 -4.6 C 2.73 g/m*3 -4.6 C 0 km/h
1177 30-12-2008 19:29:56 -4.8 C 2.69 g/m*3 -4.8 C 0 km/h
1178 30-12-2008 19:41:56 -5 C 2.66 g/m*3 -5 C 0 km/h
1179 30-12-2008 19:53:56 -5 C 2.66 g/m*3 -5 C 0 km/h
1180 30-12-2008 20:05:56 -5 C 2.69 g/m*3 -5 C 0 km/h
1181 30-12-2008 20:17:55 -5.1 C 2.67 g/m*3 -5.1 C 0 km/h
1182 30-12-2008 20:29:55 -5.1 C 2.67 g/m*3 -5.1 C 0 km/h
1183 30-12-2008 20:41:56 -5.3 C 2.63 g/m*3 -5.3 C 0 km/h
1184 30-12-2008 20:53:55 -5.4 C 2.61 g/m*3 -5.4 C 0 km/h
1185 30-12-2008 21:05:55 -5.6 C 2.58 g/m*3 -5.6 C 0 km/h
1186 30-12-2008 21:17:55 -5.5 C 2.63 g/m*3 -5.5 C 0 km/h
1187 30-12-2008 21:29:55 -5.6 C 2.64 g/m*3 -5.6 C 0 km/h
1188 30-12-2008 21:42:56 -5.7 C 2.62 g/m*3 -5.7 C 0 km/h
1189 30-12-2008 21:54:56 -5.8 C 2.6 g/m*3 -5.8 C 0 km/h
1190 30-12-2008 22:06:56 -5.8 C 2.6 g/m*3 -5.8 C 0 km/h
1191 30-12-2008 22:18:56 -5.8 C 2.64 g/m*3 -5.8 C 0 km/h
1192 30-12-2008 22:30:56 -6 C 2.6 g/m*3 -6 C 0 km/h
1193 30-12-2008 22:42:56 -6.2 C 2.56 g/m*3 -6.2 C 0 km/h
1194 30-12-2008 22:54:56 -6.3 C 2.54 g/m*3 -6.3 C 0 km/h
1195 30-12-2008 23:06:56 -6.3 C 2.54 g/m*3 -6.3 C 0 km/h
1196 30-12-2008 23:18:56 -6.3 C 2.57 g/m*3 -6.3 C 0 km/h
1197 30-12-2008 23:30:56 -6.5 C 2.53 g/m*3 -6.5 C 0 km/h
1198 30-12-2008 23:42:56 -6.4 C 2.55 g/m*3 -6.4 C 0 km/h
1199 30-12-2008 23:54:56 -6.4 C 2.55 g/m*3 -6.4 C 0 km/h
1200 31-12-2008 00:06:57 -6.4 C 2.55 g/m*3 -6.4 C 0 km/h
Sensor: Nr:Datum:Temp:Abs-Feuchte:Windchill:Wind:
Aussen-T/F 1201 31-12-2008 00:18:57 -6.4 C 2.55 g/m*3 -6.4 C 0 km/h
1202 31-12-2008 00:30:57 -6.2 C 2.62 g/m*3 -6.2 C 0 km/h
1203 31-12-2008 00:42:57 -6.2 C 2.62 g/m*3 -6.2 C 0 km/h
1204 31-12-2008 00:54:57 -6.4 C 2.58 g/m*3 -6.4 C 0 km/h
1205 31-12-2008 01:06:57 -6.4 C 2.58 g/m*3 -6.4 C 0 km/h
1206 31-12-2008 01:18:57 -6.6 C 2.55 g/m*3 -6.6 C 0 km/h
1207 31-12-2008 01:30:57 -6.8 C 2.48 g/m*3 -6.8 C 0 km/h
1208 31-12-2008 01:42:57 -6.7 C 2.5 g/m*3 -6.7 C 0 km/h
1209 31-12-2008 01:54:57 -6.7 C 2.5 g/m*3 -6.7 C 0 km/h
1210 31-12-2008 02:06:57 -6.9 C 2.46 g/m*3 -6.9 C 0 km/h
1211 31-12-2008 02:18:57 -7.1 C 2.43 g/m*3 -7.1 C 0 km/h
1212 31-12-2008 02:30:57 -7.1 C 2.43 g/m*3 -7.1 C 0 km/h
1213 31-12-2008 02:42:57 -7.2 C 2.41 g/m*3 -7.2 C 0 km/h
1214 31-12-2008 02:54:57 -7.3 C 2.39 g/m*3 -7.3 C 0 km/h
1215 31-12-2008 03:06:57 -7.2 C 2.41 g/m*3 -7.2 C 0 km/h
1216 31-12-2008 03:18:57 -7.3 C 2.39 g/m*3 -7.3 C 0 km/h
1217 31-12-2008 03:30:57 -7.3 C 2.39 g/m*3 -7.3 C 0 km/h
1218 31-12-2008 03:42:57 -7.2 C 2.41 g/m*3 -7.2 C 0 km/h
1219 31-12-2008 03:54:57 -7.1 C 2.45 g/m*3 -7.1 C 0 km/h
1220 31-12-2008 04:06:58 -7.1 C 2.45 g/m*3 -7.1 C 0 km/h
1221 31-12-2008 04:18:58 -7.3 C 2.39 g/m*3 -7.3 C 0 km/h
1222 31-12-2008 04:30:58 -7.3 C 2.39 g/m*3 -7.3 C 0 km/h
1223 31-12-2008 04:42:58 -7.4 C 2.37 g/m*3 -7.4 C 0 km/h
1224 31-12-2008 04:54:55 -7.4 C 2.37 g/m*3 -7.4 C 0 km/h
1225 31-12-2008 05:06:56 -7.4 C 2.37 g/m*3 -7.4 C 0 km/h
Sensor: Nr:Datum:Temp:Abs-Feuchte:Windchill:Wind:
Aussen-T/F 1226 31-12-2008 05:18:55 -7.4 C 2.37 g/m*3 -7.4 C 0 km/h
1227 31-12-2008 05:30:55 -7.5 C 2.36 g/m*3 -7.5 C 0 km/h
1228 31-12-2008 05:42:55 -7.4 C 2.37 g/m*3 -7.4 C 0 km/h
1229 31-12-2008 05:54:55 -7.5 C 2.36 g/m*3 -7.5 C 0 km/h
1230 31-12-2008 06:06:55 -7.5 C 2.36 g/m*3 -7.5 C 0 km/h
1231 31-12-2008 06:18:55 -7.7 C 2.32 g/m*3 -7.7 C 0 km/h
1232 31-12-2008 06:30:55 -7.7 C 2.29 g/m*3 -7.7 C 0 km/h
1233 31-12-2008 06:42:55 -7.8 C 2.28 g/m*3 -7.8 C 0 km/h
1234 31-12-2008 06:54:54 -7.8 C 2.28 g/m*3 -7.8 C 0 km/h
1235 31-12-2008 07:06:55 -7.8 C 2.28 g/m*3 -7.8 C 0 km/h
1236 31-12-2008 07:18:54 -7.8 C 2.28 g/m*3 -7.8 C 0 km/h
1237 31-12-2008 07:30:54 -7.8 C 2.28 g/m*3 -7.8 C 0 km/h
1238 31-12-2008 07:42:54 -7.8 C 2.28 g/m*3 -7.8 C 0 km/h
1239 31-12-2008 07:54:54 -7.8 C 2.28 g/m*3 -7.8 C 0 km/h
1240 31-12-2008 08:06:54 -7.8 C 2.28 g/m*3 -7.8 C 0 km/h
1241 31-12-2008 08:18:54 -7.8 C 2.28 g/m*3 -7.8 C 0 km/h
1242 31-12-2008 08:30:54 -7.5 C 2.33 g/m*3 -7.5 C 0 km/h
1243 31-12-2008 08:42:54 -7.1 C 2.43 g/m*3 -7.1 C 0 km/h
1244 31-12-2008 08:54:53 -6.7 C 2.53 g/m*3 -6.7 C 0 km/h
1245 31-12-2008 09:06:53 -6.4 C 2.58 g/m*3 -6.4 C 0 km/h
1246 31-12-2008 09:18:53 -6 C 2.66 g/m*3 -6 C 0 km/h
1247 31-12-2008 09:30:53 -5.9 C 2.68 g/m*3 -5.9 C 0 km/h
1248 31-12-2008 09:42:53 -5.7 C 2.72 g/m*3 -5.7 C 0 km/h
1249 31-12-2008 09:54:52 -5.6 C 2.74 g/m*3 -5.6 C 0 km/h
1250 31-12-2008 10:06:53 -5.4 C 2.75 g/m*3 -5.4 C 0 km/h
Sensor: Nr:Datum:Temp:Abs-Feuchte:Windchill:Wind:
Aussen-T/F 1251 31-12-2008 10:18:53 -5.2 C 2.79 g/m*3 -5.2 C 0 km/h
1252 31-12-2008 10:30:52 -4.9 C 2.85 g/m*3 -4.9 C 0 km/h
1253 31-12-2008 10:42:52 -4.5 C 2.89 g/m*3 -4.5 C 0 km/h
1254 31-12-2008 10:54:02 -3.8 C 3.04 g/m*3 -3.8 C 0 km/h
1255 31-12-2008 11:06:01 -3.7 C 3.06 g/m*3 -3.7 C 0 km/h
1256 31-12-2008 11:18:01 -3.8 C 3.01 g/m*3 -3.8 C 0 km/h
1257 31-12-2008 11:30:01 -3.9 C 2.98 g/m*3 -3.9 C 0 km/h
1258 31-12-2008 11:42:01 -3.6 C 3.05 g/m*3 -3.6 C 0 km/h
1259 31-12-2008 11:54:01 -3 C 3.22 g/m*3 -3 C 0 km/h
1260 31-12-2008 12:06:01 -2.6 C 3.27 g/m*3 -2.6 C 0 km/h
1261 31-12-2008 12:18:02 -2.6 C 3.23 g/m*3 -2.6 C 0 km/h
1262 31-12-2008 12:30:02 -2.9 C 3.09 g/m*3 -2.9 C 0 km/h
1263 31-12-2008 12:42:01 -2.9 C 3.09 g/m*3 -2.9 C 0 km/h
1264 31-12-2008 12:54:00 -2.9 C 3.05 g/m*3 -2.9 C 0 km/h
1265 31-12-2008 13:06:01 -2.9 C 3.05 g/m*3 -2.9 C 0 km/h
1266 31-12-2008 13:18:01 -2.8 C 3.03 g/m*3 -2.8 C 0 km/h
1267 31-12-2008 13:30:01 -2.7 C 3.05 g/m*3 -2.7 C 0 km/h
1268 31-12-2008 13:42:00 -2.4 C 3.11 g/m*3 -2.4 C 0 km/h
1269 31-12-2008 13:54:01 -2.1 C 3.22 g/m*3 -2.1 C 0 km/h
1270 31-12-2008 14:06:00 -1.7 C 3.31 g/m*3 -1.7 C 0 km/h
1271 31-12-2008 14:18:00 -1.5 C 3.32 g/m*3 -1.5 C 0 km/h
1272 31-12-2008 14:30:00 -1.5 C 3.27 g/m*3 -1.5 C 0 km/h
1273 31-12-2008 14:42:00 -1.4 C 3.3 g/m*3 -1.4 C 0 km/h
1274 31-12-2008 14:54:00 -1.5 C 3.27 g/m*3 -1.5 C 0 km/h
1275 31-12-2008 15:06:59 -1.6 C 3.25 g/m*3 -1.6 C 0 km/h
Sensor: Nr:Datum:Temp:Abs-Feuchte:Windchill:Wind:
Aussen-T/F 1276 31-12-2008 15:29:59 -1.6 C 3.25 g/m*3 -1.6 C 0 km/h
1277 31-12-2008 15:30:00 -1.6 C 3.25 g/m*3 -1.6 C 0 km/h
1278 31-12-2008 15:42:00 -1.6 C 3.25 g/m*3 -1.6 C 0 km/h
1279 31-12-2008 15:54:59 -1.6 C 3.25 g/m*3 -1.6 C 0 km/h
1280 31-12-2008 16:05:59 -1.6 C 3.25 g/m*3 -1.6 C 0 km/h
1281 31-12-2008 16:18:59 -1.7 C 3.23 g/m*3 -1.7 C 0 km/h
1282 31-12-2008 16:30:59 -1.7 C 3.23 g/m*3 -1.7 C 0 km/h
1283 31-12-2008 16:43:00 -1.7 C 3.23 g/m*3 -1.7 C 0 km/h
1284 31-12-2008 16:54:59 -1.7 C 3.27 g/m*3 -1.7 C 0 km/h
1285 31-12-2008 17:06:59 -1.4 C 3.39 g/m*3 -1.4 C 0 km/h
1286 31-12-2008 17:18:59 -1.2 C 3.48 g/m*3 -1.2 C 0 km/h
1287 31-12-2008 17:30:58 -1 C 3.53 g/m*3 -1 C 0 km/h
1288 31-12-2008 17:42:58 -1.1 C 3.5 g/m*3 -1.1 C 0 km/h
1289 31-12-2008 17:54:59 -1.3 C 3.45 g/m*3 -1.3 C 0 km/h
1290 31-12-2008 18:06:58 -1.1 C 3.55 g/m*3 -1.1 C 0 km/h
1291 31-12-2008 18:18:58 -1.2 C 3.52 g/m*3 -1.2 C 0 km/h
1292 31-12-2008 18:30:57 -1.4 C 3.52 g/m*3 -1.4 C 0 km/h
1293 31-12-2008 18:42:57 -1.5 C 3.54 g/m*3 -1.5 C 0 km/h
1294 31-12-2008 18:54:58 -1.5 C 3.54 g/m*3 -1.5 C 0 km/h
1295 31-12-2008 19:06:57 -1.5 C 3.54 g/m*3 -1.5 C 0 km/h
1296 31-12-2008 19:18:57 -1.6 C 3.55 g/m*3 -1.6 C 0 km/h
1297 31-12-2008 19:30:57 -1.6 C 3.6 g/m*3 -1.6 C 0 km/h
1298 31-12-2008 19:42:57 -1.7 C 3.62 g/m*3 -1.7 C 0 km/h
1299 31-12-2008 19:54:57 -1.8 C 3.59 g/m*3 -1.8 C 0 km/h
1300 31-12-2008 20:06:56 -1.8 C 3.59 g/m*3 -1.8 C 0 km/h
Sensor: Nr:Datum:Temp:Abs-Feuchte:Windchill:Wind:
Aussen-T/F 1301 31-12-2008 20:18:57 -1.9 C 3.61 g/m*3 -1.9 C 0 km/h
1302 31-12-2008 20:30:57 -2.3 C 3.51 g/m*3 -2.3 C 0 km/h
1303 31-12-2008 20:42:57 -2.4 C 3.48 g/m*3 -2.4 C 0 km/h
1304 31-12-2008 20:54:56 -2.5 C 3.5 g/m*3 -2.5 C 0 km/h
1305 31-12-2008 21:06:57 -2.6 C 3.48 g/m*3 -2.6 C 0 km/h
1306 31-12-2008 21:18:56 -2.7 C 3.45 g/m*3 -2.7 C 0 km/h
1307 31-12-2008 21:30:56 -2.5 C 3.54 g/m*3 -2.5 C 0 km/h
1308 31-12-2008 21:42:56 -2.6 C 3.52 g/m*3 -2.6 C 0 km/h
1309 31-12-2008 21:54:55 -2.4 C 3.57 g/m*3 -2.4 C 0 km/h
1310 31-12-2008 22:06:56 -2.5 C 3.54 g/m*3 -2.5 C 0 km/h
1311 31-12-2008 22:18:56 -2.7 C 3.49 g/m*3 -2.7 C 0 km/h
1312 31-12-2008 22:30:55 -2.8 C 3.47 g/m*3 -2.8 C 0 km/h
1313 31-12-2008 22:42:55 -3.1 C 3.39 g/m*3 -3.1 C 0 km/h
1314 31-12-2008 22:54:55 -3.2 C 3.37 g/m*3 -3.2 C 0 km/h
1315 31-12-2008 23:07:53 -3.2 C 3.37 g/m*3 -3.2 C 0 km/h
1316 31-12-2008 23:19:53 -3 C 3.46 g/m*3 -3 C 0 km/h
1317 31-12-2008 23:31:53 -2.6 C 3.6 g/m*3 -2.6 C 0 km/h
1318 31-12-2008 23:43:53 -2.4 C 3.65 g/m*3 -2.4 C 0 km/h
1319 31-12-2008 23:55:53 -2.2 C 3.74 g/m*3 -2.2 C 0 km/h
1320 01-01-2009 00:07:53 -2.1 C 3.77 g/m*3 -2.1 C 0 km/h
1321 01-01-2009 00:19:53 -2 C 3.79 g/m*3 -2 C 0 km/h
1322 01-01-2009 00:31:53 -1.9 C 3.82 g/m*3 -1.9 C 0 km/h
1323 01-01-2009 00:43:53 -1.8 C 3.85 g/m*3 -1.8 C 0 km/h
1324 01-01-2009 00:55:53 -1.7 C 3.87 g/m*3 -1.7 C 0 km/h
1325 01-01-2009 01:07:54 -1.3 C 4.03 g/m*3 -1.3 C 0 km/h
Sensor: Nr:Datum:Temp:Abs-Feuchte:Windchill:Wind:
Aussen-T/F 1326 01-01-2009 01:19:54 -1.1 C 4.04 g/m*3 -1.1 C 0 km/h
1327 01-01-2009 01:31:54 -0.9 C 4.05 g/m*3 -0.9 C 0 km/h
1328 01-01-2009 01:43:54 -0.9 C 3.91 g/m*3 -0.9 C 0 km/h
1329 01-01-2009 01:55:54 -0.8 C 3.9 g/m*3 -0.8 C 0 km/h
1330 01-01-2009 02:07:54 -0.9 C 3.82 g/m*3 -0.9 C 0 km/h
1331 01-01-2009 02:19:54 -0.8 C 3.8 g/m*3 -0.8 C 0 km/h
1332 01-01-2009 02:31:54 -0.9 C 3.78 g/m*3 -0.9 C 0 km/h
1333 01-01-2009 02:43:54 -0.9 C 3.78 g/m*3 -0.9 C 0 km/h
1334 01-01-2009 02:55:54 -1 C 3.75 g/m*3 -1 C 0 km/h
1335 01-01-2009 03:07:54 -1.1 C 3.73 g/m*3 -1.1 C 0 km/h
1336 01-01-2009 03:19:53 -1.1 C 3.77 g/m*3 -1.1 C 0 km/h
1337 01-01-2009 03:31:53 -1.5 C 3.62 g/m*3 -1.5 C 0 km/h
1338 01-01-2009 03:43:53 -1.8 C 3.55 g/m*3 -1.8 C 0 km/h
1339 01-01-2009 03:55:53 -2 C 3.5 g/m*3 -2 C 0 km/h
1340 01-01-2009 04:07:53 -2.1 C 3.52 g/m*3 -2.1 C 0 km/h
1341 01-01-2009 04:19:53 -2.1 C 3.52 g/m*3 -2.1 C 0 km/h
1342 01-01-2009 04:31:52 -2.1 C 3.52 g/m*3 -2.1 C 0 km/h
1343 01-01-2009 04:43:52 -2.1 C 3.52 g/m*3 -2.1 C 0 km/h
1344 01-01-2009 04:55:52 -2.1 C 3.52 g/m*3 -2.1 C 0 km/h
1345 01-01-2009 05:07:53 -2 C 3.54 g/m*3 -2 C 0 km/h
1346 01-01-2009 05:19:52 -2 C 3.54 g/m*3 -2 C 0 km/h
1347 01-01-2009 05:31:52 -2 C 3.54 g/m*3 -2 C 0 km/h
1348 01-01-2009 05:43:53 -2.2 C 3.41 g/m*3 -2.2 C 0 km/h
1349 01-01-2009 05:55:52 -2.3 C 3.38 g/m*3 -2.3 C 0 km/h
1350 01-01-2009 06:07:51 -2.4 C 3.32 g/m*3 -2.4 C 0 km/h
Sensor: Nr:Datum:Temp:Abs-Feuchte:Windchill:Wind:
Aussen-T/F 1351 01-01-2009 06:19:52 -2.6 C 3.27 g/m*3 -2.6 C 0 km/h
1352 01-01-2009 06:31:52 -2.8 C 3.23 g/m*3 -2.8 C 0 km/h
1353 01-01-2009 06:43:52 -3.3 C 3.11 g/m*3 -3.3 C 0 km/h
1354 01-01-2009 06:55:51 -3.6 C 3.05 g/m*3 -3.6 C 0 km/h
1355 01-01-2009 07:07:52 -3.8 C 3.01 g/m*3 -3.8 C 0 km/h
1356 01-01-2009 07:19:51 -3.8 C 3.01 g/m*3 -3.8 C 0 km/h
1357 01-01-2009 07:31:51 -3.9 C 2.98 g/m*3 -3.9 C 0 km/h
1358 01-01-2009 07:43:51 -3.9 C 2.98 g/m*3 -3.9 C 0 km/h
1359 01-01-2009 07:55:51 -3.9 C 2.98 g/m*3 -3.9 C 0 km/h
1360 01-01-2009 08:07:51 -4.2 C 2.89 g/m*3 -4.2 C 0 km/h
1361 01-01-2009 08:19:51 -4.4 C 2.84 g/m*3 -4.4 C 0 km/h
1362 01-01-2009 08:31:50 -4.5 C 2.82 g/m*3 -4.5 C 0 km/h
1363 01-01-2009 08:43:50 -4.6 C 2.77 g/m*3 -4.6 C 0 km/h
1364 01-01-2009 08:55:51 -4.7 C 2.75 g/m*3 -4.7 C 0 km/h
1365 01-01-2009 09:07:50 -4.6 C 2.8 g/m*3 -4.6 C 0 km/h
1366 01-01-2009 09:19:50 -4.6 C 2.8 g/m*3 -4.6 C 0 km/h
1367 01-01-2009 09:31:50 -4.5 C 2.82 g/m*3 -4.5 C 0 km/h
1368 01-01-2009 09:43:50 -4.5 C 2.79 g/m*3 -4.5 C 0 km/h
1369 01-01-2009 09:55:50 -4.2 C 2.85 g/m*3 -4.2 C 0 km/h
1370 01-01-2009 10:07:49 -4.2 C 2.85 g/m*3 -4.2 C 0 km/h
1371 01-01-2009 10:19:50 -4.2 C 2.81 g/m*3 -4.2 C 0 km/h
1372 01-01-2009 10:31:50 -4.1 C 2.83 g/m*3 -4.1 C 0 km/h
1373 01-01-2009 10:43:50 -4.1 C 2.8 g/m*3 -4.1 C 0 km/h
1374 01-01-2009 10:55:49 -4.3 C 2.69 g/m*3 -4.3 C 0 km/h
1375 01-01-2009 11:07:50 -4.3 C 2.69 g/m*3 -4.3 C 0 km/h
Sensor: Nr:Datum:Temp:Abs-Feuchte:Windchill:Wind:
Aussen-T/F 1376 01-01-2009 11:19:49 -4 C 2.74 g/m*3 -4 C 0 km/h
1377 01-01-2009 11:31:49 -4 C 2.71 g/m*3 -4 C 0 km/h
1378 01-01-2009 11:43:49 -4.1 C 2.65 g/m*3 -4.1 C 0 km/h
1379 01-01-2009 11:55:48 -4.1 C 2.69 g/m*3 -4.1 C 0 km/h
1380 01-01-2009 12:07:49 -4.1 C 2.69 g/m*3 -4.1 C 0 km/h
1381 01-01-2009 12:19:48 -4.1 C 2.69 g/m*3 -4.1 C 0 km/h
1382 01-01-2009 12:31:48 -4.1 C 2.65 g/m*3 -4.1 C 0 km/h
1383 01-01-2009 12:43:48 -4 C 2.67 g/m*3 -4 C 0 km/h
1384 01-01-2009 12:55:48 -4 C 2.63 g/m*3 -4 C 0 km/h
1385 01-01-2009 13:07:48 -3.9 C 2.65 g/m*3 -3.9 C 0 km/h
1386 01-01-2009 13:19:48 -3.8 C 2.67 g/m*3 -3.8 C 0 km/h
1387 01-01-2009 13:31:48 -3.8 C 2.67 g/m*3 -3.8 C 0 km/h
1388 01-01-2009 13:43:48 -3.7 C 2.69 g/m*3 -3.7 C 0 km/h
1389 01-01-2009 13:55:48 -3.7 C 2.65 g/m*3 -3.7 C 0 km/h
1390 01-01-2009 14:07:47 -3.6 C 2.63 g/m*3 -3.6 C 0 km/h
1391 01-01-2009 14:19:48 -3.7 C 2.58 g/m*3 -3.7 C 0 km/h
1392 01-01-2009 14:31:01 -3.8 C 2.56 g/m*3 -3.8 C 0 km/h
1393 01-01-2009 14:43:01 -3.9 C 2.54 g/m*3 -3.9 C 0 km/h
1394 01-01-2009 14:55:02 -3.9 C 2.58 g/m*3 -3.9 C 0 km/h
1395 01-01-2009 15:07:01 -3.8 C 2.6 g/m*3 -3.8 C 0 km/h
1396 01-01-2009 15:19:01 -3.7 C 2.62 g/m*3 -3.7 C 0 km/h
1397 01-01-2009 15:31:01 -3.6 C 2.63 g/m*3 -3.6 C 0 km/h
1398 01-01-2009 15:43:01 -3.6 C 2.63 g/m*3 -3.6 C 0 km/h
1399 01-01-2009 15:55:01 -3.9 C 2.58 g/m*3 -3.9 C 0 km/h
1400 01-01-2009 16:07:00 -4.2 C 2.56 g/m*3 -4.2 C 0 km/h
Sensor: Nr:Datum:Temp:Abs-Feuchte:Windchill:Wind:
Aussen-T/F 1401 01-01-2009 16:19:00 -4.4 C 2.56 g/m*3 -4.4 C 0 km/h
1402 01-01-2009 16:31:01 -4.6 C 2.56 g/m*3 -4.6 C 0 km/h
1403 01-01-2009 16:43:01 -4.8 C 2.56 g/m*3 -4.8 C 0 km/h
1404 01-01-2009 16:55:00 -4.9 C 2.54 g/m*3 -4.9 C 0 km/h
1405 01-01-2009 17:07:00 -5.1 C 2.54 g/m*3 -5.1 C 0 km/h
1406 01-01-2009 17:19:00 -5.3 C 2.5 g/m*3 -5.3 C 0 km/h
1407 01-01-2009 17:31:59 -5.3 C 2.53 g/m*3 -5.3 C 0 km/h
1408 01-01-2009 17:42:59 -5 C 2.62 g/m*3 -5 C 0 km/h
1409 01-01-2009 17:55:00 -4.9 C 2.64 g/m*3 -4.9 C 0 km/h
1410 01-01-2009 18:07:59 -4.8 C 2.66 g/m*3 -4.8 C 0 km/h
1411 01-01-2009 18:19:59 -4.6 C 2.7 g/m*3 -4.6 C 0 km/h
1412 01-01-2009 18:31:00 -4.6 C 2.73 g/m*3 -4.6 C 0 km/h
1413 01-01-2009 18:43:00 -4.4 C 2.77 g/m*3 -4.4 C 0 km/h
1414 01-01-2009 18:55:59 -4.3 C 2.79 g/m*3 -4.3 C 0 km/h
1415 01-01-2009 19:07:59 -4.2 C 2.78 g/m*3 -4.2 C 0 km/h
1416 01-01-2009 19:19:59 -4.2 C 2.78 g/m*3 -4.2 C 0 km/h
1417 01-01-2009 19:31:59 -4.2 C 2.7 g/m*3 -4.2 C 0 km/h
1418 01-01-2009 19:44:00 -4.2 C 2.67 g/m*3 -4.2 C 0 km/h
1419 01-01-2009 19:55:58 -4.1 C 2.69 g/m*3 -4.1 C 0 km/h
1420 01-01-2009 20:07:59 -4.1 C 2.69 g/m*3 -4.1 C 0 km/h
1421 01-01-2009 20:19:58 -4.1 C 2.69 g/m*3 -4.1 C 0 km/h
1422 01-01-2009 20:31:58 -4 C 2.71 g/m*3 -4 C 0 km/h
1423 01-01-2009 20:43:58 -4 C 2.71 g/m*3 -4 C 0 km/h
1424 01-01-2009 20:55:58 -4 C 2.71 g/m*3 -4 C 0 km/h
1425 01-01-2009 21:07:58 -3.9 C 2.73 g/m*3 -3.9 C 0 km/h
Sensor: Nr:Datum:Temp:Abs-Feuchte:Windchill:Wind:
Aussen-T/F 1426 01-01-2009 21:19:58 -3.9 C 2.73 g/m*3 -3.9 C 0 km/h
1427 01-01-2009 21:31:57 -3.9 C 2.73 g/m*3 -3.9 C 0 km/h
1428 01-01-2009 21:43:57 -3.9 C 2.73 g/m*3 -3.9 C 0 km/h
1429 01-01-2009 21:55:58 -3.9 C 2.73 g/m*3 -3.9 C 0 km/h
1430 01-01-2009 22:07:57 -3.9 C 2.73 g/m*3 -3.9 C 0 km/h
1431 01-01-2009 22:20:58 -3.9 C 2.76 g/m*3 -3.9 C 0 km/h
1432 01-01-2009 22:32:58 -3.9 C 2.76 g/m*3 -3.9 C 0 km/h
1433 01-01-2009 22:44:59 -3.9 C 2.76 g/m*3 -3.9 C 0 km/h
1434 01-01-2009 22:56:59 -4 C 2.78 g/m*3 -4 C 0 km/h
1435 01-01-2009 23:08:59 -4 C 2.78 g/m*3 -4 C 0 km/h
1436 01-01-2009 23:20:59 -3.9 C 2.8 g/m*3 -3.9 C 0 km/h
1437 01-01-2009 23:32:59 -3.9 C 2.8 g/m*3 -3.9 C 0 km/h
1438 01-01-2009 23:44:59 -4 C 2.78 g/m*3 -4 C 0 km/h
1439 01-01-2009 23:56:59 -4.1 C 2.76 g/m*3 -4.1 C 0 km/h
1440 02-01-2009 00:08:59 -4 C 2.78 g/m*3 -4 C 0 km/h
1441 02-01-2009 00:20:59 -4 C 2.78 g/m*3 -4 C 0 km/h
1442 02-01-2009 00:32:59 -4.1 C 2.76 g/m*3 -4.1 C 0 km/h
1443 02-01-2009 00:44:59 -4.1 C 2.76 g/m*3 -4.1 C 0 km/h
1444 02-01-2009 00:56:59 -4 C 2.78 g/m*3 -4 C 0 km/h
1445 02-01-2009 01:08:59 -4 C 2.78 g/m*3 -4 C 0 km/h
1446 02-01-2009 01:20:59 -4 C 2.78 g/m*3 -4 C 0 km/h
1447 02-01-2009 01:32:59 -4 C 2.78 g/m*3 -4 C 0 km/h
1448 02-01-2009 01:44:59 -4 C 2.78 g/m*3 -4 C 0 km/h
1449 02-01-2009 01:56:59 -4 C 2.82 g/m*3 -4 C 0 km/h
1450 02-01-2009 02:08:59 -3.9 C 2.84 g/m*3 -3.9 C 0 km/h
Sensor: Nr:Datum:Temp:Abs-Feuchte:Windchill:Wind:
Aussen-T/F 1451 02-01-2009 02:19:59 -3.9 C 2.8 g/m*3 -3.9 C 0 km/h
1452 02-01-2009 02:31:59 -3.9 C 2.8 g/m*3 -3.9 C 0 km/h
1453 02-01-2009 02:44:00 -3.9 C 2.8 g/m*3 -3.9 C 0 km/h
1454 02-01-2009 02:56:00 -3.9 C 2.8 g/m*3 -3.9 C 0 km/h
1455 02-01-2009 03:08:00 -4 C 2.78 g/m*3 -4 C 0 km/h
1456 02-01-2009 03:20:00 -4 C 2.78 g/m*3 -4 C 0 km/h
1457 02-01-2009 03:32:00 -3.9 C 2.84 g/m*3 -3.9 C 0 km/h
1458 02-01-2009 03:44:00 -3.9 C 2.84 g/m*3 -3.9 C 0 km/h
1459 02-01-2009 03:56:00 -3.9 C 2.84 g/m*3 -3.9 C 0 km/h
1460 02-01-2009 04:08:00 -3.8 C 2.86 g/m*3 -3.8 C 0 km/h
1461 02-01-2009 04:20:00 -3.8 C 2.86 g/m*3 -3.8 C 0 km/h
1462 02-01-2009 04:32:00 -3.7 C 2.84 g/m*3 -3.7 C 0 km/h
1463 02-01-2009 04:44:00 -3.7 C 2.84 g/m*3 -3.7 C 0 km/h
1464 02-01-2009 04:56:00 -3.7 C 2.88 g/m*3 -3.7 C 0 km/h
1465 02-01-2009 05:08:00 -3.6 C 2.9 g/m*3 -3.6 C 0 km/h
1466 02-01-2009 05:20:00 -3.6 C 2.9 g/m*3 -3.6 C 0 km/h
1467 02-01-2009 05:32:00 -3.5 C 2.92 g/m*3 -3.5 C 0 km/h
1468 02-01-2009 05:44:00 -3.5 C 2.88 g/m*3 -3.5 C 0 km/h
1469 02-01-2009 05:56:00 -3.5 C 2.92 g/m*3 -3.5 C 0 km/h
1470 02-01-2009 06:08:00 -3.4 C 2.94 g/m*3 -3.4 C 0 km/h
1471 02-01-2009 06:20:00 -3.4 C 2.94 g/m*3 -3.4 C 0 km/h
1472 02-01-2009 06:32:01 -3.4 C 2.94 g/m*3 -3.4 C 0 km/h
1473 02-01-2009 06:44:01 -3.3 C 2.96 g/m*3 -3.3 C 0 km/h
1474 02-01-2009 06:56:01 -3.3 C 2.96 g/m*3 -3.3 C 0 km/h
1475 02-01-2009 07:08:01 -3.2 C 2.98 g/m*3 -3.2 C 0 km/h
Sensor: Nr:Datum:Temp:Abs-Feuchte:Windchill:Wind:
Aussen-T/F 1476 02-01-2009 07:20:01 -3.2 C 2.94 g/m*3 -3.2 C 0 km/h
1477 02-01-2009 07:32:01 -3.2 C 2.98 g/m*3 -3.2 C 0 km/h
1478 02-01-2009 07:44:01 -3.2 C 2.98 g/m*3 -3.2 C 0 km/h
1479 02-01-2009 07:56:01 -3.2 C 2.98 g/m*3 -3.2 C 0 km/h
1480 02-01-2009 08:08:01 -3.3 C 3 g/m*3 -3.3 C 0 km/h
1481 02-01-2009 08:20:59 -3.3 C 3.04 g/m*3 -3.3 C 0 km/h
1482 02-01-2009 08:32:58 -3.3 C 3.11 g/m*3 -3.3 C 0 km/h
1483 02-01-2009 08:44:57 -3.3 C 3.15 g/m*3 -3.3 C 0 km/h
1484 02-01-2009 08:56:57 -3.3 C 3.15 g/m*3 -3.3 C 0 km/h
1485 02-01-2009 09:08:58 -3.2 C 3.18 g/m*3 -3.2 C 0 km/h
1486 02-01-2009 09:20:58 -3.1 C 3.2 g/m*3 -3.1 C 0 km/h
1487 02-01-2009 09:32:57 -3.1 C 3.2 g/m*3 -3.1 C 0 km/h
1488 02-01-2009 09:44:58 -3 C 3.22 g/m*3 -3 C 0 km/h
1489 02-01-2009 09:56:58 -3 C 3.22 g/m*3 -3 C 0 km/h
1490 02-01-2009 10:08:57 -2.8 C 3.27 g/m*3 -2.8 C 0 km/h
1491 02-01-2009 10:20:57 -2.8 C 3.27 g/m*3 -2.8 C 0 km/h
1492 02-01-2009 10:32:57 -2.7 C 3.25 g/m*3 -2.7 C 0 km/h
1493 02-01-2009 10:44:57 -2.7 C 3.25 g/m*3 -2.7 C 0 km/h
1494 02-01-2009 10:56:57 -2.5 C 3.3 g/m*3 -2.5 C 0 km/h
1495 02-01-2009 11:08:56 -2.3 C 3.34 g/m*3 -2.3 C 0 km/h
1496 02-01-2009 11:20:57 -2.1 C 3.39 g/m*3 -2.1 C 0 km/h
1497 02-01-2009 11:32:57 -2 C 3.37 g/m*3 -2 C 0 km/h
1498 02-01-2009 11:44:56 -1.8 C 3.42 g/m*3 -1.8 C 0 km/h
1499 02-01-2009 11:56:56 -1.7 C 3.44 g/m*3 -1.7 C 0 km/h
1500 02-01-2009 12:08:57 -1.7 C 3.44 g/m*3 -1.7 C 0 km/h
Sensor: Nr:Datum:Temp:Abs-Feuchte:Windchill:Wind:
Aussen-T/F 1501 02-01-2009 12:20:56 -1.7 C 3.49 g/m*3 -1.7 C 0 km/h
1502 02-01-2009 12:32:56 -1.6 C 3.51 g/m*3 -1.6 C 0 km/h
1503 02-01-2009 12:44:55 -1.5 C 3.54 g/m*3 -1.5 C 0 km/h
1504 02-01-2009 12:56:55 -1.3 C 3.59 g/m*3 -1.3 C 0 km/h
1505 02-01-2009 13:08:56 -1.1 C 3.64 g/m*3 -1.1 C 0 km/h
1506 02-01-2009 13:20:55 -1 C 3.66 g/m*3 -1 C 0 km/h
1507 02-01-2009 13:32:55 -0.8 C 3.71 g/m*3 -0.8 C 0 km/h
1508 02-01-2009 13:44:55 -0.8 C 3.71 g/m*3 -0.8 C 0 km/h
1509 02-01-2009 13:56:55 -0.8 C 3.71 g/m*3 -0.8 C 0 km/h
1510 02-01-2009 14:08:55 -0.6 C 3.76 g/m*3 -0.6 C 0 km/h
1511 02-01-2009 14:20:55 -0.6 C 3.76 g/m*3 -0.6 C 0 km/h
1512 02-01-2009 14:32:54 -0.5 C 3.79 g/m*3 -0.5 C 0 km/h
1513 02-01-2009 14:44:55 -0.5 C 3.79 g/m*3 -0.5 C 0 km/h
1514 02-01-2009 14:56:55 -0.5 C 3.79 g/m*3 -0.5 C 0 km/h
1515 02-01-2009 15:08:54 -0.5 C 3.79 g/m*3 -0.5 C 0 km/h
1516 02-01-2009 15:20:55 -0.5 C 3.79 g/m*3 -0.5 C 0 km/h
1517 02-01-2009 15:32:54 -0.5 C 3.79 g/m*3 -0.5 C 0 km/h
1518 02-01-2009 15:44:54 -0.5 C 3.79 g/m*3 -0.5 C 0 km/h
1519 02-01-2009 15:56:55 -0.5 C 3.84 g/m*3 -0.5 C 0 km/h
1520 02-01-2009 16:08:53 -0.5 C 3.84 g/m*3 -0.5 C 0 km/h
1521 02-01-2009 16:20:54 -0.6 C 3.81 g/m*3 -0.6 C 0 km/h
1522 02-01-2009 16:32:54 -0.6 C 3.86 g/m*3 -0.6 C 0 km/h
1523 02-01-2009 16:44:53 -0.6 C 3.86 g/m*3 -0.6 C 0 km/h
1524 02-01-2009 16:56:53 -0.6 C 3.9 g/m*3 -0.6 C 0 km/h
1525 02-01-2009 17:08:54 -0.6 C 3.9 g/m*3 -0.6 C 0 km/h
Sensor: Nr:Datum:Temp:Abs-Feuchte:Windchill:Wind:
Aussen-T/F 1526 02-01-2009 17:20:53 -0.4 C 3.96 g/m*3 -0.4 C 0 km/h
1527 02-01-2009 17:32:53 -0.5 C 3.93 g/m*3 -0.5 C 0 km/h
1528 02-01-2009 17:44:53 -0.5 C 3.93 g/m*3 -0.5 C 0 km/h
1529 02-01-2009 17:56:53 -0.5 C 3.93 g/m*3 -0.5 C 0 km/h
1530 02-01-2009 18:08:53 -0.6 C 3.9 g/m*3 -0.6 C 0 km/h
1531 02-01-2009 18:20:52 -0.4 C 3.96 g/m*3 -0.4 C 0 km/h
1532 02-01-2009 18:32:52 -0.6 C 3.9 g/m*3 -0.6 C 0 km/h
1533 02-01-2009 18:44:52 -0.4 C 3.96 g/m*3 -0.4 C 0 km/h
1534 02-01-2009 18:56:52 -0.4 C 3.96 g/m*3 -0.4 C 0 km/h
1535 02-01-2009 19:08:52 -0.6 C 3.9 g/m*3 -0.6 C 0 km/h
1536 02-01-2009 19:20:52 -0.6 C 3.9 g/m*3 -0.6 C 0 km/h
1537 02-01-2009 19:32:52 -0.4 C 3.96 g/m*3 -0.4 C 0 km/h
1538 02-01-2009 19:44:52 -0.5 C 3.98 g/m*3 -0.5 C 0 km/h
1539 02-01-2009 19:56:52 -0.6 C 3.95 g/m*3 -0.6 C 0 km/h
1540 02-01-2009 20:08:51 -0.6 C 3.95 g/m*3 -0.6 C 0 km/h
1541 02-01-2009 20:20:52 -0.6 C 3.95 g/m*3 -0.6 C 0 km/h
1542 02-01-2009 20:32:51 -0.6 C 3.95 g/m*3 -0.6 C 0 km/h
1543 02-01-2009 20:44:51 -0.6 C 3.95 g/m*3 -0.6 C 0 km/h
1544 02-01-2009 20:56:51 -0.6 C 3.95 g/m*3 -0.6 C 0 km/h
1545 02-01-2009 21:08:52 -0.6 C 3.95 g/m*3 -0.6 C 0 km/h
1546 02-01-2009 21:20:51 -0.6 C 3.95 g/m*3 -0.6 C 0 km/h
1547 02-01-2009 21:32:51 -0.6 C 3.95 g/m*3 -0.6 C 0 km/h
1548 02-01-2009 21:44:50 -0.5 C 3.98 g/m*3 -0.5 C 0 km/h
1549 02-01-2009 21:56:50 -0.6 C 3.95 g/m*3 -0.6 C 0 km/h
1550 02-01-2009 22:08:51 -0.6 C 3.95 g/m*3 -0.6 C 0 km/h
Sensor: Nr:Datum:Temp:Abs-Feuchte:Windchill:Wind:
Aussen-T/F 1551 02-01-2009 22:20:50 -0.6 C 3.95 g/m*3 -0.6 C 0 km/h
1552 02-01-2009 22:33:51 -0.6 C 3.95 g/m*3 -0.6 C 0 km/h
1553 02-01-2009 22:45:51 -0.6 C 3.95 g/m*3 -0.6 C 0 km/h
1554 02-01-2009 22:57:51 -0.7 C 3.92 g/m*3 -0.7 C 0 km/h
1555 02-01-2009 23:09:51 -0.8 C 3.9 g/m*3 -0.8 C 0 km/h
1556 02-01-2009 23:21:51 -0.8 C 3.9 g/m*3 -0.8 C 0 km/h
1557 02-01-2009 23:33:51 -0.8 C 3.9 g/m*3 -0.8 C 0 km/h
1558 02-01-2009 23:45:51 -0.7 C 3.92 g/m*3 -0.7 C 0 km/h
1559 02-01-2009 23:57:51 -0.7 C 3.92 g/m*3 -0.7 C 0 km/h
1560 03-01-2009 00:09:51 -0.7 C 3.92 g/m*3 -0.7 C 0 km/h
1561 03-01-2009 00:21:51 -0.6 C 3.95 g/m*3 -0.6 C 0 km/h
1562 03-01-2009 00:33:51 -0.7 C 3.92 g/m*3 -0.7 C 0 km/h
1563 03-01-2009 00:45:51 -0.7 C 3.88 g/m*3 -0.7 C 0 km/h
1564 03-01-2009 00:57:51 -0.8 C 3.67 g/m*3 -0.8 C 0 km/h
1565 03-01-2009 01:09:51 -1.2 C 3.43 g/m*3 -1.2 C 0 km/h
1566 03-01-2009 01:21:51 -1.7 C 3.31 g/m*3 -1.7 C 0 km/h
1567 03-01-2009 01:33:51 -2.1 C 3.26 g/m*3 -2.1 C 0 km/h
1568 03-01-2009 01:45:51 -2.5 C 3.21 g/m*3 -2.5 C 0 km/h
1569 03-01-2009 01:57:51 -2.9 C 3.16 g/m*3 -2.9 C 0 km/h
1570 03-01-2009 02:09:51 -3.1 C 3.12 g/m*3 -3.1 C 0 km/h
1571 03-01-2009 02:21:51 -3.2 C 3.14 g/m*3 -3.2 C 0 km/h
1572 03-01-2009 02:33:52 -3.1 C 3.2 g/m*3 -3.1 C 0 km/h
1573 03-01-2009 02:45:52 -2.7 C 3.29 g/m*3 -2.7 C 0 km/h
1574 03-01-2009 02:57:52 -2.6 C 3.31 g/m*3 -2.6 C 0 km/h
1575 03-01-2009 03:09:52 -2.5 C 3.34 g/m*3 -2.5 C 0 km/h
Sensor: Nr:Datum:Temp:Abs-Feuchte:Windchill:Wind:
Aussen-T/F 1576 03-01-2009 03:21:52 -2.4 C 3.36 g/m*3 -2.4 C 0 km/h
1577 03-01-2009 03:33:52 -2.3 C 3.38 g/m*3 -2.3 C 0 km/h
1578 03-01-2009 03:45:52 -2.2 C 3.41 g/m*3 -2.2 C 0 km/h
1579 03-01-2009 03:57:52 -2.1 C 3.39 g/m*3 -2.1 C 0 km/h
1580 03-01-2009 04:09:52 -2.2 C 3.28 g/m*3 -2.2 C 0 km/h
1581 03-01-2009 04:21:52 -2.5 C 3.17 g/m*3 -2.5 C 0 km/h
1582 03-01-2009 04:33:52 -2.9 C 3.05 g/m*3 -2.9 C 0 km/h
1583 03-01-2009 04:45:52 -3 C 3.06 g/m*3 -3 C 0 km/h
1584 03-01-2009 04:57:52 -3 C 3.02 g/m*3 -3 C 0 km/h
1585 03-01-2009 05:09:52 -2.8 C 3.07 g/m*3 -2.8 C 0 km/h
1586 03-01-2009 05:21:52 -2.7 C 3.09 g/m*3 -2.7 C 0 km/h
1587 03-01-2009 05:33:52 -2.6 C 3.11 g/m*3 -2.6 C 0 km/h
1588 03-01-2009 05:45:52 -2.6 C 3.11 g/m*3 -2.6 C 0 km/h
1589 03-01-2009 05:57:52 -2.6 C 3.07 g/m*3 -2.6 C 0 km/h
1590 03-01-2009 06:09:52 -2.6 C 3.11 g/m*3 -2.6 C 0 km/h
1591 03-01-2009 06:21:52 -2.6 C 3.11 g/m*3 -2.6 C 0 km/h
1592 03-01-2009 06:33:52 -2.6 C 3.11 g/m*3 -2.6 C 0 km/h
1593 03-01-2009 06:45:53 -2.6 C 3.11 g/m*3 -2.6 C 0 km/h
1594 03-01-2009 06:57:53 -2.6 C 3.11 g/m*3 -2.6 C 0 km/h
1595 03-01-2009 07:09:53 -2.8 C 2.99 g/m*3 -2.8 C 0 km/h
1596 03-01-2009 07:21:53 -2.9 C 2.97 g/m*3 -2.9 C 0 km/h
1597 03-01-2009 07:33:53 -3 C 2.91 g/m*3 -3 C 0 km/h
1598 03-01-2009 07:45:53 -3.4 C 2.83 g/m*3 -3.4 C 0 km/h
1599 03-01-2009 07:57:53 -3.9 C 2.73 g/m*3 -3.9 C 0 km/h
1600 03-01-2009 08:09:53 -4 C 2.74 g/m*3 -4 C 0 km/h
Sensor: Nr:Datum:Temp:Abs-Feuchte:Windchill:Wind:
Aussen-T/F 1601 03-01-2009 08:21:53 -4 C 2.78 g/m*3 -4 C 0 km/h
1602 03-01-2009 08:33:53 -4 C 2.78 g/m*3 -4 C 0 km/h
1603 03-01-2009 08:45:53 -4.2 C 2.74 g/m*3 -4.2 C 0 km/h
1604 03-01-2009 08:57:53 -4.4 C 2.7 g/m*3 -4.4 C 0 km/h
1605 03-01-2009 09:09:51 -4.7 C 2.64 g/m*3 -4.7 C 0 km/h
1606 03-01-2009 09:21:50 -4.7 C 2.68 g/m*3 -4.7 C 0 km/h
1607 03-01-2009 09:33:50 -4.7 C 2.68 g/m*3 -4.7 C 0 km/h
1608 03-01-2009 09:45:50 -4.7 C 2.68 g/m*3 -4.7 C 0 km/h
1609 03-01-2009 09:57:50 -4.7 C 2.71 g/m*3 -4.7 C 0 km/h
1610 03-01-2009 10:09:50 -4.7 C 2.71 g/m*3 -4.7 C 0 km/h
1611 03-01-2009 10:21:50 -4.7 C 2.71 g/m*3 -4.7 C 0 km/h
1612 03-01-2009 10:33:50 -4.6 C 2.73 g/m*3 -4.6 C 0 km/h
1613 03-01-2009 10:45:50 -4.6 C 2.73 g/m*3 -4.6 C 0 km/h
1614 03-01-2009 10:57:50 -4.6 C 2.73 g/m*3 -4.6 C 0 km/h
1615 03-01-2009 11:09:49 -4.5 C 2.75 g/m*3 -4.5 C 0 km/h
1616 03-01-2009 11:21:50 -4.4 C 2.77 g/m*3 -4.4 C 0 km/h
1617 03-01-2009 11:33:49 -4.4 C 2.77 g/m*3 -4.4 C 0 km/h
1618 03-01-2009 11:45:49 -4.3 C 2.79 g/m*3 -4.3 C 0 km/h
1619 03-01-2009 11:57:50 -4.2 C 2.81 g/m*3 -4.2 C 0 km/h
1620 03-01-2009 12:09:48 -4.2 C 2.81 g/m*3 -4.2 C 0 km/h
1621 03-01-2009 12:21:49 -4.1 C 2.8 g/m*3 -4.1 C 0 km/h
1622 03-01-2009 12:33:49 -4.1 C 2.8 g/m*3 -4.1 C 0 km/h
1623 03-01-2009 12:45:48 -3.9 C 2.84 g/m*3 -3.9 C 0 km/h
1624 03-01-2009 12:57:48 -3.8 C 2.86 g/m*3 -3.8 C 0 km/h
1625 03-01-2009 13:09:49 -3.8 C 2.86 g/m*3 -3.8 C 0 km/h
Sensor: Nr:Datum:Temp:Abs-Feuchte:Windchill:Wind:
Aussen-T/F 1626 03-01-2009 13:21:48 -3.7 C 2.88 g/m*3 -3.7 C 0 km/h
1627 03-01-2009 13:33:48 -3.6 C 2.9 g/m*3 -3.6 C 0 km/h
1628 03-01-2009 13:45:48 -3.5 C 2.92 g/m*3 -3.5 C 0 km/h
1629 03-01-2009 13:57:48 -3.4 C 2.9 g/m*3 -3.4 C 0 km/h
1630 03-01-2009 14:09:48 -3.4 C 2.9 g/m*3 -3.4 C 0 km/h
1631 03-01-2009 14:21:47 -3.4 C 2.9 g/m*3 -3.4 C 0 km/h
1632 03-01-2009 14:33:47 -3.3 C 2.92 g/m*3 -3.3 C 0 km/h
1633 03-01-2009 14:45:47 -3.3 C 2.92 g/m*3 -3.3 C 0 km/h
1634 03-01-2009 14:57:47 -3.2 C 2.94 g/m*3 -3.2 C 0 km/h
1635 03-01-2009 15:09:47 -3.3 C 2.92 g/m*3 -3.3 C 0 km/h
1636 03-01-2009 15:21:47 -3.3 C 2.92 g/m*3 -3.3 C 0 km/h
1637 03-01-2009 15:33:47 -3.3 C 2.92 g/m*3 -3.3 C 0 km/h
1638 03-01-2009 15:45:47 -3.3 C 2.92 g/m*3 -3.3 C 0 km/h
1639 03-01-2009 15:57:47 -3.4 C 2.86 g/m*3 -3.4 C 0 km/h
1640 03-01-2009 16:09:46 -3.4 C 2.86 g/m*3 -3.4 C 0 km/h
1641 03-01-2009 16:21:47 -3.5 C 2.84 g/m*3 -3.5 C 0 km/h
1642 03-01-2009 16:33:46 -3.6 C 2.82 g/m*3 -3.6 C 0 km/h
1643 03-01-2009 16:45:46 -3.6 C 2.86 g/m*3 -3.6 C 0 km/h
1644 03-01-2009 16:57:46 -3.8 C 2.82 g/m*3 -3.8 C 0 km/h
1645 03-01-2009 17:09:46 -4 C 2.78 g/m*3 -4 C 0 km/h
1646 03-01-2009 17:21:46 -4.3 C 2.72 g/m*3 -4.3 C 0 km/h
1647 03-01-2009 17:33:46 -4.3 C 2.79 g/m*3 -4.3 C 0 km/h
1648 03-01-2009 17:45:46 -4.5 C 2.75 g/m*3 -4.5 C 0 km/h
1649 03-01-2009 17:57:46 -4.4 C 2.81 g/m*3 -4.4 C 0 km/h
1650 03-01-2009 18:09:46 -4.6 C 2.77 g/m*3 -4.6 C 0 km/h
Sensor: Nr:Datum:Temp:Abs-Feuchte:Windchill:Wind:
Aussen-T/F 1651 03-01-2009 18:21:45 -4.7 C 2.75 g/m*3 -4.7 C 0 km/h
1652 03-01-2009 18:33:45 -4.7 C 2.78 g/m*3 -4.7 C 0 km/h
1653 03-01-2009 18:45:45 -4.8 C 2.8 g/m*3 -4.8 C 0 km/h
1654 03-01-2009 18:57:45 -4.6 C 2.84 g/m*3 -4.6 C 0 km/h
1655 03-01-2009 19:09:45 -4.6 C 2.87 g/m*3 -4.6 C 0 km/h
1656 03-01-2009 19:21:44 -4.6 C 2.87 g/m*3 -4.6 C 0 km/h
1657 03-01-2009 19:33:45 -4.9 C 2.78 g/m*3 -4.9 C 0 km/h
1658 03-01-2009 19:45:45 -5.2 C 2.72 g/m*3 -5.2 C 0 km/h
1659 03-01-2009 19:57:45 -5.1 C 2.77 g/m*3 -5.1 C 0 km/h
1660 03-01-2009 20:09:44 -5 C 2.83 g/m*3 -5 C 0 km/h
1661 03-01-2009 20:21:45 -5.2 C 2.79 g/m*3 -5.2 C 0 km/h
1662 03-01-2009 20:33:44 -5.2 C 2.79 g/m*3 -5.2 C 0 km/h
1663 03-01-2009 20:45:44 -5 C 2.86 g/m*3 -5 C 0 km/h
1664 03-01-2009 20:57:44 -4.6 C 2.98 g/m*3 -4.6 C 0 km/h
1665 03-01-2009 21:09:43 -4.3 C 3.01 g/m*3 -4.3 C 0 km/h
1666 03-01-2009 21:21:44 -4.2 C 2.99 g/m*3 -4.2 C 0 km/h
1667 03-01-2009 21:33:44 -4.2 C 2.92 g/m*3 -4.2 C 0 km/h
1668 03-01-2009 21:45:43 -4.2 C 2.92 g/m*3 -4.2 C 0 km/h
1669 03-01-2009 21:57:43 -4.1 C 2.91 g/m*3 -4.1 C 0 km/h
1670 03-01-2009 22:09:44 -4.1 C 2.91 g/m*3 -4.1 C 0 km/h
1671 03-01-2009 22:21:43 -4 C 2.89 g/m*3 -4 C 0 km/h
1672 03-01-2009 22:33:43 -4 C 2.89 g/m*3 -4 C 0 km/h
1673 03-01-2009 22:46:44 -4 C 2.89 g/m*3 -4 C 0 km/h
1674 03-01-2009 22:58:44 -4 C 2.89 g/m*3 -4 C 0 km/h
1675 03-01-2009 23:10:44 -3.9 C 2.91 g/m*3 -3.9 C 0 km/h
Sensor: Nr:Datum:Temp:Abs-Feuchte:Windchill:Wind:
Aussen-T/F 1676 03-01-2009 23:22:44 -3.9 C 2.91 g/m*3 -3.9 C 0 km/h
1677 03-01-2009 23:34:44 -3.8 C 2.89 g/m*3 -3.8 C 0 km/h
1678 03-01-2009 23:46:44 -3.6 C 2.9 g/m*3 -3.6 C 0 km/h
1679 03-01-2009 23:58:44 -3.5 C 2.88 g/m*3 -3.5 C 0 km/h
1680 04-01-2009 00:10:44 -3.5 C 2.84 g/m*3 -3.5 C 0 km/h
1681 04-01-2009 00:22:44 -3.4 C 2.86 g/m*3 -3.4 C 0 km/h
1682 04-01-2009 00:34:45 -3.4 C 2.86 g/m*3 -3.4 C 0 km/h
1683 04-01-2009 00:46:45 -3.4 C 2.86 g/m*3 -3.4 C 0 km/h
1684 04-01-2009 00:58:45 -3.4 C 2.83 g/m*3 -3.4 C 0 km/h
1685 04-01-2009 01:10:45 -3.4 C 2.83 g/m*3 -3.4 C 0 km/h
1686 04-01-2009 01:22:45 -3.3 C 2.85 g/m*3 -3.3 C 0 km/h
1687 04-01-2009 01:34:45 -3.3 C 2.81 g/m*3 -3.3 C 0 km/h
1688 04-01-2009 01:46:45 -3.3 C 2.77 g/m*3 -3.3 C 0 km/h
1689 04-01-2009 01:58:45 -3.3 C 2.77 g/m*3 -3.3 C 0 km/h
1690 04-01-2009 02:10:45 -3.2 C 2.79 g/m*3 -3.2 C 0 km/h
1691 04-01-2009 02:22:45 -3.1 C 2.77 g/m*3 -3.1 C 0 km/h
1692 04-01-2009 02:34:45 -3.1 C 2.77 g/m*3 -3.1 C 0 km/h
1693 04-01-2009 02:46:45 -3.1 C 2.77 g/m*3 -3.1 C 0 km/h
1694 04-01-2009 02:58:45 -3.1 C 2.81 g/m*3 -3.1 C 0 km/h
1695 04-01-2009 03:10:45 -3.1 C 2.81 g/m*3 -3.1 C 0 km/h
1696 04-01-2009 03:22:45 -3 C 2.79 g/m*3 -3 C 0 km/h
1697 04-01-2009 03:34:45 -3 C 2.79 g/m*3 -3 C 0 km/h
1698 04-01-2009 03:46:45 -3 C 2.79 g/m*3 -3 C 0 km/h
1699 04-01-2009 03:58:45 -3 C 2.79 g/m*3 -3 C 0 km/h
1700 04-01-2009 04:10:45 -2.9 C 2.81 g/m*3 -2.9 C 0 km/h
Sensor: Nr:Datum:Temp:Abs-Feuchte:Windchill:Wind:
Aussen-T/F 1701 04-01-2009 04:22:45 -2.8 C 2.83 g/m*3 -2.8 C 0 km/h
1702 04-01-2009 04:34:46 -2.7 C 2.85 g/m*3 -2.7 C 0 km/h
1703 04-01-2009 04:46:46 -2.8 C 2.83 g/m*3 -2.8 C 0 km/h
1704 04-01-2009 04:58:46 -2.7 C 2.85 g/m*3 -2.7 C 0 km/h
1705 04-01-2009 05:10:46 -2.6 C 2.83 g/m*3 -2.6 C 0 km/h
1706 04-01-2009 05:22:46 -2.6 C 2.83 g/m*3 -2.6 C 0 km/h
1707 04-01-2009 05:34:46 -2.5 C 2.85 g/m*3 -2.5 C 0 km/h
1708 04-01-2009 05:46:46 -2.4 C 2.83 g/m*3 -2.4 C 0 km/h
1709 04-01-2009 05:58:46 -2.4 C 2.83 g/m*3 -2.4 C 0 km/h
1710 04-01-2009 06:10:46 -2.3 C 2.85 g/m*3 -2.3 C 0 km/h
1711 04-01-2009 06:22:46 -2.3 C 2.85 g/m*3 -2.3 C 0 km/h
1712 04-01-2009 06:34:46 -2.3 C 2.85 g/m*3 -2.3 C 0 km/h
1713 04-01-2009 06:46:46 -2.3 C 2.89 g/m*3 -2.3 C 0 km/h
1714 04-01-2009 06:58:46 -2.2 C 2.87 g/m*3 -2.2 C 0 km/h
1715 04-01-2009 07:10:46 -2.2 C 2.87 g/m*3 -2.2 C 0 km/h
1716 04-01-2009 07:22:46 -2.1 C 2.89 g/m*3 -2.1 C 0 km/h
1717 04-01-2009 07:34:44 -2.1 C 2.89 g/m*3 -2.1 C 0 km/h
1718 04-01-2009 07:46:44 -2 C 2.91 g/m*3 -2 C 0 km/h
1719 04-01-2009 07:58:44 -1.9 C 2.89 g/m*3 -1.9 C 0 km/h
1720 04-01-2009 08:10:44 -1.8 C 2.95 g/m*3 -1.8 C 0 km/h
1721 04-01-2009 08:22:43 -1.7 C 2.97 g/m*3 -1.7 C 0 km/h
1722 04-01-2009 08:34:44 -1.6 C 2.95 g/m*3 -1.6 C 0 km/h
1723 04-01-2009 08:46:43 -1.5 C 2.92 g/m*3 -1.5 C 0 km/h
1724 04-01-2009 08:58:43 -1.5 C 2.92 g/m*3 -1.5 C 0 km/h
1725 04-01-2009 09:10:43 -1.4 C 2.95 g/m*3 -1.4 C 0 km/h
Sensor: Nr:Datum:Temp:Abs-Feuchte:Windchill:Wind:
Aussen-T/F 1726 04-01-2009 09:22:43 -1.4 C 2.95 g/m*3 -1.4 C 0 km/h
1727 04-01-2009 09:34:43 -1.3 C 2.97 g/m*3 -1.3 C 0 km/h
1728 04-01-2009 09:46:43 -1.2 C 2.99 g/m*3 -1.2 C 0 km/h
1729 04-01-2009 09:58:43 -1.1 C 2.96 g/m*3 -1.1 C 0 km/h
1730 04-01-2009 10:10:43 -1 C 2.98 g/m*3 -1 C 0 km/h
1731 04-01-2009 10:22:42 -1 C 2.98 g/m*3 -1 C 0 km/h
1732 04-01-2009 10:34:42 -0.9 C 3 g/m*3 -0.9 C 0 km/h
1733 04-01-2009 10:46:42 -0.4 C 3.11 g/m*3 -0.4 C 0 km/h
1734 04-01-2009 10:58:42 -0.4 C 3.06 g/m*3 -0.4 C 0 km/h
1735 04-01-2009 11:10:42 -0.3 C 3.08 g/m*3 -0.3 C 0 km/h
1736 04-01-2009 11:22:41 -0.2 C 3.11 g/m*3 -0.2 C 0 km/h
1737 04-01-2009 11:34:42 -0.2 C 3.06 g/m*3 -0.2 C 0 km/h
1738 04-01-2009 11:46:42 -0.2 C 3.06 g/m*3 -0.2 C 0 km/h
1739 04-01-2009 11:58:42 -0.1 C 3.08 g/m*3 -0.1 C 0 km/h
1740 04-01-2009 12:10:41 -0.1 C 3.08 g/m*3 -0.1 C 0 km/h
1741 04-01-2009 12:22:42 -0.1 C 3.13 g/m*3 -0.1 C 0 km/h
1742 04-01-2009 12:34:41 0 C 3.1 g/m*3 0 C 0 km/h
1743 04-01-2009 12:46:41 0 C 3.1 g/m*3 0 C 0 km/h
1744 04-01-2009 12:58:41 0.1 C 3.12 g/m*3 0.1 C 0 km/h
1745 04-01-2009 13:10:41 0.3 C 3.12 g/m*3 0.3 C 0 km/h
1746 04-01-2009 13:22:41 0.5 C 3.11 g/m*3 0.5 C 0 km/h
1747 04-01-2009 13:34:41 0.8 C 3.02 g/m*3 0.8 C 0 km/h
1748 04-01-2009 13:46:41 0.9 C 2.94 g/m*3 0.9 C 0 km/h
1749 04-01-2009 13:58:41 0.9 C 2.99 g/m*3 0.9 C 0 km/h
1750 04-01-2009 14:10:41 0.8 C 2.92 g/m*3 0.8 C 0 km/h
Sensor: Nr:Datum:Temp:Abs-Feuchte:Windchill:Wind:
Aussen-T/F 1751 04-01-2009 14:22:40 0.6 C 2.93 g/m*3 0.6 C 0 km/h
1752 04-01-2009 14:34:40 0.6 C 2.98 g/m*3 0.6 C 0 km/h
1753 04-01-2009 14:46:40 0.5 C 2.96 g/m*3 0.5 C 0 km/h
1754 04-01-2009 14:58:40 0.5 C 2.91 g/m*3 0.5 C 0 km/h
1755 04-01-2009 15:10:40 0.5 C 2.91 g/m*3 0.5 C 0 km/h
1756 04-01-2009 15:22:39 0.4 C 2.89 g/m*3 0.4 C 0 km/h
1757 04-01-2009 15:34:40 0.4 C 2.89 g/m*3 0.4 C 0 km/h
1758 04-01-2009 15:46:39 0.3 C 2.92 g/m*3 0.3 C 0 km/h
1759 04-01-2009 15:58:39 0.3 C 2.87 g/m*3 0.3 C 0 km/h
1760 04-01-2009 16:10:39 0.2 C 2.9 g/m*3 0.2 C 0 km/h
1761 04-01-2009 16:22:39 0.2 C 2.95 g/m*3 0.2 C 0 km/h
1762 04-01-2009 16:34:39 0.1 C 2.93 g/m*3 0.1 C 0 km/h
1763 04-01-2009 16:46:39 0 C 2.96 g/m*3 0 C 0 km/h
1764 04-01-2009 16:58:39 0 C 2.96 g/m*3 0 C 0 km/h
1765 04-01-2009 17:10:39 0 C 2.91 g/m*3 0 C 0 km/h
1766 04-01-2009 17:22:39 0.1 C 2.93 g/m*3 0.1 C 0 km/h
1767 04-01-2009 17:34:38 0 C 2.91 g/m*3 0 C 0 km/h
1768 04-01-2009 17:46:39 0 C 2.96 g/m*3 0 C 0 km/h
1769 04-01-2009 17:58:39 -0.1 C 2.98 g/m*3 -0.1 C 0 km/h
1770 04-01-2009 18:10:38 -0.2 C 3.01 g/m*3 -0.2 C 0 km/h
1771 04-01-2009 18:22:38 -0.2 C 3.01 g/m*3 -0.2 C 0 km/h
1772 04-01-2009 18:34:38 -0.2 C 3.01 g/m*3 -0.2 C 0 km/h
1773 04-01-2009 18:46:37 -0.2 C 3.01 g/m*3 -0.2 C 0 km/h
1774 04-01-2009 18:58:37 -0.1 C 3.03 g/m*3 -0.1 C 0 km/h
1775 04-01-2009 19:10:38 0.1 C 3.02 g/m*3 0.1 C 0 km/h
Sensor: Nr:Datum:Temp:Abs-Feuchte:Windchill:Wind:
Aussen-T/F 1776 04-01-2009 19:22:37 0.1 C 3.02 g/m*3 0.1 C 0 km/h
1777 04-01-2009 19:34:37 0.1 C 3.02 g/m*3 0.1 C 0 km/h
1778 04-01-2009 19:46:37 0 C 3.05 g/m*3 0 C 0 km/h
1779 04-01-2009 19:58:37 0 C 3.05 g/m*3 0 C 0 km/h
1780 04-01-2009 20:10:37 0 C 3.05 g/m*3 0 C 0 km/h
1781 04-01-2009 20:22:37 0 C 3.05 g/m*3 0 C 0 km/h
1782 04-01-2009 20:34:36 0 C 3.05 g/m*3 0 C 0 km/h
1783 04-01-2009 20:46:37 -0.1 C 3.03 g/m*3 -0.1 C 0 km/h
1784 04-01-2009 20:58:37 -0.1 C 3.03 g/m*3 -0.1 C 0 km/h
1785 04-01-2009 21:10:37 -0.1 C 3.08 g/m*3 -0.1 C 0 km/h
1786 04-01-2009 21:22:36 -0.1 C 3.03 g/m*3 -0.1 C 0 km/h
1787 04-01-2009 21:34:36 -0.1 C 3.08 g/m*3 -0.1 C 0 km/h
1788 04-01-2009 21:46:36 -0.2 C 3.01 g/m*3 -0.2 C 0 km/h
1789 04-01-2009 21:58:36 -0.2 C 3.01 g/m*3 -0.2 C 0 km/h
1790 04-01-2009 22:10:36 -0.2 C 3.01 g/m*3 -0.2 C 0 km/h
1791 04-01-2009 22:22:35 -0.2 C 3.01 g/m*3 -0.2 C 0 km/h
1792 04-01-2009 22:34:36 -0.2 C 3.06 g/m*3 -0.2 C 0 km/h
1793 04-01-2009 22:46:35 -0.2 C 3.06 g/m*3 -0.2 C 0 km/h
1794 04-01-2009 22:58:35 -0.2 C 3.06 g/m*3 -0.2 C 0 km/h
1795 04-01-2009 23:10:35 -0.3 C 3.18 g/m*3 -0.3 C 0 km/h
1796 04-01-2009 23:22:36 -0.4 C 3.25 g/m*3 -0.4 C 0 km/h
1797 04-01-2009 23:34:35 -0.5 C 3.28 g/m*3 -0.5 C 0 km/h
1798 04-01-2009 23:46:35 -0.7 C 3.28 g/m*3 -0.7 C 0 km/h
1799 04-01-2009 23:58:35 -0.8 C 3.3 g/m*3 -0.8 C 0 km/h
1800 05-01-2009 00:10:34 -0.8 C 3.3 g/m*3 -0.8 C 0 km/h
Sensor: Nr:Datum:Temp:Abs-Feuchte:Windchill:Wind:
Aussen-T/F 1801 05-01-2009 00:22:35 -0.9 C 3.37 g/m*3 -0.9 C 0 km/h
1802 05-01-2009 00:34:35 -0.9 C 3.41 g/m*3 -0.9 C 0 km/h
1803 05-01-2009 00:46:34 -1 C 3.39 g/m*3 -1 C 0 km/h
1804 05-01-2009 00:58:34 -1.1 C 3.41 g/m*3 -1.1 C 0 km/h
1805 05-01-2009 01:10:35 -1.1 C 3.46 g/m*3 -1.1 C 0 km/h
1806 05-01-2009 01:22:34 -1.1 C 3.46 g/m*3 -1.1 C 0 km/h
1807 05-01-2009 01:34:34 -1.2 C 3.48 g/m*3 -1.2 C 0 km/h
1808 05-01-2009 01:46:33 -1.2 C 3.52 g/m*3 -1.2 C 0 km/h
1809 05-01-2009 01:58:33 -1.3 C 3.54 g/m*3 -1.3 C 0 km/h
1810 05-01-2009 02:10:34 -1.3 C 3.54 g/m*3 -1.3 C 0 km/h
1811 05-01-2009 02:22:33 -1.2 C 3.57 g/m*3 -1.2 C 0 km/h
1812 05-01-2009 02:34:33 -1.3 C 3.54 g/m*3 -1.3 C 0 km/h
1813 05-01-2009 02:47:34 -1.2 C 3.57 g/m*3 -1.2 C 0 km/h
1814 05-01-2009 02:59:34 -1.2 C 3.52 g/m*3 -1.2 C 0 km/h
1815 05-01-2009 03:11:34 -1.2 C 3.57 g/m*3 -1.2 C 0 km/h
1816 05-01-2009 03:23:34 -1.3 C 3.63 g/m*3 -1.3 C 0 km/h
1817 05-01-2009 03:35:34 -1.3 C 3.63 g/m*3 -1.3 C 0 km/h
1818 05-01-2009 03:47:34 -1.4 C 3.65 g/m*3 -1.4 C 0 km/h
1819 05-01-2009 03:59:34 -1.5 C 3.67 g/m*3 -1.5 C 0 km/h
1820 05-01-2009 04:11:34 -1.5 C 3.67 g/m*3 -1.5 C 0 km/h
1821 05-01-2009 04:23:33 -1.6 C 3.68 g/m*3 -1.6 C 0 km/h
1822 05-01-2009 04:35:34 -1.6 C 3.68 g/m*3 -1.6 C 0 km/h
1823 05-01-2009 04:47:34 -1.6 C 3.73 g/m*3 -1.6 C 0 km/h
1824 05-01-2009 04:59:34 -1.6 C 3.73 g/m*3 -1.6 C 0 km/h
1825 05-01-2009 05:11:33 -1.6 C 3.73 g/m*3 -1.6 C 0 km/h
Sensor: Nr:Datum:Temp:Abs-Feuchte:Windchill:Wind:
Aussen-T/F 1826 05-01-2009 05:23:33 -1.6 C 3.73 g/m*3 -1.6 C 0 km/h
1827 05-01-2009 05:35:34 -1.6 C 3.77 g/m*3 -1.6 C 0 km/h
1828 05-01-2009 05:47:33 -1.7 C 3.75 g/m*3 -1.7 C 0 km/h
1829 05-01-2009 05:59:33 -1.7 C 3.75 g/m*3 -1.7 C 0 km/h
1830 05-01-2009 06:11:33 -1.7 C 3.75 g/m*3 -1.7 C 0 km/h
1831 05-01-2009 06:23:33 -1.6 C 3.77 g/m*3 -1.6 C 0 km/h
1832 05-01-2009 06:35:32 -1.7 C 3.75 g/m*3 -1.7 C 0 km/h
1833 05-01-2009 06:47:33 -1.6 C 3.77 g/m*3 -1.6 C 0 km/h
1834 05-01-2009 06:59:34 -1.6 C 3.77 g/m*3 -1.6 C 0 km/h
1835 05-01-2009 07:11:32 -1.7 C 3.75 g/m*3 -1.7 C 0 km/h
1836 05-01-2009 07:23:32 -1.6 C 3.77 g/m*3 -1.6 C 0 km/h
1837 05-01-2009 07:35:32 -1.7 C 3.75 g/m*3 -1.7 C 0 km/h
1838 05-01-2009 07:47:32 -1.7 C 3.75 g/m*3 -1.7 C 0 km/h
1839 05-01-2009 07:59:32 -1.7 C 3.79 g/m*3 -1.7 C 0 km/h
1840 05-01-2009 08:11:32 -1.7 C 3.79 g/m*3 -1.7 C 0 km/h
1841 05-01-2009 08:23:31 -1.7 C 3.79 g/m*3 -1.7 C 0 km/h
1842 05-01-2009 08:35:32 -1.7 C 3.75 g/m*3 -1.7 C 0 km/h
1843 05-01-2009 08:47:31 -1.7 C 3.79 g/m*3 -1.7 C 0 km/h
1844 05-01-2009 08:59:31 -1.7 C 3.79 g/m*3 -1.7 C 0 km/h
1845 05-01-2009 09:11:32 -1.6 C 3.81 g/m*3 -1.6 C 0 km/h
1846 05-01-2009 09:23:31 -1.6 C 3.81 g/m*3 -1.6 C 0 km/h
1847 05-01-2009 09:35:31 -1.5 C 3.84 g/m*3 -1.5 C 0 km/h
1848 05-01-2009 09:47:31 -1.4 C 3.87 g/m*3 -1.4 C 0 km/h
1849 05-01-2009 09:59:31 -1.3 C 3.85 g/m*3 -1.3 C 0 km/h
1850 05-01-2009 10:11:31 -1.2 C 3.83 g/m*3 -1.2 C 0 km/h
Sensor: Nr:Datum:Temp:Abs-Feuchte:Windchill:Wind:
Aussen-T/F 1851 05-01-2009 10:23:30 -1 C 3.89 g/m*3 -1 C 0 km/h
1852 05-01-2009 10:35:31 -1 C 3.84 g/m*3 -1 C 0 km/h
1853 05-01-2009 10:47:30 -1 C 3.8 g/m*3 -1 C 0 km/h
1854 05-01-2009 10:59:30 -0.9 C 3.78 g/m*3 -0.9 C 0 km/h
1855 05-01-2009 11:11:30 -0.8 C 3.8 g/m*3 -0.8 C 0 km/h
1856 05-01-2009 11:23:30 -0.9 C 3.73 g/m*3 -0.9 C 0 km/h
1857 05-01-2009 11:35:30 -0.9 C 3.69 g/m*3 -0.9 C 0 km/h
1858 05-01-2009 11:47:29 -0.6 C 3.76 g/m*3 -0.6 C 0 km/h
1859 05-01-2009 11:59:29 -0.3 C 3.84 g/m*3 -0.3 C 0 km/h
1860 05-01-2009 12:11:29 -0.3 C 3.8 g/m*3 -0.3 C 0 km/h
1861 05-01-2009 12:23:30 -0.2 C 3.82 g/m*3 -0.2 C 0 km/h
1862 05-01-2009 12:35:29 -0.1 C 3.85 g/m*3 -0.1 C 0 km/h
1863 05-01-2009 12:47:29 0.2 C 3.93 g/m*3 0.2 C 0 km/h
1864 05-01-2009 12:59:29 0.3 C 3.96 g/m*3 0.3 C 0 km/h
1865 05-01-2009 13:11:29 0.4 C 3.98 g/m*3 0.4 C 0 km/h
1866 05-01-2009 13:23:29 0.5 C 4.01 g/m*3 0.5 C 0 km/h
1867 05-01-2009 13:35:28 0.3 C 3.91 g/m*3 0.3 C 0 km/h
1868 05-01-2009 13:47:29 0.1 C 3.66 g/m*3 0.1 C 0 km/h
1869 05-01-2009 13:59:30 0 C 3.44 g/m*3 0 C 0 km/h
1870 05-01-2009 14:11:28 0 C 3.39 g/m*3 0 C 0 km/h
1871 05-01-2009 14:23:28 0.1 C 3.32 g/m*3 0.1 C 0 km/h
1872 05-01-2009 14:35:28 0.1 C 3.22 g/m*3 0.1 C 0 km/h
1873 05-01-2009 14:47:28 0.2 C 3.19 g/m*3 0.2 C 0 km/h
1874 05-01-2009 14:59:28 0.2 C 3.19 g/m*3 0.2 C 0 km/h
1875 05-01-2009 15:11:28 0.1 C 3.07 g/m*3 0.1 C 0 km/h
Sensor: Nr:Datum:Temp:Abs-Feuchte:Windchill:Wind:
Aussen-T/F 1876 05-01-2009 15:23:27 -0.1 C 2.94 g/m*3 -0.1 C 0 km/h
1877 05-01-2009 15:35:28 -0.2 C 2.91 g/m*3 -0.2 C 0 km/h
1878 05-01-2009 15:47:27 -0.3 C 2.94 g/m*3 -0.3 C 0 km/h
1879 05-01-2009 15:59:27 -0.5 C 2.95 g/m*3 -0.5 C 0 km/h
1880 05-01-2009 16:11:27 -0.8 C 2.75 g/m*3 -0.8 C 0 km/h
1881 05-01-2009 16:23:27 -1 C 2.76 g/m*3 -1 C 0 km/h
1882 05-01-2009 16:35:27 -1.2 C 2.76 g/m*3 -1.2 C 0 km/h
1883 05-01-2009 16:47:26 -1.3 C 2.79 g/m*3 -1.3 C 0 km/h
1884 05-01-2009 16:59:26 -1.3 C 2.83 g/m*3 -1.3 C 0 km/h
1885 05-01-2009 17:11:27 -1.2 C 2.9 g/m*3 -1.2 C 0 km/h
1886 05-01-2009 17:23:27 -1.2 C 2.9 g/m*3 -1.2 C 0 km/h
1887 05-01-2009 17:35:26 -1.2 C 2.85 g/m*3 -1.2 C 0 km/h
1888 05-01-2009 17:47:27 -1.3 C 2.83 g/m*3 -1.3 C 0 km/h
1889 05-01-2009 17:59:27 -1.3 C 2.79 g/m*3 -1.3 C 0 km/h
1890 05-01-2009 18:11:26 -1.4 C 2.77 g/m*3 -1.4 C 0 km/h
1891 05-01-2009 18:23:26 -1.5 C 2.75 g/m*3 -1.5 C 0 km/h
1892 05-01-2009 18:35:25 -1.5 C 2.71 g/m*3 -1.5 C 0 km/h
1893 05-01-2009 18:47:26 -1.5 C 2.66 g/m*3 -1.5 C 0 km/h
1894 05-01-2009 18:59:26 -1.5 C 2.58 g/m*3 -1.5 C 0 km/h
1895 05-01-2009 19:11:25 -1.5 C 2.49 g/m*3 -1.5 C 0 km/h
1896 05-01-2009 19:23:25 -1.6 C 2.47 g/m*3 -1.6 C 0 km/h
1897 05-01-2009 19:35:26 -1.5 C 2.44 g/m*3 -1.5 C 0 km/h
1898 05-01-2009 19:47:25 -1.5 C 2.44 g/m*3 -1.5 C 0 km/h
1899 05-01-2009 19:59:25 -1.6 C 2.47 g/m*3 -1.6 C 0 km/h
1900 05-01-2009 20:11:25 -1.6 C 2.51 g/m*3 -1.6 C 0 km/h
Sensor: Nr:Datum:Temp:Abs-Feuchte:Windchill:Wind:
Aussen-T/F 1901 05-01-2009 20:23:25 -1.7 C 2.54 g/m*3 -1.7 C 0 km/h
1902 05-01-2009 20:35:25 -1.7 C 2.54 g/m*3 -1.7 C 0 km/h
1903 05-01-2009 20:47:24 -1.7 C 2.45 g/m*3 -1.7 C 0 km/h
1904 05-01-2009 20:59:24 -1.8 C 2.44 g/m*3 -1.8 C 0 km/h
1905 05-01-2009 21:11:24 -1.9 C 2.46 g/m*3 -1.9 C 0 km/h
1906 05-01-2009 21:23:24 -1.9 C 2.5 g/m*3 -1.9 C 0 km/h
1907 05-01-2009 21:35:24 -2 C 2.49 g/m*3 -2 C 0 km/h
1908 05-01-2009 21:47:24 -2.1 C 2.43 g/m*3 -2.1 C 0 km/h
1909 05-01-2009 21:59:24 -2.1 C 2.43 g/m*3 -2.1 C 0 km/h
1910 05-01-2009 22:11:24 -2.2 C 2.41 g/m*3 -2.2 C 0 km/h
1911 05-01-2009 22:24:25 -2.3 C 2.39 g/m*3 -2.3 C 0 km/h
1912 05-01-2009 22:36:25 -2.3 C 2.39 g/m*3 -2.3 C 0 km/h
1913 05-01-2009 22:48:25 -2.4 C 2.34 g/m*3 -2.4 C 0 km/h
1914 05-01-2009 23:00:25 -2.5 C 2.32 g/m*3 -2.5 C 0 km/h
1915 05-01-2009 23:12:25 -2.5 C 2.36 g/m*3 -2.5 C 0 km/h
1916 05-01-2009 23:24:25 -2.6 C 2.34 g/m*3 -2.6 C 0 km/h
1917 05-01-2009 23:36:25 -2.6 C 2.34 g/m*3 -2.6 C 0 km/h
1918 05-01-2009 23:48:26 -2.7 C 2.33 g/m*3 -2.7 C 0 km/h
1919 06-01-2009 00:00:26 -2.8 C 2.31 g/m*3 -2.8 C 0 km/h
1920 06-01-2009 00:12:26 -2.8 C 2.39 g/m*3 -2.8 C 0 km/h
1921 06-01-2009 00:24:26 -2.9 C 2.33 g/m*3 -2.9 C 0 km/h
1922 06-01-2009 00:36:26 -3 C 2.32 g/m*3 -3 C 0 km/h
1923 06-01-2009 00:48:26 -3.3 C 2.23 g/m*3 -3.3 C 0 km/h
1924 06-01-2009 01:00:26 -3.6 C 2.18 g/m*3 -3.6 C 0 km/h
1925 06-01-2009 01:12:26 -4.1 C 2.11 g/m*3 -4.1 C 0 km/h
Sensor: Nr:Datum:Temp:Abs-Feuchte:Windchill:Wind:
Aussen-T/F 1926 06-01-2009 01:24:26 -4.5 C 2.05 g/m*3 -4.5 C 0 km/h
1927 06-01-2009 01:36:26 -4.9 C 2.02 g/m*3 -4.9 C 0 km/h
1928 06-01-2009 01:48:26 -4.8 C 2.07 g/m*3 -4.8 C 0 km/h
1929 06-01-2009 02:00:26 -4.7 C 1.84 g/m*3 -4.7 C 0 km/h
1930 06-01-2009 02:12:26 -4.6 C 1.72 g/m*3 -4.6 C 0 km/h
1931 06-01-2009 02:24:26 -4.7 C 1.57 g/m*3 -4.7 C 0 km/h
1932 06-01-2009 02:36:26 -4.8 C 1.42 g/m*3 -4.8 C 0 km/h
1933 06-01-2009 02:48:26 -5 C 1.29 g/m*3 -5 C 0 km/h
1934 06-01-2009 03:00:26 -5.1 C 1.32 g/m*3 -5.1 C 0 km/h
1935 06-01-2009 03:12:26 -5.2 C 1.28 g/m*3 -5.2 C 0 km/h
1936 06-01-2009 03:24:26 -5.2 C 1.28 g/m*3 -5.2 C 0 km/h
1937 06-01-2009 03:36:26 -5.3 C 1.23 g/m*3 -5.3 C 0 km/h
1938 06-01-2009 03:48:26 -5.6 C 1.21 g/m*3 -5.6 C 0 km/h
1939 06-01-2009 04:00:27 -6 C 1.27 g/m*3 -6 C 0 km/h
1940 06-01-2009 04:12:27 -6.3 C 1.21 g/m*3 -6.3 C 0 km/h
1941 06-01-2009 04:24:27 -6.5 C 1.16 g/m*3 -6.5 C 0 km/h
1942 06-01-2009 04:36:27 -6.5 C 1.1 g/m*3 -6.5 C 0 km/h
1943 06-01-2009 04:48:27 -6.4 C 1.11 g/m*3 -6.4 C 0 km/h
1944 06-01-2009 05:00:27 -6.7 C 1.02 g/m*3 -6.7 C 0 km/h
1945 06-01-2009 05:12:27 -6.6 C 1.06 g/m*3 -6.6 C 0 km/h
1946 06-01-2009 05:24:27 -6.3 C 1.12 g/m*3 -6.3 C 0 km/h
1947 06-01-2009 05:36:27 -6.2 C 1.09 g/m*3 -6.2 C 0 km/h
1948 06-01-2009 05:48:27 -6 C 1.14 g/m*3 -6 C 0 km/h
1949 06-01-2009 06:00:27 -6 C 1.14 g/m*3 -6 C 0 km/h
1950 06-01-2009 06:12:27 -6 C 1.08 g/m*3 -6 C 0 km/h
Sensor: Nr:Datum:Temp:Abs-Feuchte:Windchill:Wind:
Aussen-T/F 1951 06-01-2009 06:24:27 -6 C 0.98 g/m*3 -6 C 0 km/h
1952 06-01-2009 06:36:27 -6.1 C 0.85 g/m*3 -6.1 C 0 km/h
1953 06-01-2009 06:48:25 -6.2 C 0.87 g/m*3 -6.2 C 0 km/h
1954 06-01-2009 07:00:25 -6.2 C 0.97 g/m*3 -6.2 C 0 km/h
1955 06-01-2009 07:12:25 -6.3 C 0.9 g/m*3 -6.3 C 0 km/h
1956 06-01-2009 07:24:25 -6.2 C 0.97 g/m*3 -6.2 C 0 km/h
1957 06-01-2009 07:36:24 -6.3 C 0.87 g/m*3 -6.3 C 0 km/h
1958 06-01-2009 07:48:25 -6.5 C 0.76 g/m*3 -6.5 C 0 km/h
1959 06-01-2009 08:00:24 -6.5 C 0.89 g/m*3 -6.5 C 0 km/h
1960 06-01-2009 08:12:24 -6.4 C 0.92 g/m*3 -6.4 C 0 km/h
1961 06-01-2009 08:24:24 -6.4 C 0.77 g/m*3 -6.4 C 0 km/h
1962 06-01-2009 08:36:24 -6.4 C 0.86 g/m*3 -6.4 C 0 km/h
1963 06-01-2009 08:48:24 -6.7 C 0.9 g/m*3 -6.7 C 0 km/h
1964 06-01-2009 09:00:24 -6.7 C 0.9 g/m*3 -6.7 C 0 km/h
1965 06-01-2009 09:12:24 -6.7 C 0.96 g/m*3 -6.7 C 0 km/h
1966 06-01-2009 09:24:24 -6.4 C 1.08 g/m*3 -6.4 C 0 km/h
1967 06-01-2009 09:36:24 -6.2 C 0.97 g/m*3 -6.2 C 0 km/h
1968 06-01-2009 09:48:23 -6 C 0.95 g/m*3 -6 C 0 km/h
1969 06-01-2009 10:00:23 -5.8 C 0.93 g/m*3 -5.8 C 0 km/h
1970 06-01-2009 10:12:23 -5.7 C 0.81 g/m*3 -5.7 C 0 km/h
1971 06-01-2009 10:24:23 -5.7 C 0.65 g/m*3 -5.7 C 0 km/h
1972 06-01-2009 10:36:23 -5.6 C 0.68 g/m*3 -5.6 C 0 km/h
1973 06-01-2009 10:48:22 -5.6 C 0.65 g/m*3 -5.6 C 0 km/h
1974 06-01-2009 11:00:23 -5.6 C 0.65 g/m*3 -5.6 C 0 km/h
1975 06-01-2009 11:12:23 -5.6 C 0.65 g/m*3 -5.6 C 0 km/h
Sensor: Nr:Datum:Temp:Abs-Feuchte:Windchill:Wind:
Aussen-T/F 1976 06-01-2009 11:24:22 -5.6 C 0.68 g/m*3 -5.6 C 0 km/h
1977 06-01-2009 11:36:22 -5.6 C 0.68 g/m*3 -5.6 C 0 km/h
1978 06-01-2009 11:48:22 -5.6 C 1.04 g/m*3 -5.6 C 0 km/h
1979 06-01-2009 12:00:22 -5.5 C 1.15 g/m*3 -5.5 C 0 km/h
1980 06-01-2009 12:12:22 -5.3 C 1.17 g/m*3 -5.3 C 0 km/h
1981 06-01-2009 12:24:22 -5 C 1.19 g/m*3 -5 C 0 km/h
1982 06-01-2009 12:36:21 -4.6 C 1.23 g/m*3 -4.6 C 0 km/h
1983 06-01-2009 12:48:22 -4.1 C 1.23 g/m*3 -4.1 C 0 km/h
1984 06-01-2009 13:00:21 -4 C 1.21 g/m*3 -4 C 0 km/h
1985 06-01-2009 13:12:21 -3.9 C 1.18 g/m*3 -3.9 C 0 km/h
1986 06-01-2009 13:24:21 -3.7 C 1.16 g/m*3 -3.7 C 0 km/h
1987 06-01-2009 13:36:22 -3.9 C 1.07 g/m*3 -3.9 C 0 km/h
1988 06-01-2009 13:48:21 -4.6 C 1.05 g/m*3 -4.6 C 0 km/h
1989 06-01-2009 14:00:21 -5.2 C 1.04 g/m*3 -5.2 C 0 km/h
1990 06-01-2009 14:12:21 -5.4 C 1.16 g/m*3 -5.4 C 0 km/h
1991 06-01-2009 14:24:21 -5.6 C 1.24 g/m*3 -5.6 C 0 km/h
1992 06-01-2009 14:36:21 -5.7 C 1.04 g/m*3 -5.7 C 0 km/h
1993 06-01-2009 14:48:20 -6 C 1.14 g/m*3 -6 C 0 km/h
1994 06-01-2009 15:00:21 -6.2 C 1.25 g/m*3 -6.2 C 0 km/h
1995 06-01-2009 15:12:22 -6.3 C 1.33 g/m*3 -6.3 C 0 km/h
1996 06-01-2009 15:24:20 -6.4 C 1.32 g/m*3 -6.4 C 0 km/h
1997 06-01-2009 15:36:20 -6.7 C 1.35 g/m*3 -6.7 C 0 km/h
1998 06-01-2009 15:48:19 -6.8 C 1.28 g/m*3 -6.8 C 0 km/h
1999 06-01-2009 16:00:20 -7 C 1.32 g/m*3 -7 C 0 km/h
2000 06-01-2009 16:12:20 -7.2 C 1.31 g/m*3 -7.2 C 0 km/h
Sensor: Nr:Datum:Temp:Abs-Feuchte:Windchill:Wind:
Aussen-T/F 2001 06-01-2009 16:24:20 -7.3 C 1.3 g/m*3 -7.3 C 0 km/h
2002 06-01-2009 16:36:19 -7.4 C 1.29 g/m*3 -7.4 C 0 km/h
2003 06-01-2009 16:48:20 -7.8 C 1.28 g/m*3 -7.8 C 0 km/h
2004 06-01-2009 17:00:19 -7.9 C 1.32 g/m*3 -7.9 C 0 km/h
2005 06-01-2009 17:12:19 -8 C 1.34 g/m*3 -8 C 0 km/h
2006 06-01-2009 17:24:19 -8.2 C 1.35 g/m*3 -8.2 C 0 km/h
2007 06-01-2009 17:36:19 -8.4 C 1.35 g/m*3 -8.4 C 0 km/h
2008 06-01-2009 17:48:19 -8.6 C 1.36 g/m*3 -8.6 C 0 km/h
2009 06-01-2009 18:00:19 -8.9 C 1.33 g/m*3 -8.9 C 0 km/h
2010 06-01-2009 18:12:19 -9.1 C 1.34 g/m*3 -9.1 C 0 km/h
2011 06-01-2009 18:24:18 -9.2 C 1.38 g/m*3 -9.2 C 0 km/h
2012 06-01-2009 18:36:18 -9.4 C 1.36 g/m*3 -9.4 C 0 km/h
2013 06-01-2009 18:48:18 -9.5 C 1.37 g/m*3 -9.5 C 0 km/h
2014 06-01-2009 19:00:18 -9.2 C 1.4 g/m*3 -9.2 C 0 km/h
2015 06-01-2009 19:12:18 -9.2 C 1.35 g/m*3 -9.2 C 0 km/h
2016 06-01-2009 19:24:18 -9.5 C 1.32 g/m*3 -9.5 C 0 km/h
2017 06-01-2009 19:36:18 -9.9 C 1.28 g/m*3 -9.9 C 0 km/h
2018 06-01-2009 19:48:18 -9.9 C 1.33 g/m*3 -9.9 C 0 km/h
2019 06-01-2009 20:00:17 -10.2 C 1.3 g/m*3 -10.2 C 0 km/h
2020 06-01-2009 20:12:17 -10.4 C 1.3 g/m*3 -10.4 C 0 km/h
2021 06-01-2009 20:24:18 -10.7 C 1.27 g/m*3 -10.7 C 0 km/h
2022 06-01-2009 20:36:17 -10.8 C 1.29 g/m*3 -10.8 C 0 km/h
2023 06-01-2009 20:48:17 -10.9 C 1.28 g/m*3 -10.9 C 0 km/h
2024 06-01-2009 21:00:17 -11 C 1.29 g/m*3 -11 C 0 km/h
2025 06-01-2009 21:12:17 -11.1 C 1.3 g/m*3 -11.1 C 0 km/h
Sensor: Nr:Datum:Temp:Abs-Feuchte:Windchill:Wind:
Aussen-T/F 2026 06-01-2009 21:24:16 -10.9 C 1.32 g/m*3 -10.9 C 0 km/h
2027 06-01-2009 21:36:17 -10.9 C 1.32 g/m*3 -10.9 C 0 km/h
2028 06-01-2009 21:48:16 -10.8 C 1.35 g/m*3 -10.8 C 0 km/h
2029 06-01-2009 22:00:16 -11 C 1.31 g/m*3 -11 C 0 km/h
2030 06-01-2009 22:12:16 -11.3 C 1.28 g/m*3 -11.3 C 0 km/h
2031 06-01-2009 22:24:17 -11.5 C 1.28 g/m*3 -11.5 C 0 km/h
2032 06-01-2009 22:36:16 -11.7 C 1.28 g/m*3 -11.7 C 0 km/h
2033 06-01-2009 22:48:16 -12 C 1.25 g/m*3 -12 C 0 km/h
2034 06-01-2009 23:00:16 -12 C 1.27 g/m*3 -12 C 0 km/h
2035 06-01-2009 23:12:16 -12.1 C 1.28 g/m*3 -12.1 C 0 km/h
2036 06-01-2009 23:24:16 -12.3 C 1.27 g/m*3 -12.3 C 0 km/h
2037 06-01-2009 23:36:15 -12.6 C 1.24 g/m*3 -12.6 C 0 km/h
2038 06-01-2009 23:48:15 -12.7 C 1.25 g/m*3 -12.7 C 0 km/h
2039 07-01-2009 00:00:16 -12.8 C 1.26 g/m*3 -12.8 C 0 km/h
2040 07-01-2009 00:12:16 -12.9 C 1.25 g/m*3 -12.9 C 0 km/h
2041 07-01-2009 00:24:15 -13 C 1.24 g/m*3 -13 C 0 km/h
2042 07-01-2009 00:36:15 -13.3 C 1.21 g/m*3 -13.3 C 0 km/h
2043 07-01-2009 00:48:15 -13.2 C 1.22 g/m*3 -13.2 C 0 km/h
2044 07-01-2009 01:00:14 -13.4 C 1.22 g/m*3 -13.4 C 0 km/h
2045 07-01-2009 01:12:14 -13.6 C 1.18 g/m*3 -13.6 C 0 km/h
2046 07-01-2009 01:24:15 -13.7 C 1.17 g/m*3 -13.7 C 0 km/h
2047 07-01-2009 01:36:15 -13.7 C 1.19 g/m*3 -13.7 C 0 km/h
2048 07-01-2009 01:48:14 -13.8 C 1.18 g/m*3 -13.8 C 0 km/h
2049 07-01-2009 02:00:15 -13.9 C 1.17 g/m*3 -13.9 C 0 km/h
2050 07-01-2009 02:12:15 -13.9 C 1.17 g/m*3 -13.9 C 0 km/h
Sensor: Nr:Datum:Temp:Abs-Feuchte:Windchill:Wind:
Aussen-T/F 2051 07-01-2009 02:24:14 -14.1 C 1.15 g/m*3 -14.1 C 0 km/h
2052 07-01-2009 02:36:14 -14.3 C 1.13 g/m*3 -14.3 C 0 km/h
2053 07-01-2009 02:49:15 -14.3 C 1.13 g/m*3 -14.3 C 0 km/h
2054 07-01-2009 03:01:15 -14.2 C 1.14 g/m*3 -14.2 C 0 km/h
2055 07-01-2009 03:13:15 -14.6 C 1.11 g/m*3 -14.6 C 0 km/h
2056 07-01-2009 03:25:15 -14.6 C 1.11 g/m*3 -14.6 C 0 km/h
2057 07-01-2009 03:37:15 -14.7 C 1.1 g/m*3 -14.7 C 0 km/h
2058 07-01-2009 03:49:15 -14.8 C 1.09 g/m*3 -14.8 C 0 km/h
2059 07-01-2009 04:01:15 -15 C 1.06 g/m*3 -15 C 0 km/h
2060 07-01-2009 04:13:15 -15 C 1.07 g/m*3 -15 C 0 km/h
2061 07-01-2009 04:25:14 -15.2 C 1.04 g/m*3 -15.2 C 0 km/h
2062 07-01-2009 04:37:14 -15.4 C 1.02 g/m*3 -15.4 C 0 km/h
2063 07-01-2009 04:49:14 -15.4 C 1.02 g/m*3 -15.4 C 0 km/h
2064 07-01-2009 05:01:14 -15.4 C 1.02 g/m*3 -15.4 C 0 km/h
2065 07-01-2009 05:13:14 -15.6 C 1.01 g/m*3 -15.6 C 0 km/h
2066 07-01-2009 05:25:13 -15.7 C 0.99 g/m*3 -15.7 C 0 km/h
2067 07-01-2009 05:37:14 -15.7 C 1 g/m*3 -15.7 C 0 km/h
2068 07-01-2009 05:49:13 -15.7 C 1 g/m*3 -15.7 C 0 km/h
2069 07-01-2009 06:01:14 -15.9 C 0.97 g/m*3 -15.9 C 0 km/h
2070 07-01-2009 06:13:14 -15.9 C 0.97 g/m*3 -15.9 C 0 km/h
2071 07-01-2009 06:25:13 -16 C 0.96 g/m*3 -16 C 0 km/h
2072 07-01-2009 06:37:13 -15.9 C 0.97 g/m*3 -15.9 C 0 km/h
2073 07-01-2009 06:49:13 -15.7 C 0.99 g/m*3 -15.7 C 0 km/h
2074 07-01-2009 07:01:13 -15.4 C 1.01 g/m*3 -15.4 C 0 km/h
2075 07-01-2009 07:13:13 -15.4 C 1.01 g/m*3 -15.4 C 0 km/h
Sensor: Nr:Datum:Temp:Abs-Feuchte:Windchill:Wind:
Aussen-T/F 2076 07-01-2009 07:25:12 -15.5 C 0.99 g/m*3 -15.5 C 0 km/h
2077 07-01-2009 07:37:12 -15.5 C 0.99 g/m*3 -15.5 C 0 km/h
2078 07-01-2009 07:49:13 -15.4 C 0.99 g/m*3 -15.4 C 0 km/h
2079 07-01-2009 08:01:12 -15.5 C 0.97 g/m*3 -15.5 C 0 km/h
2080 07-01-2009 08:13:12 -15.6 C 0.96 g/m*3 -15.6 C 0 km/h
2081 07-01-2009 08:25:12 -15.7 C 0.96 g/m*3 -15.7 C 0 km/h
2082 07-01-2009 08:37:12 -16 C 0.92 g/m*3 -16 C 0 km/h
2083 07-01-2009 08:49:12 -16.1 C 0.91 g/m*3 -16.1 C 0 km/h
2084 07-01-2009 09:01:11 -15.9 C 0.93 g/m*3 -15.9 C 0 km/h
2085 07-01-2009 09:13:11 -15.8 C 0.95 g/m*3 -15.8 C 0 km/h
2086 07-01-2009 09:25:12 -15.7 C 0.96 g/m*3 -15.7 C 0 km/h
2087 07-01-2009 09:37:11 -15.6 C 0.96 g/m*3 -15.6 C 0 km/h
2088 07-01-2009 09:49:11 -15 C 1.01 g/m*3 -15 C 0 km/h
2089 07-01-2009 10:01:12 -14.1 C 1.08 g/m*3 -14.1 C 0 km/h
2090 07-01-2009 10:13:12 -13.9 C 1.08 g/m*3 -13.9 C 0 km/h
2091 07-01-2009 10:25:11 -12.9 C 1.13 g/m*3 -12.9 C 0 km/h
2092 07-01-2009 10:37:11 -12.8 C 1.1 g/m*3 -12.8 C 0 km/h
2093 07-01-2009 10:49:11 -12.6 C 1.1 g/m*3 -12.6 C 0 km/h
2094 07-01-2009 11:01:11 -12.2 C 1.14 g/m*3 -12.2 C 0 km/h
2095 07-01-2009 11:13:11 -11.7 C 1.18 g/m*3 -11.7 C 0 km/h
2096 07-01-2009 11:25:10 -11.6 C 1.17 g/m*3 -11.6 C 0 km/h
2097 07-01-2009 11:37:10 -11.6 C 1.17 g/m*3 -11.6 C 0 km/h
2098 07-01-2009 11:49:10 -10.8 C 1.24 g/m*3 -10.8 C 0 km/h
2099 07-01-2009 12:01:10 -10.4 C 1.28 g/m*3 -10.4 C 0 km/h
2100 07-01-2009 12:13:10 -9.9 C 1.31 g/m*3 -9.9 C 0 km/h
Sensor: Nr:Datum:Temp:Abs-Feuchte:Windchill:Wind:
Aussen-T/F 2101 07-01-2009 12:25:09 -9.5 C 1.32 g/m*3 -9.5 C 0 km/h
2102 07-01-2009 12:37:10 -9 C 1.37 g/m*3 -9 C 0 km/h
2103 07-01-2009 12:49:10 -8.7 C 1.38 g/m*3 -8.7 C 0 km/h
2104 07-01-2009 13:01:09 -9 C 1.35 g/m*3 -9 C 0 km/h
2105 07-01-2009 13:13:09 -9 C 1.35 g/m*3 -9 C 0 km/h
2106 07-01-2009 13:25:10 -8.7 C 1.43 g/m*3 -8.7 C 0 km/h
2107 07-01-2009 13:37:09 -8.6 C 1.46 g/m*3 -8.6 C 0 km/h
2108 07-01-2009 13:49:09 -8.3 C 1.5 g/m*3 -8.3 C 0 km/h
2109 07-01-2009 14:01:09 -8.2 C 1.54 g/m*3 -8.2 C 0 km/h
2110 07-01-2009 14:13:09 -8.3 C 1.52 g/m*3 -8.3 C 0 km/h
2111 07-01-2009 14:25:09 -8.2 C 1.56 g/m*3 -8.2 C 0 km/h
2112 07-01-2009 14:37:08 -8.1 C 1.6 g/m*3 -8.1 C 0 km/h
2113 07-01-2009 14:49:09 -7.8 C 1.64 g/m*3 -7.8 C 0 km/h
2114 07-01-2009 15:01:08 -7.7 C 1.65 g/m*3 -7.7 C 0 km/h
2115 07-01-2009 15:13:08 -7.6 C 1.63 g/m*3 -7.6 C 0 km/h
2116 07-01-2009 15:25:08 -7.5 C 1.65 g/m*3 -7.5 C 0 km/h
2117 07-01-2009 15:37:08 -7.5 C 1.67 g/m*3 -7.5 C 0 km/h
2118 07-01-2009 15:49:08 -7.6 C 1.66 g/m*3 -7.6 C 0 km/h
2119 07-01-2009 16:01:07 -7.6 C 1.69 g/m*3 -7.6 C 0 km/h
2120 07-01-2009 16:13:07 -7.5 C 1.7 g/m*3 -7.5 C 0 km/h
2121 07-01-2009 16:25:08 -7.5 C 1.73 g/m*3 -7.5 C 0 km/h
2122 07-01-2009 16:37:08 -7.6 C 1.72 g/m*3 -7.6 C 0 km/h
2123 07-01-2009 16:49:07 -7.6 C 1.75 g/m*3 -7.6 C 0 km/h
2124 07-01-2009 17:01:08 -7.7 C 1.73 g/m*3 -7.7 C 0 km/h
2125 07-01-2009 17:13:08 -7.6 C 1.8 g/m*3 -7.6 C 0 km/h
Sensor: Nr:Datum:Temp:Abs-Feuchte:Windchill:Wind:
Aussen-T/F 2126 07-01-2009 17:25:07 -7.5 C 1.82 g/m*3 -7.5 C 0 km/h
2127 07-01-2009 17:37:07 -7.6 C 1.8 g/m*3 -7.6 C 0 km/h
2128 07-01-2009 17:49:07 -7.6 C 1.8 g/m*3 -7.6 C 0 km/h
2129 07-01-2009 18:01:07 -7.5 C 1.82 g/m*3 -7.5 C 0 km/h
2130 07-01-2009 18:13:08 -7.4 C 1.8 g/m*3 -7.4 C 0 km/h
2131 07-01-2009 18:25:06 -7.3 C 1.84 g/m*3 -7.3 C 0 km/h
2132 07-01-2009 18:37:06 -7.3 C 1.84 g/m*3 -7.3 C 0 km/h
2133 07-01-2009 18:49:06 -7.2 C 1.86 g/m*3 -7.2 C 0 km/h
2134 07-01-2009 19:01:06 -7.1 C 1.87 g/m*3 -7.1 C 0 km/h
2135 07-01-2009 19:13:06 -7.1 C 1.87 g/m*3 -7.1 C 0 km/h
2136 07-01-2009 19:25:06 -7 C 1.88 g/m*3 -7 C 0 km/h
2137 07-01-2009 19:37:06 -7.2 C 1.86 g/m*3 -7.2 C 0 km/h
2138 07-01-2009 19:49:06 -7.3 C 1.87 g/m*3 -7.3 C 0 km/h
2139 07-01-2009 20:01:05 -7.3 C 1.87 g/m*3 -7.3 C 0 km/h
2140 07-01-2009 20:13:05 -7.4 C 1.89 g/m*3 -7.4 C 0 km/h
2141 07-01-2009 20:25:06 -7.5 C 1.87 g/m*3 -7.5 C 0 km/h
2142 07-01-2009 20:37:05 -7.4 C 1.92 g/m*3 -7.4 C 0 km/h
2143 07-01-2009 20:49:05 -7.2 C 1.97 g/m*3 -7.2 C 0 km/h
2144 07-01-2009 21:01:04 -6.9 C 2.05 g/m*3 -6.9 C 0 km/h
2145 07-01-2009 21:13:04 -6.8 C 2.06 g/m*3 -6.8 C 0 km/h
2146 07-01-2009 21:25:05 -6.6 C 2.09 g/m*3 -6.6 C 0 km/h
2147 07-01-2009 21:37:05 -6.5 C 2.14 g/m*3 -6.5 C 0 km/h
2148 07-01-2009 21:49:04 -6.5 C 2.14 g/m*3 -6.5 C 0 km/h
2149 07-01-2009 22:01:05 -6.4 C 2.15 g/m*3 -6.4 C 0 km/h
2150 07-01-2009 22:13:05 -6.4 C 2.18 g/m*3 -6.4 C 0 km/h
Sensor: Nr:Datum:Temp:Abs-Feuchte:Windchill:Wind:
Aussen-T/F 2151 07-01-2009 22:26:09 -6.2 C 2.22 g/m*3 -6.2 C 0 km/h
2152 07-01-2009 22:38:09 -6.2 C 2.25 g/m*3 -6.2 C 0 km/h
2153 07-01-2009 22:50:09 -6.2 C 2.25 g/m*3 -6.2 C 0 km/h
2154 07-01-2009 23:02:09 -6.2 C 2.25 g/m*3 -6.2 C 0 km/h
2155 07-01-2009 23:14:09 -6.2 C 2.25 g/m*3 -6.2 C 0 km/h
2156 07-01-2009 23:26:09 -6.3 C 2.23 g/m*3 -6.3 C 0 km/h
2157 07-01-2009 23:38:09 -6.2 C 2.25 g/m*3 -6.2 C 0 km/h
2158 07-01-2009 23:50:09 -6.2 C 2.25 g/m*3 -6.2 C 0 km/h
2159 08-01-2009 00:02:09 -6.2 C 2.22 g/m*3 -6.2 C 0 km/h
2160 08-01-2009 00:14:09 -6.1 C 2.23 g/m*3 -6.1 C 0 km/h
2161 08-01-2009 00:26:09 -6.1 C 2.23 g/m*3 -6.1 C 0 km/h
2162 08-01-2009 00:38:09 -6.1 C 2.2 g/m*3 -6.1 C 0 km/h
2163 08-01-2009 00:50:09 -6.1 C 2.2 g/m*3 -6.1 C 0 km/h
2164 08-01-2009 01:02:09 -6.1 C 2.2 g/m*3 -6.1 C 0 km/h
2165 08-01-2009 01:14:09 -6 C 2.22 g/m*3 -6 C 0 km/h
2166 08-01-2009 01:26:09 -5.9 C 2.23 g/m*3 -5.9 C 0 km/h
2167 08-01-2009 01:38:10 -5.9 C 2.23 g/m*3 -5.9 C 0 km/h
2168 08-01-2009 01:50:10 -5.8 C 2.25 g/m*3 -5.8 C 0 km/h
2169 08-01-2009 02:02:10 -5.8 C 2.25 g/m*3 -5.8 C 0 km/h
2170 08-01-2009 02:14:10 -5.7 C 2.27 g/m*3 -5.7 C 0 km/h
2171 08-01-2009 02:26:10 -5.7 C 2.27 g/m*3 -5.7 C 0 km/h
2172 08-01-2009 02:38:10 -5.7 C 2.27 g/m*3 -5.7 C 0 km/h
2173 08-01-2009 02:50:10 -5.6 C 2.31 g/m*3 -5.6 C 0 km/h
2174 08-01-2009 03:02:10 -5.6 C 2.31 g/m*3 -5.6 C 0 km/h
2175 08-01-2009 03:14:10 -5.5 C 2.33 g/m*3 -5.5 C 0 km/h
Sensor: Nr:Datum:Temp:Abs-Feuchte:Windchill:Wind:
Aussen-T/F 2176 08-01-2009 03:26:10 -5.4 C 2.35 g/m*3 -5.4 C 0 km/h
2177 08-01-2009 03:38:10 -5.4 C 2.35 g/m*3 -5.4 C 0 km/h
2178 08-01-2009 03:50:10 -5.3 C 2.37 g/m*3 -5.3 C 0 km/h
2179 08-01-2009 04:02:10 -5.3 C 2.37 g/m*3 -5.3 C 0 km/h
2180 08-01-2009 04:14:10 -5.3 C 2.37 g/m*3 -5.3 C 0 km/h
2181 08-01-2009 04:26:10 -5.3 C 2.37 g/m*3 -5.3 C 0 km/h
2182 08-01-2009 04:38:10 -5.3 C 2.37 g/m*3 -5.3 C 0 km/h
2183 08-01-2009 04:50:10 -5.3 C 2.4 g/m*3 -5.3 C 0 km/h
2184 08-01-2009 05:02:10 -5.2 C 2.42 g/m*3 -5.2 C 0 km/h
2185 08-01-2009 05:14:10 -5.1 C 2.47 g/m*3 -5.1 C 0 km/h
2186 08-01-2009 05:26:11 -5 C 2.49 g/m*3 -5 C 0 km/h
2187 08-01-2009 05:38:11 -5 C 2.49 g/m*3 -5 C 0 km/h
2188 08-01-2009 05:50:11 -5 C 2.49 g/m*3 -5 C 0 km/h
2189 08-01-2009 06:02:11 -5 C 2.49 g/m*3 -5 C 0 km/h
2190 08-01-2009 06:14:11 -5 C 2.49 g/m*3 -5 C 0 km/h
2191 08-01-2009 06:26:11 -5 C 2.52 g/m*3 -5 C 0 km/h
2192 08-01-2009 06:38:11 -5 C 2.52 g/m*3 -5 C 0 km/h
2193 08-01-2009 06:50:11 -5 C 2.52 g/m*3 -5 C 0 km/h
2194 08-01-2009 07:02:06 -5 C 2.52 g/m*3 -5 C 0 km/h
2195 08-01-2009 07:14:05 -4.9 C 2.54 g/m*3 -4.9 C 0 km/h
2196 08-01-2009 07:26:05 -4.9 C 2.54 g/m*3 -4.9 C 0 km/h
2197 08-01-2009 07:38:05 -4.9 C 2.54 g/m*3 -4.9 C 0 km/h
2198 08-01-2009 07:50:05 -4.9 C 2.54 g/m*3 -4.9 C 0 km/h
2199 08-01-2009 08:02:05 -4.8 C 2.59 g/m*3 -4.8 C 0 km/h
2200 08-01-2009 08:14:04 -4.8 C 2.59 g/m*3 -4.8 C 0 km/h
Sensor: Nr:Datum:Temp:Abs-Feuchte:Windchill:Wind:
Aussen-T/F 2201 08-01-2009 08:26:04 -4.9 C 2.57 g/m*3 -4.9 C 0 km/h
2202 08-01-2009 08:38:04 -4.8 C 2.63 g/m*3 -4.8 C 0 km/h
2203 08-01-2009 08:50:04 -4.8 C 2.63 g/m*3 -4.8 C 0 km/h
2204 08-01-2009 09:02:04 -4.7 C 2.61 g/m*3 -4.7 C 0 km/h
2205 08-01-2009 09:14:04 -4.6 C 2.63 g/m*3 -4.6 C 0 km/h
2206 08-01-2009 09:26:04 -4.7 C 2.57 g/m*3 -4.7 C 0 km/h
2207 08-01-2009 09:38:04 -4.6 C 2.56 g/m*3 -4.6 C 0 km/h
2208 08-01-2009 09:50:04 -4.5 C 2.58 g/m*3 -4.5 C 0 km/h
2209 08-01-2009 10:02:03 -4.4 C 2.6 g/m*3 -4.4 C 0 km/h
2210 08-01-2009 10:14:04 -4.2 C 2.6 g/m*3 -4.2 C 0 km/h
2211 08-01-2009 10:26:04 -4 C 2.63 g/m*3 -4 C 0 km/h
2212 08-01-2009 10:38:03 -3.8 C 2.63 g/m*3 -3.8 C 0 km/h
2213 08-01-2009 10:50:03 -3.7 C 2.62 g/m*3 -3.7 C 0 km/h
2214 08-01-2009 11:02:03 -3.5 C 2.62 g/m*3 -3.5 C 0 km/h
2215 08-01-2009 11:14:03 -3.7 C 2.5 g/m*3 -3.7 C 0 km/h
2216 08-01-2009 11:26:03 -3.8 C 2.49 g/m*3 -3.8 C 0 km/h
2217 08-01-2009 11:38:02 -3.8 C 2.49 g/m*3 -3.8 C 0 km/h
2218 08-01-2009 11:50:03 -3.8 C 2.49 g/m*3 -3.8 C 0 km/h
2219 08-01-2009 12:02:03 -3.5 C 2.5 g/m*3 -3.5 C 0 km/h
2220 08-01-2009 12:14:02 -3.3 C 2.5 g/m*3 -3.3 C 0 km/h
2221 08-01-2009 12:26:02 -3.5 C 2.43 g/m*3 -3.5 C 0 km/h
2222 08-01-2009 12:38:02 -3.2 C 2.48 g/m*3 -3.2 C 0 km/h
2223 08-01-2009 12:50:02 -3.4 C 2.41 g/m*3 -3.4 C 0 km/h
2224 08-01-2009 13:02:02 -3.8 C 2.34 g/m*3 -3.8 C 0 km/h
2225 08-01-2009 13:14:01 -3.7 C 2.39 g/m*3 -3.7 C 0 km/h
Sensor: Nr:Datum:Temp:Abs-Feuchte:Windchill:Wind:
Aussen-T/F 2226 08-01-2009 13:26:01 -3.7 C 2.39 g/m*3 -3.7 C 0 km/h
2227 08-01-2009 13:38:02 -3.9 C 2.36 g/m*3 -3.9 C 0 km/h
2228 08-01-2009 13:50:01 -4 C 2.34 g/m*3 -4 C 0 km/h
2229 08-01-2009 14:02:01 -4 C 2.38 g/m*3 -4 C 0 km/h
2230 08-01-2009 14:14:02 -4.1 C 2.32 g/m*3 -4.1 C 0 km/h
2231 08-01-2009 14:26:02 -4.3 C 2.33 g/m*3 -4.3 C 0 km/h
2232 08-01-2009 14:38:01 -4.5 C 2.29 g/m*3 -4.5 C 0 km/h
2233 08-01-2009 14:50:01 -4.6 C 2.31 g/m*3 -4.6 C 0 km/h
2234 08-01-2009 15:02:01 -4.6 C 2.31 g/m*3 -4.6 C 0 km/h
2235 08-01-2009 15:14:01 -4.6 C 2.35 g/m*3 -4.6 C 0 km/h
2236 08-01-2009 15:26:01 -4.7 C 2.33 g/m*3 -4.7 C 0 km/h
2237 08-01-2009 15:38:00 -4.8 C 2.31 g/m*3 -4.8 C 0 km/h
2238 08-01-2009 15:50:01 -4.9 C 2.33 g/m*3 -4.9 C 0 km/h
2239 08-01-2009 16:02:00 -5 C 2.32 g/m*3 -5 C 0 km/h
2240 08-01-2009 16:14:00 -5.1 C 2.33 g/m*3 -5.1 C 0 km/h
2241 08-01-2009 16:26:00 -5.5 C 2.27 g/m*3 -5.5 C 0 km/h
2242 08-01-2009 16:38:59 -6 C 2.22 g/m*3 -6 C 0 km/h
2243 08-01-2009 16:50:00 -6.2 C 2.18 g/m*3 -6.2 C 0 km/h
2244 08-01-2009 17:02:00 -6.5 C 2.17 g/m*3 -6.5 C 0 km/h
2245 08-01-2009 17:14:59 -6.5 C 2.23 g/m*3 -6.5 C 0 km/h
2246 08-01-2009 17:26:59 -6.6 C 2.21 g/m*3 -6.6 C 0 km/h
2247 08-01-2009 17:38:00 -6.7 C 2.23 g/m*3 -6.7 C 0 km/h
2248 08-01-2009 17:50:59 -7 C 2.18 g/m*3 -7 C 0 km/h
2249 08-01-2009 18:01:59 -7 C 2.21 g/m*3 -7 C 0 km/h
2250 08-01-2009 18:14:59 -7.3 C 2.19 g/m*3 -7.3 C 0 km/h
Sensor: Nr:Datum:Temp:Abs-Feuchte:Windchill:Wind:
Aussen-T/F 2251 08-01-2009 18:26:59 -7.5 C 2.16 g/m*3 -7.5 C 0 km/h
2252 08-01-2009 18:38:59 -7.8 C 2.11 g/m*3 -7.8 C 0 km/h
2253 08-01-2009 18:50:59 -7.9 C 2.09 g/m*3 -7.9 C 0 km/h
2254 08-01-2009 19:02:59 -8.2 C 2.05 g/m*3 -8.2 C 0 km/h
2255 08-01-2009 19:14:58 -8.4 C 2.02 g/m*3 -8.4 C 0 km/h
2256 08-01-2009 19:26:58 -8.4 C 2.04 g/m*3 -8.4 C 0 km/h
2257 08-01-2009 19:38:58 -8.3 C 2.09 g/m*3 -8.3 C 0 km/h
2258 08-01-2009 19:50:58 -8.4 C 2.07 g/m*3 -8.4 C 0 km/h
2259 08-01-2009 20:02:58 -8.7 C 2.03 g/m*3 -8.7 C 0 km/h
2260 08-01-2009 20:14:57 -8.8 C 2.01 g/m*3 -8.8 C 0 km/h
2261 08-01-2009 20:26:57 -8.8 C 2.04 g/m*3 -8.8 C 0 km/h
2262 08-01-2009 20:38:58 -8.9 C 2.02 g/m*3 -8.9 C 0 km/h
2263 08-01-2009 20:50:57 -9.2 C 1.95 g/m*3 -9.2 C 0 km/h
2264 08-01-2009 21:02:57 -9.2 C 1.98 g/m*3 -9.2 C 0 km/h
2265 08-01-2009 21:14:58 -9.5 C 1.93 g/m*3 -9.5 C 0 km/h
2266 08-01-2009 21:26:58 -9.9 C 1.85 g/m*3 -9.9 C 0 km/h
2267 08-01-2009 21:38:57 -9.8 C 1.84 g/m*3 -9.8 C 0 km/h
2268 08-01-2009 21:50:57 -9.8 C 1.84 g/m*3 -9.8 C 0 km/h
2269 08-01-2009 22:02:56 -9.9 C 1.83 g/m*3 -9.9 C 0 km/h
2270 08-01-2009 22:14:57 -10 C 1.79 g/m*3 -10 C 0 km/h
2271 08-01-2009 22:26:57 -10.4 C 1.71 g/m*3 -10.4 C 0 km/h
2272 08-01-2009 22:38:56 -10.7 C 1.65 g/m*3 -10.7 C 0 km/h
2273 08-01-2009 22:51:11 -10.6 C 1.67 g/m*3 -10.6 C 0 km/h
2274 08-01-2009 23:03:11 -10.8 C 1.64 g/m*3 -10.8 C 0 km/h
2275 08-01-2009 23:15:11 -10.7 C 1.65 g/m*3 -10.7 C 0 km/h
Sensor: Nr:Datum:Temp:Abs-Feuchte:Windchill:Wind:
Aussen-T/F 2276 08-01-2009 23:27:11 -10.8 C 1.64 g/m*3 -10.8 C 0 km/h
2277 08-01-2009 23:39:11 -10.6 C 1.67 g/m*3 -10.6 C 0 km/h
2278 08-01-2009 23:51:12 -10.7 C 1.65 g/m*3 -10.7 C 0 km/h
2279 09-01-2009 00:03:12 -10.9 C 1.61 g/m*3 -10.9 C 0 km/h
2280 09-01-2009 00:15:12 -11.1 C 1.58 g/m*3 -11.1 C 0 km/h
2281 09-01-2009 00:27:12 -11.1 C 1.58 g/m*3 -11.1 C 0 km/h
2282 09-01-2009 00:39:12 -11.1 C 1.58 g/m*3 -11.1 C 0 km/h
2283 09-01-2009 00:51:12 -11.3 C 1.54 g/m*3 -11.3 C 0 km/h
2284 09-01-2009 01:03:12 -11.5 C 1.51 g/m*3 -11.5 C 0 km/h
2285 09-01-2009 01:15:12 -11.7 C 1.47 g/m*3 -11.7 C 0 km/h
2286 09-01-2009 01:27:12 -11.7 C 1.47 g/m*3 -11.7 C 0 km/h
2287 09-01-2009 01:39:12 -11.7 C 1.47 g/m*3 -11.7 C 0 km/h
2288 09-01-2009 01:51:12 -11.7 C 1.47 g/m*3 -11.7 C 0 km/h
2289 09-01-2009 02:03:12 -11.8 C 1.46 g/m*3 -11.8 C 0 km/h
2290 09-01-2009 02:15:12 -11.9 C 1.45 g/m*3 -11.9 C 0 km/h
2291 09-01-2009 02:27:12 -12.1 C 1.41 g/m*3 -12.1 C 0 km/h
2292 09-01-2009 02:39:12 -12.1 C 1.43 g/m*3 -12.1 C 0 km/h
2293 09-01-2009 02:51:12 -12.2 C 1.39 g/m*3 -12.2 C 0 km/h
2294 09-01-2009 03:03:12 -12.3 C 1.38 g/m*3 -12.3 C 0 km/h
2295 09-01-2009 03:15:12 -12.4 C 1.37 g/m*3 -12.4 C 0 km/h
2296 09-01-2009 03:27:12 -12.5 C 1.36 g/m*3 -12.5 C 0 km/h
2297 09-01-2009 03:39:13 -12.6 C 1.33 g/m*3 -12.6 C 0 km/h
2298 09-01-2009 03:51:13 -12.6 C 1.33 g/m*3 -12.6 C 0 km/h
2299 09-01-2009 04:03:13 -12.6 C 1.33 g/m*3 -12.6 C 0 km/h
2300 09-01-2009 04:15:13 -12.8 C 1.31 g/m*3 -12.8 C 0 km/h
Sensor: Nr:Datum:Temp:Abs-Feuchte:Windchill:Wind:
Aussen-T/F 2301 09-01-2009 04:27:13 -12.8 C 1.31 g/m*3 -12.8 C 0 km/h
2302 09-01-2009 04:39:13 -12.9 C 1.3 g/m*3 -12.9 C 0 km/h
2303 09-01-2009 04:51:13 -13.2 C 1.25 g/m*3 -13.2 C 0 km/h
2304 09-01-2009 05:03:13 -13.2 C 1.25 g/m*3 -13.2 C 0 km/h
2305 09-01-2009 05:15:13 -13.1 C 1.26 g/m*3 -13.1 C 0 km/h
2306 09-01-2009 05:27:13 -13.2 C 1.25 g/m*3 -13.2 C 0 km/h
2307 09-01-2009 05:39:13 -13.3 C 1.24 g/m*3 -13.3 C 0 km/h
2308 09-01-2009 05:51:13 -13.2 C 1.25 g/m*3 -13.2 C 0 km/h
2309 09-01-2009 06:03:13 -13.3 C 1.24 g/m*3 -13.3 C 0 km/h
2310 09-01-2009 06:15:13 -13.4 C 1.22 g/m*3 -13.4 C 0 km/h
2311 09-01-2009 06:27:13 -13.5 C 1.21 g/m*3 -13.5 C 0 km/h
2312 09-01-2009 06:39:58 -13.5 C 1.21 g/m*3 -13.5 C 0 km/h
2313 09-01-2009 06:51:57 -13.6 C 1.2 g/m*3 -13.6 C 0 km/h
2314 09-01-2009 07:03:58 -13.7 C 1.19 g/m*3 -13.7 C 0 km/h
2315 09-01-2009 07:15:57 -13.7 C 1.19 g/m*3 -13.7 C 0 km/h
2316 09-01-2009 07:27:57 -13.6 C 1.2 g/m*3 -13.6 C 0 km/h
2317 09-01-2009 07:39:57 -13.7 C 1.19 g/m*3 -13.7 C 0 km/h
2318 09-01-2009 07:51:57 -13.9 C 1.17 g/m*3 -13.9 C 0 km/h
2319 09-01-2009 08:03:57 -13.9 C 1.15 g/m*3 -13.9 C 0 km/h
2320 09-01-2009 08:15:56 -13.9 C 1.15 g/m*3 -13.9 C 0 km/h
2321 09-01-2009 08:27:56 -13.9 C 1.15 g/m*3 -13.9 C 0 km/h
2322 09-01-2009 08:39:56 -13.9 C 1.15 g/m*3 -13.9 C 0 km/h
2323 09-01-2009 08:51:56 -13.7 C 1.19 g/m*3 -13.7 C 0 km/h
2324 09-01-2009 09:03:56 -13.6 C 1.2 g/m*3 -13.6 C 0 km/h
2325 09-01-2009 09:15:56 -13.7 C 1.19 g/m*3 -13.7 C 0 km/h
Sensor: Nr:Datum:Temp:Abs-Feuchte:Windchill:Wind:
Aussen-T/F 2326 09-01-2009 09:27:56 -13.6 C 1.2 g/m*3 -13.6 C 0 km/h
2327 09-01-2009 09:39:56 -13.6 C 1.2 g/m*3 -13.6 C 0 km/h
2328 09-01-2009 09:51:56 -13.4 C 1.22 g/m*3 -13.4 C 0 km/h
2329 09-01-2009 10:03:55 -13.4 C 1.22 g/m*3 -13.4 C 0 km/h
2330 09-01-2009 10:15:55 -13.2 C 1.24 g/m*3 -13.2 C 0 km/h
2331 09-01-2009 10:27:55 -13.2 C 1.24 g/m*3 -13.2 C 0 km/h
2332 09-01-2009 10:39:55 -13 C 1.26 g/m*3 -13 C 0 km/h
2333 09-01-2009 10:51:55 -12.7 C 1.28 g/m*3 -12.7 C 0 km/h
2334 09-01-2009 11:03:55 -12.6 C 1.31 g/m*3 -12.6 C 0 km/h
2335 09-01-2009 11:15:55 -12.3 C 1.34 g/m*3 -12.3 C 0 km/h
2336 09-01-2009 11:27:55 -12 C 1.4 g/m*3 -12 C 0 km/h
2337 09-01-2009 11:39:55 -11.8 C 1.42 g/m*3 -11.8 C 0 km/h
2338 09-01-2009 11:51:54 -11.5 C 1.47 g/m*3 -11.5 C 0 km/h
2339 09-01-2009 12:03:55 -11.1 C 1.52 g/m*3 -11.1 C 0 km/h
2340 09-01-2009 12:15:54 -10.8 C 1.57 g/m*3 -10.8 C 0 km/h
2341 09-01-2009 12:27:54 -10.5 C 1.61 g/m*3 -10.5 C 0 km/h
2342 09-01-2009 12:39:54 -10 C 1.7 g/m*3 -10 C 0 km/h
2343 09-01-2009 12:51:54 -9.6 C 1.77 g/m*3 -9.6 C 0 km/h
2344 09-01-2009 13:03:54 -9 C 1.85 g/m*3 -9 C 0 km/h
2345 09-01-2009 13:15:54 -8.2 C 1.99 g/m*3 -8.2 C 0 km/h
2346 09-01-2009 13:27:54 -8.1 C 1.98 g/m*3 -8.1 C 0 km/h
2347 09-01-2009 13:39:53 -7.7 C 2.04 g/m*3 -7.7 C 0 km/h
2348 09-01-2009 13:51:54 -7 C 2.15 g/m*3 -7 C 0 km/h
2349 09-01-2009 14:03:53 -7.3 C 2.07 g/m*3 -7.3 C 0 km/h
2350 09-01-2009 14:15:53 -7.7 C 1.99 g/m*3 -7.7 C 0 km/h
Sensor: Nr:Datum:Temp:Abs-Feuchte:Windchill:Wind:
Aussen-T/F 2351 09-01-2009 14:27:53 -7.8 C 2 g/m*3 -7.8 C 0 km/h
2352 09-01-2009 14:39:53 -7.8 C 2 g/m*3 -7.8 C 0 km/h
2353 09-01-2009 14:51:01 -7.8 C 2.03 g/m*3 -7.8 C 0 km/h
2354 09-01-2009 15:03:02 -7.8 C 2.03 g/m*3 -7.8 C 0 km/h
2355 09-01-2009 15:15:01 -7.9 C 2.04 g/m*3 -7.9 C 0 km/h
2356 09-01-2009 15:27:01 -7.9 C 2.04 g/m*3 -7.9 C 0 km/h
2357 09-01-2009 15:39:01 -7.8 C 2.08 g/m*3 -7.8 C 0 km/h
2358 09-01-2009 15:51:01 -7.8 C 2.08 g/m*3 -7.8 C 0 km/h
2359 09-01-2009 16:03:01 -7.9 C 2.07 g/m*3 -7.9 C 0 km/h
2360 09-01-2009 16:15:00 -8.1 C 2.04 g/m*3 -8.1 C 0 km/h
2361 09-01-2009 16:27:00 -8 C 2.05 g/m*3 -8 C 0 km/h
2362 09-01-2009 16:39:01 -8.1 C 2.06 g/m*3 -8.1 C 0 km/h
2363 09-01-2009 16:51:00 -8.2 C 2.05 g/m*3 -8.2 C 0 km/h
2364 09-01-2009 17:03:00 -8.3 C 2.03 g/m*3 -8.3 C 0 km/h
2365 09-01-2009 17:15:01 -8.6 C 1.99 g/m*3 -8.6 C 0 km/h
2366 09-01-2009 17:27:01 -8.6 C 1.99 g/m*3 -8.6 C 0 km/h
2367 09-01-2009 17:39:00 -8.7 C 1.97 g/m*3 -8.7 C 0 km/h
2368 09-01-2009 17:51:59 -8.7 C 1.97 g/m*3 -8.7 C 0 km/h
2369 09-01-2009 18:03:00 -9 C 1.93 g/m*3 -9 C 0 km/h
2370 09-01-2009 18:15:00 -9 C 1.93 g/m*3 -9 C 0 km/h
2371 09-01-2009 18:27:00 -9.2 C 1.9 g/m*3 -9.2 C 0 km/h
2372 09-01-2009 18:39:59 -9.3 C 1.89 g/m*3 -9.3 C 0 km/h
2373 09-01-2009 18:51:00 -9.4 C 1.87 g/m*3 -9.4 C 0 km/h
2374 09-01-2009 19:03:59 -9.6 C 1.84 g/m*3 -9.6 C 0 km/h
2375 09-01-2009 19:15:59 -9.7 C 1.83 g/m*3 -9.7 C 0 km/h
Sensor: Nr:Datum:Temp:Abs-Feuchte:Windchill:Wind:
Aussen-T/F 2376 09-01-2009 19:28:00 -9.9 C 1.8 g/m*3 -9.9 C 0 km/h
2377 09-01-2009 19:39:58 -10 C 1.77 g/m*3 -10 C 0 km/h
2378 09-01-2009 19:51:59 -10.1 C 1.75 g/m*3 -10.1 C 0 km/h
2379 09-01-2009 20:03:59 -10.3 C 1.73 g/m*3 -10.3 C 0 km/h
2380 09-01-2009 20:15:58 -10.4 C 1.71 g/m*3 -10.4 C 0 km/h
2381 09-01-2009 20:27:58 -10.6 C 1.69 g/m*3 -10.6 C 0 km/h
2382 09-01-2009 20:39:59 -10.7 C 1.68 g/m*3 -10.7 C 0 km/h
2383 09-01-2009 20:51:58 -10.9 C 1.63 g/m*3 -10.9 C 0 km/h
2384 09-01-2009 21:03:58 -11 C 1.62 g/m*3 -11 C 0 km/h
2385 09-01-2009 21:15:58 -11 C 1.62 g/m*3 -11 C 0 km/h
2386 09-01-2009 21:27:58 -11.3 C 1.58 g/m*3 -11.3 C 0 km/h
2387 09-01-2009 21:39:57 -11.3 C 1.56 g/m*3 -11.3 C 0 km/h
2388 09-01-2009 21:51:58 -11.3 C 1.58 g/m*3 -11.3 C 0 km/h
2389 09-01-2009 22:03:58 -11.4 C 1.57 g/m*3 -11.4 C 0 km/h
2390 09-01-2009 22:15:57 -11.6 C 1.54 g/m*3 -11.6 C 0 km/h
2391 09-01-2009 22:27:57 -11.5 C 1.56 g/m*3 -11.5 C 0 km/h
2392 09-01-2009 22:39:57 -11.5 C 1.56 g/m*3 -11.5 C 0 km/h
2393 09-01-2009 22:51:57 -11.8 C 1.52 g/m*3 -11.8 C 0 km/h
2394 09-01-2009 23:03:57 -11.8 C 1.5 g/m*3 -11.8 C 0 km/h
2395 09-01-2009 23:15:56 -11.9 C 1.49 g/m*3 -11.9 C 0 km/h
2396 09-01-2009 23:27:56 -12 C 1.48 g/m*3 -12 C 0 km/h
2397 09-01-2009 23:39:57 -12.1 C 1.47 g/m*3 -12.1 C 0 km/h
2398 09-01-2009 23:51:56 -12 C 1.48 g/m*3 -12 C 0 km/h
2399 10-01-2009 00:03:56 -12.2 C 1.45 g/m*3 -12.2 C 0 km/h
2400 10-01-2009 00:15:56 -12.4 C 1.41 g/m*3 -12.4 C 0 km/h
Sensor: Nr:Datum:Temp:Abs-Feuchte:Windchill:Wind:
Aussen-T/F 2401 10-01-2009 00:27:56 -12.5 C 1.4 g/m*3 -12.5 C 0 km/h
2402 10-01-2009 00:39:56 -12.5 C 1.38 g/m*3 -12.5 C 0 km/h
2403 10-01-2009 00:51:56 -12.6 C 1.37 g/m*3 -12.6 C 0 km/h
2404 10-01-2009 01:03:56 -12.7 C 1.36 g/m*3 -12.7 C 0 km/h
2405 10-01-2009 01:15:56 -12.6 C 1.37 g/m*3 -12.6 C 0 km/h
2406 10-01-2009 01:27:56 -12.6 C 1.37 g/m*3 -12.6 C 0 km/h
2407 10-01-2009 01:39:55 -12.8 C 1.35 g/m*3 -12.8 C 0 km/h
2408 10-01-2009 01:51:56 -12.8 C 1.35 g/m*3 -12.8 C 0 km/h
2409 10-01-2009 02:03:55 -13 C 1.33 g/m*3 -13 C 0 km/h
2410 10-01-2009 02:15:55 -13 C 1.33 g/m*3 -13 C 0 km/h
2411 10-01-2009 02:27:55 -13 C 1.31 g/m*3 -13 C 0 km/h
2412 10-01-2009 02:39:55 -13 C 1.31 g/m*3 -13 C 0 km/h
2413 10-01-2009 02:52:02 -13.1 C 1.3 g/m*3 -13.1 C 0 km/h
2414 10-01-2009 03:04:02 -13.2 C 1.29 g/m*3 -13.2 C 0 km/h
2415 10-01-2009 03:16:01 -13.4 C 1.27 g/m*3 -13.4 C 0 km/h
2416 10-01-2009 03:28:01 -13.3 C 1.28 g/m*3 -13.3 C 0 km/h
2417 10-01-2009 03:40:02 -13.4 C 1.27 g/m*3 -13.4 C 0 km/h
2418 10-01-2009 03:52:02 -13.5 C 1.26 g/m*3 -13.5 C 0 km/h
2419 10-01-2009 04:04:01 -13.5 C 1.26 g/m*3 -13.5 C 0 km/h
2420 10-01-2009 04:16:01 -13.6 C 1.23 g/m*3 -13.6 C 0 km/h
2421 10-01-2009 04:28:02 -13.8 C 1.21 g/m*3 -13.8 C 0 km/h
2422 10-01-2009 04:40:01 -13.7 C 1.22 g/m*3 -13.7 C 0 km/h
2423 10-01-2009 04:52:01 -13.8 C 1.21 g/m*3 -13.8 C 0 km/h
2424 10-01-2009 05:04:01 -13.9 C 1.19 g/m*3 -13.9 C 0 km/h
2425 10-01-2009 05:16:02 -14 C 1.18 g/m*3 -14 C 0 km/h
Sensor: Nr:Datum:Temp:Abs-Feuchte:Windchill:Wind:
Aussen-T/F 2426 10-01-2009 05:28:02 -14 C 1.18 g/m*3 -14 C 0 km/h
2427 10-01-2009 05:40:01 -14 C 1.18 g/m*3 -14 C 0 km/h
2428 10-01-2009 05:52:01 -14 C 1.18 g/m*3 -14 C 0 km/h
2429 10-01-2009 06:04:02 -14.1 C 1.17 g/m*3 -14.1 C 0 km/h
2430 10-01-2009 06:16:01 -14.3 C 1.13 g/m*3 -14.3 C 0 km/h
2431 10-01-2009 06:28:01 -14.3 C 1.13 g/m*3 -14.3 C 0 km/h
2432 10-01-2009 06:40:01 -14.1 C 1.17 g/m*3 -14.1 C 0 km/h
2433 10-01-2009 06:52:01 -14.2 C 1.16 g/m*3 -14.2 C 0 km/h
2434 10-01-2009 07:04:01 -14.4 C 1.13 g/m*3 -14.4 C 0 km/h
2435 10-01-2009 07:16:01 -14.4 C 1.13 g/m*3 -14.4 C 0 km/h
2436 10-01-2009 07:28:01 -14.4 C 1.13 g/m*3 -14.4 C 0 km/h
2437 10-01-2009 07:40:02 -14.5 C 1.12 g/m*3 -14.5 C 0 km/h
2438 10-01-2009 07:52:01 -14.5 C 1.12 g/m*3 -14.5 C 0 km/h
2439 10-01-2009 08:04:02 -14.3 C 1.13 g/m*3 -14.3 C 0 km/h
2440 10-01-2009 08:16:01 -14.3 C 1.13 g/m*3 -14.3 C 0 km/h
2441 10-01-2009 08:28:01 -14.4 C 1.11 g/m*3 -14.4 C 0 km/h
2442 10-01-2009 08:40:01 -14.5 C 1.1 g/m*3 -14.5 C 0 km/h
2443 10-01-2009 08:52:01 -14.5 C 1.1 g/m*3 -14.5 C 0 km/h
2444 10-01-2009 09:04:02 -14.3 C 1.12 g/m*3 -14.3 C 0 km/h
2445 10-01-2009 09:16:01 -14.3 C 1.12 g/m*3 -14.3 C 0 km/h
2446 10-01-2009 09:28:01 -14.4 C 1.11 g/m*3 -14.4 C 0 km/h
2447 10-01-2009 09:40:01 -14.1 C 1.13 g/m*3 -14.1 C 0 km/h
2448 10-01-2009 09:52:01 -13.8 C 1.18 g/m*3 -13.8 C 0 km/h
2449 10-01-2009 10:04:01 -13.8 C 1.18 g/m*3 -13.8 C 0 km/h
2450 10-01-2009 10:16:01 -13.7 C 1.19 g/m*3 -13.7 C 0 km/h
Sensor: Nr:Datum:Temp:Abs-Feuchte:Windchill:Wind:
Aussen-T/F 2451 10-01-2009 10:28:01 -13.4 C 1.22 g/m*3 -13.4 C 0 km/h
2452 10-01-2009 10:40:02 -13.4 C 1.22 g/m*3 -13.4 C 0 km/h
2453 10-01-2009 10:52:01 -13.2 C 1.24 g/m*3 -13.2 C 0 km/h
2454 10-01-2009 11:04:02 -12.9 C 1.28 g/m*3 -12.9 C 0 km/h
2455 10-01-2009 11:16:01 -12.6 C 1.31 g/m*3 -12.6 C 0 km/h
2456 10-01-2009 11:28:01 -12.4 C 1.35 g/m*3 -12.4 C 0 km/h
2457 10-01-2009 11:40:01 -12.1 C 1.39 g/m*3 -12.1 C 0 km/h
2458 10-01-2009 11:52:01 -11.8 C 1.44 g/m*3 -11.8 C 0 km/h
2459 10-01-2009 12:04:01 -11.5 C 1.47 g/m*3 -11.5 C 0 km/h
2460 10-01-2009 12:16:02 -11.2 C 1.53 g/m*3 -11.2 C 0 km/h
2461 10-01-2009 12:28:02 -10.9 C 1.56 g/m*3 -10.9 C 0 km/h
2462 10-01-2009 12:40:01 -10.3 C 1.66 g/m*3 -10.3 C 0 km/h
2463 10-01-2009 12:52:02 -9.6 C 1.77 g/m*3 -9.6 C 0 km/h
2464 10-01-2009 13:04:01 -9 C 1.85 g/m*3 -9 C 0 km/h
2465 10-01-2009 13:16:02 -8.2 C 1.99 g/m*3 -8.2 C 0 km/h
2466 10-01-2009 13:28:02 -7.6 C 2.08 g/m*3 -7.6 C 0 km/h
2467 10-01-2009 13:40:01 -7 C 2.18 g/m*3 -7 C 0 km/h
2468 10-01-2009 13:52:01 -6.4 C 2.28 g/m*3 -6.4 C 0 km/h
2469 10-01-2009 14:04:01 -6.6 C 2.21 g/m*3 -6.6 C 0 km/h
2470 10-01-2009 14:16:01 -7.1 C 2.1 g/m*3 -7.1 C 0 km/h
2471 10-01-2009 14:28:01 -7.4 C 2.06 g/m*3 -7.4 C 0 km/h
2472 10-01-2009 14:40:02 -7.5 C 2.04 g/m*3 -7.5 C 0 km/h
2473 10-01-2009 14:52:01 -7.5 C 2.07 g/m*3 -7.5 C 0 km/h
2474 10-01-2009 15:04:02 -7.5 C 2.1 g/m*3 -7.5 C 0 km/h
2475 10-01-2009 15:16:01 -7.5 C 2.1 g/m*3 -7.5 C 0 km/h
Sensor: Nr:Datum:Temp:Abs-Feuchte:Windchill:Wind:
Aussen-T/F 2476 10-01-2009 15:28:01 -7.4 C 2.14 g/m*3 -7.4 C 0 km/h
2477 10-01-2009 15:40:02 -7.4 C 2.14 g/m*3 -7.4 C 0 km/h
2478 10-01-2009 15:52:01 -7.4 C 2.14 g/m*3 -7.4 C 0 km/h
2479 10-01-2009 16:04:01 -7.3 C 2.19 g/m*3 -7.3 C 0 km/h
2480 10-01-2009 16:16:01 -7.3 C 2.19 g/m*3 -7.3 C 0 km/h
2481 10-01-2009 16:28:01 -7.4 C 2.17 g/m*3 -7.4 C 0 km/h
2482 10-01-2009 16:40:01 -7.7 C 2.1 g/m*3 -7.7 C 0 km/h
2483 10-01-2009 16:52:02 -7.8 C 2.08 g/m*3 -7.8 C 0 km/h
2484 10-01-2009 17:04:01 -8 C 2.08 g/m*3 -8 C 0 km/h
2485 10-01-2009 17:16:01 -8.3 C 2.01 g/m*3 -8.3 C 0 km/h
2486 10-01-2009 17:28:01 -8.5 C 2 g/m*3 -8.5 C 0 km/h
2487 10-01-2009 17:40:01 -8.6 C 1.99 g/m*3 -8.6 C 0 km/h
2488 10-01-2009 17:52:01 -8.8 C 1.96 g/m*3 -8.8 C 0 km/h
2489 10-01-2009 18:04:01 -8.8 C 1.96 g/m*3 -8.8 C 0 km/h
2490 10-01-2009 18:16:01 -9 C 1.93 g/m*3 -9 C 0 km/h
2491 10-01-2009 18:28:01 -9.2 C 1.9 g/m*3 -9.2 C 0 km/h
2492 10-01-2009 18:40:02 -9.4 C 1.87 g/m*3 -9.4 C 0 km/h
2493 10-01-2009 18:52:01 -9.7 C 1.81 g/m*3 -9.7 C 0 km/h
2494 10-01-2009 19:04:02 -9.6 C 1.84 g/m*3 -9.6 C 0 km/h
2495 10-01-2009 19:16:01 -9.5 C 1.88 g/m*3 -9.5 C 0 km/h
2496 10-01-2009 19:28:01 -9.8 C 1.82 g/m*3 -9.8 C 0 km/h
2497 10-01-2009 19:40:02 -9.9 C 1.8 g/m*3 -9.9 C 0 km/h
2498 10-01-2009 19:52:01 -9.9 C 1.8 g/m*3 -9.9 C 0 km/h
2499 10-01-2009 20:04:02 -10.2 C 1.76 g/m*3 -10.2 C 0 km/h
2500 10-01-2009 20:16:01 -10 C 1.79 g/m*3 -10 C 0 km/h
Sensor: Nr:Datum:Temp:Abs-Feuchte:Windchill:Wind:
Aussen-T/F 2501 10-01-2009 20:28:01 -10.2 C 1.76 g/m*3 -10.2 C 0 km/h
2502 10-01-2009 20:40:01 -10.3 C 1.73 g/m*3 -10.3 C 0 km/h
2503 10-01-2009 20:52:01 -10.2 C 1.76 g/m*3 -10.2 C 0 km/h
2504 10-01-2009 21:04:01 -10.1 C 1.78 g/m*3 -10.1 C 0 km/h
2505 10-01-2009 21:16:02 -10 C 1.81 g/m*3 -10 C 0 km/h
2506 10-01-2009 21:28:02 -10.2 C 1.76 g/m*3 -10.2 C 0 km/h
2507 10-01-2009 21:40:01 -9.9 C 1.83 g/m*3 -9.9 C 0 km/h
2508 10-01-2009 21:52:01 -10 C 1.81 g/m*3 -10 C 0 km/h
2509 10-01-2009 22:04:01 -10.4 C 1.74 g/m*3 -10.4 C 0 km/h
2510 10-01-2009 22:16:02 -10.6 C 1.71 g/m*3 -10.6 C 0 km/h
2511 10-01-2009 22:28:02 -10.4 C 1.74 g/m*3 -10.4 C 0 km/h
2512 10-01-2009 22:40:01 -10.7 C 1.7 g/m*3 -10.7 C 0 km/h
2513 10-01-2009 22:52:02 -10.6 C 1.71 g/m*3 -10.6 C 0 km/h
2514 10-01-2009 23:04:47 -10.6 C 1.71 g/m*3 -10.6 C 0 km/h
2515 10-01-2009 23:16:48 -10.6 C 1.71 g/m*3 -10.6 C 0 km/h
2516 10-01-2009 23:28:48 -10.6 C 1.71 g/m*3 -10.6 C 0 km/h
2517 10-01-2009 23:40:48 -10.9 C 1.65 g/m*3 -10.9 C 0 km/h
2518 10-01-2009 23:52:48 -10.8 C 1.69 g/m*3 -10.8 C 0 km/h
2519 11-01-2009 00:04:48 -10.7 C 1.7 g/m*3 -10.7 C 0 km/h
2520 11-01-2009 00:16:48 -10.6 C 1.73 g/m*3 -10.6 C 0 km/h
2521 11-01-2009 00:28:48 -10.7 C 1.7 g/m*3 -10.7 C 0 km/h
2522 11-01-2009 00:40:48 -11 C 1.66 g/m*3 -11 C 0 km/h
2523 11-01-2009 00:52:48 -11 C 1.64 g/m*3 -11 C 0 km/h
2524 11-01-2009 01:04:48 -11 C 1.64 g/m*3 -11 C 0 km/h
2525 11-01-2009 01:16:48 -11.1 C 1.63 g/m*3 -11.1 C 0 km/h
Sensor: Nr:Datum:Temp:Abs-Feuchte:Windchill:Wind:
Aussen-T/F 2526 11-01-2009 01:28:48 -11 C 1.64 g/m*3 -11 C 0 km/h
2527 11-01-2009 01:40:48 -11.1 C 1.63 g/m*3 -11.1 C 0 km/h
2528 11-01-2009 01:52:48 -11.5 C 1.56 g/m*3 -11.5 C 0 km/h
2529 11-01-2009 02:04:48 -11.5 C 1.56 g/m*3 -11.5 C 0 km/h
2530 11-01-2009 02:16:48 -11.5 C 1.56 g/m*3 -11.5 C 0 km/h
2531 11-01-2009 02:28:48 -11.6 C 1.54 g/m*3 -11.6 C 0 km/h
2532 11-01-2009 02:40:48 -11.3 C 1.6 g/m*3 -11.3 C 0 km/h
2533 11-01-2009 02:52:48 -11.3 C 1.6 g/m*3 -11.3 C 0 km/h
2534 11-01-2009 03:04:49 -11.2 C 1.61 g/m*3 -11.2 C 0 km/h
2535 11-01-2009 03:16:49 -11.5 C 1.58 g/m*3 -11.5 C 0 km/h
2536 11-01-2009 03:28:49 -11.5 C 1.58 g/m*3 -11.5 C 0 km/h
2537 11-01-2009 03:40:49 -11.4 C 1.59 g/m*3 -11.4 C 0 km/h
2538 11-01-2009 03:52:49 -11.5 C 1.58 g/m*3 -11.5 C 0 km/h
2539 11-01-2009 04:04:49 -11.7 C 1.55 g/m*3 -11.7 C 0 km/h
2540 11-01-2009 04:16:49 -11.7 C 1.53 g/m*3 -11.7 C 0 km/h
2541 11-01-2009 04:28:49 -11.7 C 1.53 g/m*3 -11.7 C 0 km/h
2542 11-01-2009 04:40:49 -11.7 C 1.53 g/m*3 -11.7 C 0 km/h
2543 11-01-2009 04:52:49 -11.9 C 1.51 g/m*3 -11.9 C 0 km/h
2544 11-01-2009 05:04:49 -12 C 1.5 g/m*3 -12 C 0 km/h
2545 11-01-2009 05:16:49 -11.9 C 1.49 g/m*3 -11.9 C 0 km/h
2546 11-01-2009 05:28:49 -12 C 1.48 g/m*3 -12 C 0 km/h
2547 11-01-2009 05:40:49 -12.2 C 1.45 g/m*3 -12.2 C 0 km/h
2548 11-01-2009 05:52:49 -12.1 C 1.47 g/m*3 -12.1 C 0 km/h
2549 11-01-2009 06:04:49 -12.1 C 1.47 g/m*3 -12.1 C 0 km/h
2550 11-01-2009 06:16:49 -12.2 C 1.45 g/m*3 -12.2 C 0 km/h
Sensor: Nr:Datum:Temp:Abs-Feuchte:Windchill:Wind:
Aussen-T/F 2551 11-01-2009 06:28:49 -12.3 C 1.44 g/m*3 -12.3 C 0 km/h
2552 11-01-2009 06:40:49 -12.3 C 1.44 g/m*3 -12.3 C 0 km/h
2553 11-01-2009 06:52:50 -12.1 C 1.49 g/m*3 -12.1 C 0 km/h
2554 11-01-2009 07:04:50 -12.1 C 1.49 g/m*3 -12.1 C 0 km/h
2555 11-01-2009 07:16:50 -12.2 C 1.47 g/m*3 -12.2 C 0 km/h
2556 11-01-2009 07:28:50 -12.3 C 1.44 g/m*3 -12.3 C 0 km/h
2557 11-01-2009 07:40:50 -12.3 C 1.44 g/m*3 -12.3 C 0 km/h
2558 11-01-2009 07:52:50 -12.1 C 1.49 g/m*3 -12.1 C 0 km/h
2559 11-01-2009 08:04:50 -12.3 C 1.46 g/m*3 -12.3 C 0 km/h
2560 11-01-2009 08:16:50 -12.3 C 1.44 g/m*3 -12.3 C 0 km/h
2561 11-01-2009 08:28:50 -12.4 C 1.43 g/m*3 -12.4 C 0 km/h
2562 11-01-2009 08:40:50 -12.5 C 1.42 g/m*3 -12.5 C 0 km/h
2563 11-01-2009 08:52:46 -12.3 C 1.44 g/m*3 -12.3 C 0 km/h
2564 11-01-2009 09:04:46 -12.2 C 1.45 g/m*3 -12.2 C 0 km/h
2565 11-01-2009 09:16:47 -12.1 C 1.47 g/m*3 -12.1 C 0 km/h
2566 11-01-2009 09:28:47 -11.7 C 1.53 g/m*3 -11.7 C 0 km/h
2567 11-01-2009 09:40:46 -11.3 C 1.58 g/m*3 -11.3 C 0 km/h
2568 11-01-2009 09:52:46 -11.2 C 1.59 g/m*3 -11.2 C 0 km/h
2569 11-01-2009 10:04:45 -10.9 C 1.63 g/m*3 -10.9 C 0 km/h
2570 11-01-2009 10:16:45 -10.9 C 1.63 g/m*3 -10.9 C 0 km/h
2571 11-01-2009 10:28:45 -10.6 C 1.67 g/m*3 -10.6 C 0 km/h
2572 11-01-2009 10:40:46 -10.2 C 1.72 g/m*3 -10.2 C 0 km/h
2573 11-01-2009 10:52:45 -10.1 C 1.73 g/m*3 -10.1 C 0 km/h
2574 11-01-2009 11:04:45 -10.1 C 1.73 g/m*3 -10.1 C 0 km/h
2575 11-01-2009 11:16:45 -10 C 1.77 g/m*3 -10 C 0 km/h
Sensor: Nr:Datum:Temp:Abs-Feuchte:Windchill:Wind:
Aussen-T/F 2576 11-01-2009 11:28:45 -9.8 C 1.79 g/m*3 -9.8 C 0 km/h
2577 11-01-2009 11:40:45 -9.4 C 1.87 g/m*3 -9.4 C 0 km/h
2578 11-01-2009 11:52:45 -9.1 C 1.92 g/m*3 -9.1 C 0 km/h
2579 11-01-2009 12:04:44 -8.6 C 2.01 g/m*3 -8.6 C 0 km/h
2580 11-01-2009 12:16:45 -8.2 C 2.1 g/m*3 -8.2 C 0 km/h
2581 11-01-2009 12:28:45 -7.8 C 2.19 g/m*3 -7.8 C 0 km/h
2582 11-01-2009 12:40:44 -7 C 2.36 g/m*3 -7 C 0 km/h
2583 11-01-2009 12:52:44 -6.4 C 2.49 g/m*3 -6.4 C 0 km/h
2584 11-01-2009 13:04:44 -5.8 C 2.57 g/m*3 -5.8 C 0 km/h
2585 11-01-2009 13:16:44 -5.1 C 2.7 g/m*3 -5.1 C 0 km/h
2586 11-01-2009 13:28:44 -4.7 C 2.75 g/m*3 -4.7 C 0 km/h
2587 11-01-2009 13:40:44 -4.1 C 2.8 g/m*3 -4.1 C 0 km/h
2588 11-01-2009 13:52:44 -3.4 C 2.9 g/m*3 -3.4 C 0 km/h
2589 11-01-2009 14:04:44 -3.4 C 2.79 g/m*3 -3.4 C 0 km/h
2590 11-01-2009 14:16:43 -4 C 2.63 g/m*3 -4 C 0 km/h
2591 11-01-2009 14:28:43 -4.2 C 2.63 g/m*3 -4.2 C 0 km/h
2592 11-01-2009 14:40:43 -4.3 C 2.65 g/m*3 -4.3 C 0 km/h
2593 11-01-2009 14:52:43 -4.4 C 2.67 g/m*3 -4.4 C 0 km/h
2594 11-01-2009 15:04:43 -4.4 C 2.67 g/m*3 -4.4 C 0 km/h
2595 11-01-2009 15:16:42 -4.4 C 2.67 g/m*3 -4.4 C 0 km/h
2596 11-01-2009 15:28:42 -4.4 C 2.7 g/m*3 -4.4 C 0 km/h
2597 11-01-2009 15:40:42 -4.4 C 2.67 g/m*3 -4.4 C 0 km/h
2598 11-01-2009 15:52:43 -4.2 C 2.7 g/m*3 -4.2 C 0 km/h
2599 11-01-2009 16:04:42 -4.1 C 2.72 g/m*3 -4.1 C 0 km/h
2600 11-01-2009 16:16:42 -4.2 C 2.74 g/m*3 -4.2 C 0 km/h
Sensor: Nr:Datum:Temp:Abs-Feuchte:Windchill:Wind:
Aussen-T/F 2601 11-01-2009 16:28:42 -4.5 C 2.68 g/m*3 -4.5 C 0 km/h
2602 11-01-2009 16:40:42 -4.6 C 2.66 g/m*3 -4.6 C 0 km/h
2603 11-01-2009 16:52:42 -4.6 C 2.66 g/m*3 -4.6 C 0 km/h
2604 11-01-2009 17:04:02 -4.7 C 2.64 g/m*3 -4.7 C 0 km/h
2605 11-01-2009 17:16:02 -4.8 C 2.63 g/m*3 -4.8 C 0 km/h
2606 11-01-2009 17:28:02 -5.2 C 2.58 g/m*3 -5.2 C 0 km/h
2607 11-01-2009 17:40:01 -5.2 C 2.58 g/m*3 -5.2 C 0 km/h
2608 11-01-2009 17:52:02 -5.3 C 2.57 g/m*3 -5.3 C 0 km/h
2609 11-01-2009 18:04:01 -5.8 C 2.47 g/m*3 -5.8 C 0 km/h
2610 11-01-2009 18:16:01 -6.2 C 2.4 g/m*3 -6.2 C 0 km/h
2611 11-01-2009 18:28:01 -6.2 C 2.4 g/m*3 -6.2 C 0 km/h
2612 11-01-2009 18:40:01 -6.4 C 2.37 g/m*3 -6.4 C 0 km/h
2613 11-01-2009 18:52:01 -6.5 C 2.38 g/m*3 -6.5 C 0 km/h
2614 11-01-2009 19:04:01 -6.5 C 2.38 g/m*3 -6.5 C 0 km/h
2615 11-01-2009 19:16:01 -6.9 C 2.31 g/m*3 -6.9 C 0 km/h
2616 11-01-2009 19:28:01 -7.2 C 2.23 g/m*3 -7.2 C 0 km/h
2617 11-01-2009 19:40:01 -7.4 C 2.23 g/m*3 -7.4 C 0 km/h
2618 11-01-2009 19:52:00 -7.6 C 2.2 g/m*3 -7.6 C 0 km/h
2619 11-01-2009 20:04:01 -7.8 C 2.16 g/m*3 -7.8 C 0 km/h
2620 11-01-2009 20:16:00 -7.9 C 2.15 g/m*3 -7.9 C 0 km/h
2621 11-01-2009 20:28:00 -7.9 C 2.15 g/m*3 -7.9 C 0 km/h
2622 11-01-2009 20:40:00 -8 C 2.13 g/m*3 -8 C 0 km/h
2623 11-01-2009 20:52:00 -8.1 C 2.12 g/m*3 -8.1 C 0 km/h
2624 11-01-2009 21:04:00 -8.2 C 2.1 g/m*3 -8.2 C 0 km/h
2625 11-01-2009 21:16:59 -8.3 C 2.09 g/m*3 -8.3 C 0 km/h
Sensor: Nr:Datum:Temp:Abs-Feuchte:Windchill:Wind:
Aussen-T/F 2626 11-01-2009 21:27:59 -8.3 C 2.09 g/m*3 -8.3 C 0 km/h
2627 11-01-2009 21:40:00 -8.6 C 2.04 g/m*3 -8.6 C 0 km/h
2628 11-01-2009 21:52:00 -8.7 C 2.03 g/m*3 -8.7 C 0 km/h
2629 11-01-2009 22:04:59 -9 C 1.98 g/m*3 -9 C 0 km/h
2630 11-01-2009 22:16:59 -9.2 C 1.93 g/m*3 -9.2 C 0 km/h
2631 11-01-2009 22:29:00 -9.2 C 1.95 g/m*3 -9.2 C 0 km/h
2632 11-01-2009 22:40:58 -9.3 C 1.91 g/m*3 -9.3 C 0 km/h
2633 11-01-2009 22:52:59 -9.5 C 1.88 g/m*3 -9.5 C 0 km/h
2634 11-01-2009 23:04:59 -9.5 C 1.91 g/m*3 -9.5 C 0 km/h
2635 11-01-2009 23:16:58 -9.5 C 1.91 g/m*3 -9.5 C 0 km/h
2636 11-01-2009 23:28:58 -9.7 C 1.88 g/m*3 -9.7 C 0 km/h
2637 11-01-2009 23:40:59 -9.7 C 1.88 g/m*3 -9.7 C 0 km/h
2638 11-01-2009 23:53:00 -9.9 C 1.83 g/m*3 -9.9 C 0 km/h
2639 12-01-2009 00:05:00 -9.7 C 1.88 g/m*3 -9.7 C 0 km/h
2640 12-01-2009 00:17:00 -10 C 1.84 g/m*3 -10 C 0 km/h
2641 12-01-2009 00:29:00 -10.2 C 1.79 g/m*3 -10.2 C 0 km/h
2642 12-01-2009 00:41:00 -10.3 C 1.77 g/m*3 -10.3 C 0 km/h
2643 12-01-2009 00:53:00 -10.5 C 1.75 g/m*3 -10.5 C 0 km/h
2644 12-01-2009 01:05:01 -10.6 C 1.73 g/m*3 -10.6 C 0 km/h
2645 12-01-2009 01:17:01 -10.7 C 1.7 g/m*3 -10.7 C 0 km/h
2646 12-01-2009 01:29:01 -10.7 C 1.7 g/m*3 -10.7 C 0 km/h
2647 12-01-2009 01:41:01 -10.6 C 1.73 g/m*3 -10.6 C 0 km/h
2648 12-01-2009 01:53:01 -10.6 C 1.71 g/m*3 -10.6 C 0 km/h
2649 12-01-2009 02:05:01 -10.8 C 1.69 g/m*3 -10.8 C 0 km/h
2650 12-01-2009 02:17:01 -10.8 C 1.69 g/m*3 -10.8 C 0 km/h
Sensor: Nr:Datum:Temp:Abs-Feuchte:Windchill:Wind:
Aussen-T/F 2651 12-01-2009 02:29:01 -11 C 1.66 g/m*3 -11 C 0 km/h
2652 12-01-2009 02:41:01 -11 C 1.66 g/m*3 -11 C 0 km/h
2653 12-01-2009 02:53:01 -11.1 C 1.65 g/m*3 -11.1 C 0 km/h
2654 12-01-2009 03:05:01 -11.2 C 1.61 g/m*3 -11.2 C 0 km/h
2655 12-01-2009 03:17:01 -11.1 C 1.63 g/m*3 -11.1 C 0 km/h
2656 12-01-2009 03:29:01 -11.1 C 1.63 g/m*3 -11.1 C 0 km/h
2657 12-01-2009 03:41:01 -11.1 C 1.63 g/m*3 -11.1 C 0 km/h
2658 12-01-2009 03:53:01 -11.2 C 1.61 g/m*3 -11.2 C 0 km/h
2659 12-01-2009 04:05:01 -11.3 C 1.6 g/m*3 -11.3 C 0 km/h
2660 12-01-2009 04:17:01 -11.3 C 1.6 g/m*3 -11.3 C 0 km/h
2661 12-01-2009 04:29:01 -11.2 C 1.61 g/m*3 -11.2 C 0 km/h
2662 12-01-2009 04:41:01 -11.2 C 1.61 g/m*3 -11.2 C 0 km/h
2663 12-01-2009 04:53:01 -11.4 C 1.57 g/m*3 -11.4 C 0 km/h
2664 12-01-2009 05:05:02 -11.4 C 1.57 g/m*3 -11.4 C 0 km/h
2665 12-01-2009 05:17:02 -11.5 C 1.56 g/m*3 -11.5 C 0 km/h
2666 12-01-2009 05:29:02 -11.5 C 1.56 g/m*3 -11.5 C 0 km/h
2667 12-01-2009 05:41:02 -11.5 C 1.56 g/m*3 -11.5 C 0 km/h
2668 12-01-2009 05:53:02 -11.4 C 1.57 g/m*3 -11.4 C 0 km/h
2669 12-01-2009 06:05:02 -11.3 C 1.58 g/m*3 -11.3 C 0 km/h
2670 12-01-2009 06:17:02 -11.2 C 1.61 g/m*3 -11.2 C 0 km/h
2671 12-01-2009 06:29:02 -11.4 C 1.59 g/m*3 -11.4 C 0 km/h
2672 12-01-2009 06:41:02 -11.5 C 1.56 g/m*3 -11.5 C 0 km/h
2673 12-01-2009 06:53:02 -11.5 C 1.58 g/m*3 -11.5 C 0 km/h
2674 12-01-2009 07:05:00 -11.6 C 1.54 g/m*3 -11.6 C 0 km/h
2675 12-01-2009 07:17:00 -11.7 C 1.53 g/m*3 -11.7 C 0 km/h
Sensor: Nr:Datum:Temp:Abs-Feuchte:Windchill:Wind:
Aussen-T/F 2676 12-01-2009 07:29:00 -11.8 C 1.52 g/m*3 -11.8 C 0 km/h
2677 12-01-2009 07:41:59 -11.8 C 1.5 g/m*3 -11.8 C 0 km/h
2678 12-01-2009 07:53:00 -11.9 C 1.49 g/m*3 -11.9 C 0 km/h
2679 12-01-2009 08:05:59 -11.7 C 1.51 g/m*3 -11.7 C 0 km/h
2680 12-01-2009 08:17:59 -11.7 C 1.53 g/m*3 -11.7 C 0 km/h
2681 12-01-2009 08:29:59 -11.7 C 1.53 g/m*3 -11.7 C 0 km/h
2682 12-01-2009 08:41:58 -11.7 C 1.53 g/m*3 -11.7 C 0 km/h
2683 12-01-2009 08:53:59 -11.7 C 1.53 g/m*3 -11.7 C 0 km/h
2684 12-01-2009 09:05:58 -11.7 C 1.53 g/m*3 -11.7 C 0 km/h
2685 12-01-2009 09:17:58 -11.5 C 1.56 g/m*3 -11.5 C 0 km/h
2686 12-01-2009 09:29:59 -11.3 C 1.58 g/m*3 -11.3 C 0 km/h
2687 12-01-2009 09:41:58 -11.3 C 1.56 g/m*3 -11.3 C 0 km/h
2688 12-01-2009 09:53:58 -11.1 C 1.58 g/m*3 -11.1 C 0 km/h
2689 12-01-2009 10:05:57 -10.9 C 1.63 g/m*3 -10.9 C 0 km/h
2690 12-01-2009 10:17:58 -10.6 C 1.67 g/m*3 -10.6 C 0 km/h
2691 12-01-2009 10:29:58 -10.4 C 1.69 g/m*3 -10.4 C 0 km/h
2692 12-01-2009 10:41:58 -10.2 C 1.72 g/m*3 -10.2 C 0 km/h
2693 12-01-2009 10:53:57 -9.8 C 1.79 g/m*3 -9.8 C 0 km/h
2694 12-01-2009 11:05:58 -9.7 C 1.81 g/m*3 -9.7 C 0 km/h
2695 12-01-2009 11:17:57 -9.4 C 1.85 g/m*3 -9.4 C 0 km/h
2696 12-01-2009 11:29:57 -8.9 C 1.97 g/m*3 -8.9 C 0 km/h
2697 12-01-2009 11:41:57 -8.6 C 2.01 g/m*3 -8.6 C 0 km/h
2698 12-01-2009 11:53:56 -8.1 C 2.12 g/m*3 -8.1 C 0 km/h
2699 12-01-2009 12:05:57 -7.7 C 2.21 g/m*3 -7.7 C 0 km/h
2700 12-01-2009 12:17:57 -7.3 C 2.3 g/m*3 -7.3 C 0 km/h
Sensor: Nr:Datum:Temp:Abs-Feuchte:Windchill:Wind:
Aussen-T/F 2701 12-01-2009 12:29:57 -7.2 C 2.32 g/m*3 -7.2 C 0 km/h
2702 12-01-2009 12:41:56 -6.6 C 2.46 g/m*3 -6.6 C 0 km/h
2703 12-01-2009 12:53:57 -5.9 C 2.58 g/m*3 -5.9 C 0 km/h
2704 12-01-2009 13:05:56 -4.9 C 2.78 g/m*3 -4.9 C 0 km/h
2705 12-01-2009 13:17:56 -4.1 C 2.87 g/m*3 -4.1 C 0 km/h
2706 12-01-2009 13:29:56 -3.3 C 3 g/m*3 -3.3 C 0 km/h
2707 12-01-2009 13:41:55 -3.2 C 2.9 g/m*3 -3.2 C 0 km/h
2708 12-01-2009 13:53:56 -2.8 C 2.91 g/m*3 -2.8 C 0 km/h
2709 12-01-2009 14:05:55 -2.6 C 2.87 g/m*3 -2.6 C 0 km/h
2710 12-01-2009 14:17:55 -3 C 2.75 g/m*3 -3 C 0 km/h
2711 12-01-2009 14:29:55 -3.1 C 2.77 g/m*3 -3.1 C 0 km/h
2712 12-01-2009 14:41:56 -3 C 2.83 g/m*3 -3 C 0 km/h
2713 12-01-2009 14:53:55 -2.9 C 2.85 g/m*3 -2.9 C 0 km/h
2714 12-01-2009 15:05:55 -2.8 C 2.91 g/m*3 -2.8 C 0 km/h
2715 12-01-2009 15:17:55 -2.7 C 2.93 g/m*3 -2.7 C 0 km/h
2716 12-01-2009 15:29:55 -2.6 C 2.87 g/m*3 -2.6 C 0 km/h
2717 12-01-2009 15:41:55 -2.7 C 2.89 g/m*3 -2.7 C 0 km/h
2718 12-01-2009 15:53:54 -2.7 C 2.89 g/m*3 -2.7 C 0 km/h
2719 12-01-2009 16:05:55 -2.8 C 2.87 g/m*3 -2.8 C 0 km/h
2720 12-01-2009 16:17:54 -2.8 C 2.87 g/m*3 -2.8 C 0 km/h
2721 12-01-2009 16:29:54 -2.9 C 2.89 g/m*3 -2.9 C 0 km/h
2722 12-01-2009 16:41:54 -2.9 C 2.89 g/m*3 -2.9 C 0 km/h
2723 12-01-2009 16:53:53 -2.8 C 2.91 g/m*3 -2.8 C 0 km/h
2724 12-01-2009 17:05:54 -2.8 C 2.95 g/m*3 -2.8 C 0 km/h
2725 12-01-2009 17:17:54 -2.8 C 2.99 g/m*3 -2.8 C 0 km/h
Sensor: Nr:Datum:Temp:Abs-Feuchte:Windchill:Wind:
Aussen-T/F 2726 12-01-2009 17:29:54 -3 C 2.95 g/m*3 -3 C 0 km/h
2727 12-01-2009 17:41:53 -3 C 2.99 g/m*3 -3 C 0 km/h
2728 12-01-2009 17:53:54 -3 C 2.95 g/m*3 -3 C 0 km/h
2729 12-01-2009 18:05:53 -3 C 2.91 g/m*3 -3 C 0 km/h
2730 12-01-2009 18:17:53 -3.1 C 2.81 g/m*3 -3.1 C 0 km/h
2731 12-01-2009 18:29:54 -3.3 C 2.81 g/m*3 -3.3 C 0 km/h
2732 12-01-2009 18:41:52 -3.4 C 2.79 g/m*3 -3.4 C 0 km/h
2733 12-01-2009 18:53:53 -3.3 C 2.81 g/m*3 -3.3 C 0 km/h
2734 12-01-2009 19:05:52 -3.5 C 2.77 g/m*3 -3.5 C 0 km/h
2735 12-01-2009 19:17:52 -3.6 C 2.75 g/m*3 -3.6 C 0 km/h
2736 12-01-2009 19:29:52 -3.7 C 2.77 g/m*3 -3.7 C 0 km/h
2737 12-01-2009 19:41:53 -3.6 C 2.82 g/m*3 -3.6 C 0 km/h
2738 12-01-2009 19:53:52 -3.5 C 2.77 g/m*3 -3.5 C 0 km/h
2739 12-01-2009 20:05:52 -3.6 C 2.75 g/m*3 -3.6 C 0 km/h
2740 12-01-2009 20:17:52 -3.6 C 2.71 g/m*3 -3.6 C 0 km/h
2741 12-01-2009 20:29:52 -3.7 C 2.65 g/m*3 -3.7 C 0 km/h
2742 12-01-2009 20:41:52 -3.8 C 2.71 g/m*3 -3.8 C 0 km/h
2743 12-01-2009 20:53:51 -3.8 C 2.75 g/m*3 -3.8 C 0 km/h
2744 12-01-2009 21:05:52 -3.7 C 2.77 g/m*3 -3.7 C 0 km/h
2745 12-01-2009 21:17:51 -3.6 C 2.82 g/m*3 -3.6 C 0 km/h
2746 12-01-2009 21:29:51 -3.5 C 2.84 g/m*3 -3.5 C 0 km/h
2747 12-01-2009 21:41:51 -3.6 C 2.79 g/m*3 -3.6 C 0 km/h
2748 12-01-2009 21:53:51 -3.8 C 2.75 g/m*3 -3.8 C 0 km/h
2749 12-01-2009 22:06:06 -3.8 C 2.75 g/m*3 -3.8 C 0 km/h
2750 12-01-2009 22:18:06 -4 C 2.67 g/m*3 -4 C 0 km/h
Sensor: Nr:Datum:Temp:Abs-Feuchte:Windchill:Wind:
Aussen-T/F 2751 12-01-2009 22:30:06 -4 C 2.67 g/m*3 -4 C 0 km/h
2752 12-01-2009 22:42:06 -4.1 C 2.65 g/m*3 -4.1 C 0 km/h
2753 12-01-2009 22:54:06 -4.2 C 2.63 g/m*3 -4.2 C 0 km/h
2754 12-01-2009 23:06:06 -4.3 C 2.61 g/m*3 -4.3 C 0 km/h
2755 12-01-2009 23:18:06 -4.2 C 2.63 g/m*3 -4.2 C 0 km/h
2756 12-01-2009 23:30:06 -4 C 2.74 g/m*3 -4 C 0 km/h
2757 12-01-2009 23:42:06 -3.9 C 2.8 g/m*3 -3.9 C 0 km/h
2758 12-01-2009 23:54:06 -3.7 C 2.84 g/m*3 -3.7 C 0 km/h
2759 13-01-2009 00:06:06 -3.6 C 2.86 g/m*3 -3.6 C 0 km/h
2760 13-01-2009 00:18:06 -3.5 C 2.88 g/m*3 -3.5 C 0 km/h
2761 13-01-2009 00:30:06 -3.4 C 2.9 g/m*3 -3.4 C 0 km/h
2762 13-01-2009 00:42:06 -3.4 C 2.9 g/m*3 -3.4 C 0 km/h
2763 13-01-2009 00:54:06 -3.3 C 2.92 g/m*3 -3.3 C 0 km/h
2764 13-01-2009 01:06:06 -3.1 C 2.96 g/m*3 -3.1 C 0 km/h
2765 13-01-2009 01:18:07 -3 C 2.95 g/m*3 -3 C 0 km/h
2766 13-01-2009 01:30:07 -2.9 C 3.01 g/m*3 -2.9 C 0 km/h
2767 13-01-2009 01:42:07 -2.9 C 2.97 g/m*3 -2.9 C 0 km/h
2768 13-01-2009 01:54:07 -2.8 C 2.99 g/m*3 -2.8 C 0 km/h
2769 13-01-2009 02:06:07 -2.8 C 2.99 g/m*3 -2.8 C 0 km/h
2770 13-01-2009 02:18:07 -2.8 C 3.03 g/m*3 -2.8 C 0 km/h
2771 13-01-2009 02:30:07 -2.6 C 3.07 g/m*3 -2.6 C 0 km/h
2772 13-01-2009 02:42:07 -2.4 C 3.11 g/m*3 -2.4 C 0 km/h
2773 13-01-2009 02:54:07 -2.2 C 3.16 g/m*3 -2.2 C 0 km/h
2774 13-01-2009 03:06:07 -2.1 C 3.18 g/m*3 -2.1 C 0 km/h
2775 13-01-2009 03:18:07 -2 C 3.16 g/m*3 -2 C 0 km/h
Sensor: Nr:Datum:Temp:Abs-Feuchte:Windchill:Wind:
Aussen-T/F 2776 13-01-2009 03:30:07 -1.8 C 3.16 g/m*3 -1.8 C 0 km/h
2777 13-01-2009 03:42:07 -1.5 C 3.19 g/m*3 -1.5 C 0 km/h
2778 13-01-2009 03:54:07 -1.3 C 3.14 g/m*3 -1.3 C 0 km/h
2779 13-01-2009 04:06:07 -1.4 C 3.12 g/m*3 -1.4 C 0 km/h
2780 13-01-2009 04:18:07 -1.6 C 3.12 g/m*3 -1.6 C 0 km/h
2781 13-01-2009 04:30:07 -1.6 C 3.12 g/m*3 -1.6 C 0 km/h
2782 13-01-2009 04:42:07 -1.4 C 3.21 g/m*3 -1.4 C 0 km/h
2783 13-01-2009 04:54:07 -1.2 C 3.21 g/m*3 -1.2 C 0 km/h
2784 13-01-2009 05:06:07 -1.4 C 3.17 g/m*3 -1.4 C 0 km/h
2785 13-01-2009 05:18:08 -1.3 C 3.23 g/m*3 -1.3 C 0 km/h
2786 13-01-2009 05:30:08 -1.2 C 3.3 g/m*3 -1.2 C 0 km/h
2787 13-01-2009 05:42:08 -1.2 C 3.34 g/m*3 -1.2 C 0 km/h
2788 13-01-2009 05:54:08 -1.3 C 3.32 g/m*3 -1.3 C 0 km/h
2789 13-01-2009 06:06:08 -1.2 C 3.34 g/m*3 -1.2 C 0 km/h
2790 13-01-2009 06:18:08 -1.2 C 3.34 g/m*3 -1.2 C 0 km/h
2791 13-01-2009 06:30:08 -0.9 C 3.28 g/m*3 -0.9 C 0 km/h
2792 13-01-2009 06:42:08 -0.9 C 3.23 g/m*3 -0.9 C 0 km/h
2793 13-01-2009 06:54:08 -0.9 C 3.28 g/m*3 -0.9 C 0 km/h
2794 13-01-2009 07:06:08 -0.9 C 3.28 g/m*3 -0.9 C 0 km/h
2795 13-01-2009 07:18:52 -0.9 C 3.28 g/m*3 -0.9 C 0 km/h
2796 13-01-2009 07:30:52 -0.9 C 3.28 g/m*3 -0.9 C 0 km/h
2797 13-01-2009 07:42:52 -0.6 C 3.39 g/m*3 -0.6 C 0 km/h
2798 13-01-2009 07:54:51 -0.6 C 3.39 g/m*3 -0.6 C 0 km/h
2799 13-01-2009 08:06:51 -0.5 C 3.42 g/m*3 -0.5 C 0 km/h
2800 13-01-2009 08:18:51 -0.4 C 3.49 g/m*3 -0.4 C 0 km/h
Sensor: Nr:Datum:Temp:Abs-Feuchte:Windchill:Wind:
Aussen-T/F 2801 13-01-2009 08:30:51 -0.3 C 3.51 g/m*3 -0.3 C 0 km/h
2802 13-01-2009 08:42:51 -0.3 C 3.46 g/m*3 -0.3 C 0 km/h
2803 13-01-2009 08:54:51 -0.1 C 3.42 g/m*3 -0.1 C 0 km/h
2804 13-01-2009 09:06:50 0.2 C 3.44 g/m*3 0.2 C 0 km/h
2805 13-01-2009 09:18:50 0.4 C 3.44 g/m*3 0.4 C 0 km/h
2806 13-01-2009 09:30:51 0.6 C 3.43 g/m*3 0.6 C 0 km/h
2807 13-01-2009 09:42:51 0.7 C 3.41 g/m*3 0.7 C 0 km/h
2808 13-01-2009 09:54:50 0.8 C 3.43 g/m*3 0.8 C 0 km/h
2809 13-01-2009 10:06:50 1 C 3.43 g/m*3 1 C 0 km/h
2810 13-01-2009 10:18:50 1.2 C 3.42 g/m*3 1.2 C 0 km/h
2811 13-01-2009 10:30:50 1.4 C 3.41 g/m*3 1.4 C 0 km/h
2812 13-01-2009 10:42:50 1.5 C 3.38 g/m*3 1.5 C 0 km/h
2813 13-01-2009 10:54:49 2.1 C 3.36 g/m*3 2.1 C 0 km/h
2814 13-01-2009 11:06:50 2.4 C 3.43 g/m*3 2.4 C 0 km/h
2815 13-01-2009 11:18:49 2.7 C 3.32 g/m*3 2.7 C 0 km/h
2816 13-01-2009 11:30:49 3.1 C 3.29 g/m*3 3.1 C 0 km/h
2817 13-01-2009 11:42:49 3.3 C 3.15 g/m*3 3.3 C 0 km/h
2818 13-01-2009 11:54:49 3.3 C 3.09 g/m*3 3.3 C 0 km/h
2819 13-01-2009 12:06:49 3.6 C 3.16 g/m*3 3.6 C 0 km/h
2820 13-01-2009 12:18:49 3.7 C 3.3 g/m*3 3.7 C 0 km/h
2821 13-01-2009 12:30:48 3.8 C 3.39 g/m*3 3.8 C 0 km/h
2822 13-01-2009 12:42:48 3.7 C 3.37 g/m*3 3.7 C 0 km/h
2823 13-01-2009 12:54:48 3.7 C 3.3 g/m*3 3.7 C 0 km/h
2824 13-01-2009 13:06:48 3.8 C 3.45 g/m*3 3.8 C 0 km/h
2825 13-01-2009 13:18:49 3.8 C 3.45 g/m*3 3.8 C 0 km/h
Sensor: Nr:Datum:Temp:Abs-Feuchte:Windchill:Wind:
Aussen-T/F 2826 13-01-2009 13:30:48 3.9 C 3.47 g/m*3 3.9 C 0 km/h
2827 13-01-2009 13:42:48 3.9 C 3.47 g/m*3 3.9 C 0 km/h
2828 13-01-2009 13:54:48 3.9 C 3.47 g/m*3 3.9 C 0 km/h
2829 13-01-2009 14:06:47 3.8 C 3.45 g/m*3 3.8 C 0 km/h
2830 13-01-2009 14:18:48 3.7 C 3.43 g/m*3 3.7 C 0 km/h
2831 13-01-2009 14:30:47 3.7 C 3.43 g/m*3 3.7 C 0 km/h
2832 13-01-2009 14:42:47 3.5 C 3.44 g/m*3 3.5 C 0 km/h
2833 13-01-2009 14:54:47 3.4 C 3.48 g/m*3 3.4 C 0 km/h
2834 13-01-2009 15:06:47 3.4 C 3.42 g/m*3 3.4 C 0 km/h
2835 13-01-2009 15:18:47 3.3 C 3.46 g/m*3 3.3 C 0 km/h
2836 13-01-2009 15:30:47 3.2 C 3.43 g/m*3 3.2 C 0 km/h
2837 13-01-2009 15:42:47 3 C 3.45 g/m*3 3 C 0 km/h
2838 13-01-2009 15:54:47 2.8 C 3.52 g/m*3 2.8 C 0 km/h
2839 13-01-2009 16:06:47 2.7 C 3.55 g/m*3 2.7 C 0 km/h
2840 13-01-2009 16:18:46 2.4 C 3.48 g/m*3 2.4 C 0 km/h
2841 13-01-2009 16:30:46 2.2 C 3.49 g/m*3 2.2 C 0 km/h
2842 13-01-2009 16:42:47 1.9 C 3.48 g/m*3 1.9 C 0 km/h
2843 13-01-2009 16:54:46 1.5 C 3.44 g/m*3 1.5 C 0 km/h
2844 13-01-2009 17:06:46 1.3 C 3.44 g/m*3 1.3 C 0 km/h
2845 13-01-2009 17:18:46 1.1 C 3.4 g/m*3 1.1 C 0 km/h
2846 13-01-2009 17:30:46 0.8 C 3.43 g/m*3 0.8 C 0 km/h
2847 13-01-2009 17:42:46 0.7 C 3.46 g/m*3 0.7 C 0 km/h
2848 13-01-2009 17:54:45 0.4 C 3.49 g/m*3 0.4 C 0 km/h
2849 13-01-2009 18:06:45 0.1 C 3.37 g/m*3 0.1 C 0 km/h
2850 13-01-2009 18:18:46 0 C 3.39 g/m*3 0 C 0 km/h
Sensor: Nr:Datum:Temp:Abs-Feuchte:Windchill:Wind:
Aussen-T/F 2851 13-01-2009 18:30:45 -0.2 C 3.35 g/m*3 -0.2 C 0 km/h
2852 13-01-2009 18:42:45 -0.4 C 3.3 g/m*3 -0.4 C 0 km/h
2853 13-01-2009 18:54:45 -0.6 C 3.3 g/m*3 -0.6 C 0 km/h
2854 13-01-2009 19:06:44 -0.9 C 3.28 g/m*3 -0.9 C 0 km/h
2855 13-01-2009 19:18:45 -1.1 C 3.23 g/m*3 -1.1 C 0 km/h
2856 13-01-2009 19:30:45 -1.2 C 3.25 g/m*3 -1.2 C 0 km/h
2857 13-01-2009 19:42:45 -1.5 C 3.19 g/m*3 -1.5 C 0 km/h
2858 13-01-2009 19:54:44 -1.7 C 3.14 g/m*3 -1.7 C 0 km/h
2859 13-01-2009 20:06:45 -1.9 C 3.06 g/m*3 -1.9 C 0 km/h
2860 13-01-2009 20:18:44 -1.9 C 3.1 g/m*3 -1.9 C 0 km/h
2861 13-01-2009 20:30:44 -1.9 C 3.14 g/m*3 -1.9 C 0 km/h
2862 13-01-2009 20:42:44 -1.9 C 3.1 g/m*3 -1.9 C 0 km/h
2863 13-01-2009 20:54:44 -1.9 C 3.14 g/m*3 -1.9 C 0 km/h
2864 13-01-2009 21:06:44 -2 C 3.12 g/m*3 -2 C 0 km/h
2865 13-01-2009 21:18:44 -2.2 C 3.08 g/m*3 -2.2 C 0 km/h
2866 13-01-2009 21:30:43 -2.2 C 3.12 g/m*3 -2.2 C 0 km/h
2867 13-01-2009 21:42:43 -2.3 C 3.1 g/m*3 -2.3 C 0 km/h
2868 13-01-2009 21:54:44 -2.2 C 3.16 g/m*3 -2.2 C 0 km/h
2869 13-01-2009 22:06:43 -2.1 C 3.18 g/m*3 -2.1 C 0 km/h
2870 13-01-2009 22:18:43 -2.2 C 3.16 g/m*3 -2.2 C 0 km/h
2871 13-01-2009 22:30:43 -2.3 C 3.14 g/m*3 -2.3 C 0 km/h
2872 13-01-2009 22:42:43 -2.5 C 3.09 g/m*3 -2.5 C 0 km/h
2873 13-01-2009 22:54:43 -2.8 C 3.07 g/m*3 -2.8 C 0 km/h
2874 13-01-2009 23:06:43 -2.9 C 3.05 g/m*3 -2.9 C 0 km/h
2875 13-01-2009 23:18:42 -3 C 3.06 g/m*3 -3 C 0 km/h
Sensor: Nr:Datum:Temp:Abs-Feuchte:Windchill:Wind:
Aussen-T/F 2876 13-01-2009 23:30:42 -3 C 3.1 g/m*3 -3 C 0 km/h
2877 13-01-2009 23:42:42 -3.1 C 3.08 g/m*3 -3.1 C 0 km/h
2878 13-01-2009 23:54:42 -3.3 C 3.08 g/m*3 -3.3 C 0 km/h
2879 14-01-2009 00:06:42 -3.4 C 3.05 g/m*3 -3.4 C 0 km/h
2880 14-01-2009 00:18:42 -3.4 C 3.05 g/m*3 -3.4 C 0 km/h
2881 14-01-2009 00:30:41 -3.6 C 3.01 g/m*3 -3.6 C 0 km/h
2882 14-01-2009 00:42:41 -3.7 C 2.99 g/m*3 -3.7 C 0 km/h
2883 14-01-2009 00:54:42 -3.5 C 3.07 g/m*3 -3.5 C 0 km/h
2884 14-01-2009 01:06:41 -3.4 C 3.13 g/m*3 -3.4 C 0 km/h
2885 14-01-2009 01:18:41 -3.1 C 3.2 g/m*3 -3.1 C 0 km/h
2886 14-01-2009 01:30:41 -3 C 3.22 g/m*3 -3 C 0 km/h
2887 14-01-2009 01:42:41 -3 C 3.18 g/m*3 -3 C 0 km/h
2888 14-01-2009 01:54:41 -3.2 C 3.14 g/m*3 -3.2 C 0 km/h
2889 14-01-2009 02:06:41 -3.4 C 3.05 g/m*3 -3.4 C 0 km/h
2890 14-01-2009 02:18:40 -3.5 C 3.03 g/m*3 -3.5 C 0 km/h
2891 14-01-2009 02:30:41 -3.1 C 3.16 g/m*3 -3.1 C 0 km/h
2892 14-01-2009 02:42:42 -3.1 C 3.16 g/m*3 -3.1 C 0 km/h
2893 14-01-2009 02:55:41 -3 C 3.18 g/m*3 -3 C 0 km/h
2894 14-01-2009 03:07:41 -3 C 3.18 g/m*3 -3 C 0 km/h
2895 14-01-2009 03:19:42 -2.8 C 3.23 g/m*3 -2.8 C 0 km/h
2896 14-01-2009 03:31:41 -2.7 C 3.25 g/m*3 -2.7 C 0 km/h
2897 14-01-2009 03:43:41 -2.6 C 3.23 g/m*3 -2.6 C 0 km/h
2898 14-01-2009 03:55:41 -2.6 C 3.23 g/m*3 -2.6 C 0 km/h
2899 14-01-2009 04:07:41 -2.9 C 3.16 g/m*3 -2.9 C 0 km/h
2900 14-01-2009 04:19:41 -3 C 3.14 g/m*3 -3 C 0 km/h
Sensor: Nr:Datum:Temp:Abs-Feuchte:Windchill:Wind:
Aussen-T/F 2901 14-01-2009 04:31:41 -3 C 3.14 g/m*3 -3 C 0 km/h
2902 14-01-2009 04:43:42 -2.6 C 3.27 g/m*3 -2.6 C 0 km/h
2903 14-01-2009 04:55:41 -2.5 C 3.3 g/m*3 -2.5 C 0 km/h
2904 14-01-2009 05:07:40 -2.3 C 3.34 g/m*3 -2.3 C 0 km/h
2905 14-01-2009 05:19:41 -2.1 C 3.35 g/m*3 -2.1 C 0 km/h
2906 14-01-2009 05:31:40 -1.9 C 3.4 g/m*3 -1.9 C 0 km/h
2907 14-01-2009 05:43:40 -1.8 C 3.38 g/m*3 -1.8 C 0 km/h
2908 14-01-2009 05:55:40 -1.7 C 3.4 g/m*3 -1.7 C 0 km/h
2909 14-01-2009 06:07:40 -1.6 C 3.38 g/m*3 -1.6 C 0 km/h
2910 14-01-2009 06:19:40 -1.6 C 3.38 g/m*3 -1.6 C 0 km/h
2911 14-01-2009 06:31:39 -1.4 C 3.43 g/m*3 -1.4 C 0 km/h
2912 14-01-2009 06:43:39 -1.4 C 3.39 g/m*3 -1.4 C 0 km/h
2913 14-01-2009 06:55:40 -1.4 C 3.43 g/m*3 -1.4 C 0 km/h
2914 14-01-2009 07:07:39 -1.1 C 3.5 g/m*3 -1.1 C 0 km/h
2915 14-01-2009 07:19:39 -0.9 C 3.6 g/m*3 -0.9 C 0 km/h
2916 14-01-2009 07:31:39 -0.7 C 3.69 g/m*3 -0.7 C 0 km/h
2917 14-01-2009 07:43:39 -0.7 C 3.69 g/m*3 -0.7 C 0 km/h
2918 14-01-2009 07:55:39 -0.7 C 3.69 g/m*3 -0.7 C 0 km/h
2919 14-01-2009 08:07:38 -0.8 C 3.67 g/m*3 -0.8 C 0 km/h
2920 14-01-2009 08:19:39 -1.1 C 3.59 g/m*3 -1.1 C 0 km/h
2921 14-01-2009 08:31:39 -1.1 C 3.64 g/m*3 -1.1 C 0 km/h
2922 14-01-2009 08:43:39 -1 C 3.71 g/m*3 -1 C 0 km/h
2923 14-01-2009 08:55:38 -1 C 3.71 g/m*3 -1 C 0 km/h
2924 14-01-2009 09:07:38 -0.9 C 3.78 g/m*3 -0.9 C 0 km/h
2925 14-01-2009 09:19:38 -0.8 C 3.85 g/m*3 -0.8 C 0 km/h
Sensor: Nr:Datum:Temp:Abs-Feuchte:Windchill:Wind:
Aussen-T/F 2926 14-01-2009 09:31:38 -0.5 C 3.98 g/m*3 -0.5 C 0 km/h
2927 14-01-2009 09:43:38 -0.2 C 4.06 g/m*3 -0.2 C 0 km/h
2928 14-01-2009 09:55:37 -0.3 C 4.03 g/m*3 -0.3 C 0 km/h
2929 14-01-2009 10:07:38 -0.2 C 4.11 g/m*3 -0.2 C 0 km/h
2930 14-01-2009 10:19:37 -0.1 C 4.14 g/m*3 -0.1 C 0 km/h
2931 14-01-2009 10:31:37 -0.1 C 4.14 g/m*3 -0.1 C 0 km/h
2932 14-01-2009 10:43:37 -0.1 C 4.14 g/m*3 -0.1 C 0 km/h
2933 14-01-2009 10:55:37 0 C 4.17 g/m*3 0 C 0 km/h
2934 14-01-2009 11:07:37 0 C 4.17 g/m*3 0 C 0 km/h
2935 14-01-2009 11:19:37 0 C 4.22 g/m*3 0 C 0 km/h
2936 14-01-2009 11:31:37 0.1 C 4.24 g/m*3 0.1 C 0 km/h
2937 14-01-2009 11:43:37 0.2 C 4.27 g/m*3 0.2 C 0 km/h
2938 14-01-2009 11:55:37 0.3 C 4.3 g/m*3 0.3 C 0 km/h
2939 14-01-2009 12:07:36 0.4 C 4.33 g/m*3 0.4 C 0 km/h
2940 14-01-2009 12:19:37 0.5 C 4.36 g/m*3 0.5 C 0 km/h
2941 14-01-2009 12:31:36 0.7 C 4.47 g/m*3 0.7 C 0 km/h
2942 14-01-2009 12:43:36 1 C 4.52 g/m*3 1 C 0 km/h
2943 14-01-2009 12:55:36 1.2 C 4.58 g/m*3 1.2 C 0 km/h
2944 14-01-2009 13:07:36 1.6 C 4.7 g/m*3 1.6 C 0 km/h
2945 14-01-2009 13:19:36 1.7 C 4.74 g/m*3 1.7 C 0 km/h
2946 14-01-2009 13:31:36 1.7 C 4.74 g/m*3 1.7 C 0 km/h
2947 14-01-2009 13:43:36 2 C 4.78 g/m*3 2 C 0 km/h
2948 14-01-2009 13:55:35 2.2 C 4.84 g/m*3 2.2 C 0 km/h
2949 14-01-2009 14:07:36 2.3 C 4.82 g/m*3 2.3 C 0 km/h
2950 14-01-2009 14:19:35 2.3 C 4.76 g/m*3 2.3 C 0 km/h
Sensor: Nr:Datum:Temp:Abs-Feuchte:Windchill:Wind:
Aussen-T/F 2951 14-01-2009 14:31:35 2.2 C 4.73 g/m*3 2.2 C 0 km/h
2952 14-01-2009 14:43:35 2.3 C 4.76 g/m*3 2.3 C 0 km/h
2953 14-01-2009 14:55:35 2.2 C 4.73 g/m*3 2.2 C 0 km/h
2954 14-01-2009 15:07:35 2.1 C 4.7 g/m*3 2.1 C 0 km/h
2955 14-01-2009 15:19:34 2.1 C 4.7 g/m*3 2.1 C 0 km/h
2956 14-01-2009 15:31:34 2.1 C 4.7 g/m*3 2.1 C 0 km/h
2957 14-01-2009 15:43:34 2 C 4.67 g/m*3 2 C 0 km/h
2958 14-01-2009 15:55:34 1.8 C 4.66 g/m*3 1.8 C 0 km/h
2959 14-01-2009 16:07:34 1.8 C 4.66 g/m*3 1.8 C 0 km/h
2960 14-01-2009 16:19:34 1.7 C 4.63 g/m*3 1.7 C 0 km/h
2961 14-01-2009 16:31:34 1.6 C 4.6 g/m*3 1.6 C 0 km/h
2962 14-01-2009 16:43:34 1.5 C 4.62 g/m*3 1.5 C 0 km/h
2963 14-01-2009 16:55:34 1.6 C 4.7 g/m*3 1.6 C 0 km/h
2964 14-01-2009 17:07:33 1.5 C 4.67 g/m*3 1.5 C 0 km/h
2965 14-01-2009 17:19:34 1.5 C 4.67 g/m*3 1.5 C 0 km/h
2966 14-01-2009 17:31:33 1.4 C 4.64 g/m*3 1.4 C 0 km/h
2967 14-01-2009 17:43:33 1.4 C 4.64 g/m*3 1.4 C 0 km/h
2968 14-01-2009 17:55:33 1.5 C 4.67 g/m*3 1.5 C 0 km/h
2969 14-01-2009 18:07:33 1.5 C 4.73 g/m*3 1.5 C 0 km/h
2970 14-01-2009 18:19:33 1.5 C 4.73 g/m*3 1.5 C 0 km/h
2971 14-01-2009 18:31:33 1.5 C 4.73 g/m*3 1.5 C 0 km/h
2972 14-01-2009 18:43:33 1.4 C 4.69 g/m*3 1.4 C 0 km/h
2973 14-01-2009 18:55:32 1.4 C 4.69 g/m*3 1.4 C 0 km/h
2974 14-01-2009 19:07:33 1.4 C 4.69 g/m*3 1.4 C 0 km/h
2975 14-01-2009 19:19:32 1.4 C 4.69 g/m*3 1.4 C 0 km/h
Sensor: Nr:Datum:Temp:Abs-Feuchte:Windchill:Wind:
Aussen-T/F 2976 14-01-2009 19:31:32 1.3 C 4.72 g/m*3 1.3 C 0 km/h
2977 14-01-2009 19:43:32 1.3 C 4.72 g/m*3 1.3 C 0 km/h
2978 14-01-2009 19:55:32 1.3 C 4.72 g/m*3 1.3 C 0 km/h
2979 14-01-2009 20:07:32 1.3 C 4.72 g/m*3 1.3 C 0 km/h
2980 14-01-2009 20:19:31 1.2 C 4.68 g/m*3 1.2 C 0 km/h
2981 14-01-2009 20:31:32 1.2 C 4.68 g/m*3 1.2 C 0 km/h
2982 14-01-2009 20:43:33 1.2 C 4.68 g/m*3 1.2 C 0 km/h
2983 14-01-2009 20:55:31 1.3 C 4.72 g/m*3 1.3 C 0 km/h
2984 14-01-2009 21:07:31 1.2 C 4.68 g/m*3 1.2 C 0 km/h
2985 14-01-2009 21:19:31 1.2 C 4.68 g/m*3 1.2 C 0 km/h
2986 14-01-2009 21:31:31 1.2 C 4.68 g/m*3 1.2 C 0 km/h
2987 14-01-2009 21:43:31 1.1 C 4.65 g/m*3 1.1 C 0 km/h
2988 14-01-2009 21:55:31 1.2 C 4.74 g/m*3 1.2 C 0 km/h
2989 14-01-2009 22:07:31 1.1 C 4.7 g/m*3 1.1 C 0 km/h
2990 14-01-2009 22:19:30 1.1 C 4.7 g/m*3 1.1 C 0 km/h
2991 14-01-2009 22:31:31 1.1 C 4.7 g/m*3 1.1 C 0 km/h
2992 14-01-2009 22:43:31 1.1 C 4.7 g/m*3 1.1 C 0 km/h
2993 14-01-2009 22:56:31 1.1 C 4.7 g/m*3 1.1 C 0 km/h
2994 14-01-2009 23:08:31 1.1 C 4.7 g/m*3 1.1 C 0 km/h
2995 14-01-2009 23:20:31 1.1 C 4.76 g/m*3 1.1 C 0 km/h
2996 14-01-2009 23:32:31 1.1 C 4.76 g/m*3 1.1 C 0 km/h
2997 14-01-2009 23:44:31 1.1 C 4.76 g/m*3 1.1 C 0 km/h
2998 14-01-2009 23:56:31 1 C 4.72 g/m*3 1 C 0 km/h
2999 15-01-2009 00:08:31 1 C 4.72 g/m*3 1 C 0 km/h
3000 15-01-2009 00:20:31 1 C 4.72 g/m*3 1 C 0 km/h
Sensor: Nr:Datum:Temp:Abs-Feuchte:Windchill:Wind:
Aussen-T/F 3001 15-01-2009 00:32:31 1 C 4.72 g/m*3 1 C 0 km/h
3002 15-01-2009 00:44:31 1 C 4.72 g/m*3 1 C 0 km/h
3003 15-01-2009 00:56:32 1 C 4.72 g/m*3 1 C 0 km/h
3004 15-01-2009 01:08:32 1 C 4.72 g/m*3 1 C 0 km/h
3005 15-01-2009 01:20:32 1 C 4.72 g/m*3 1 C 0 km/h
3006 15-01-2009 01:32:32 0.9 C 4.69 g/m*3 0.9 C 0 km/h
3007 15-01-2009 01:44:32 0.9 C 4.69 g/m*3 0.9 C 0 km/h
3008 15-01-2009 01:56:32 1 C 4.72 g/m*3 1 C 0 km/h
3009 15-01-2009 02:08:32 0.9 C 4.74 g/m*3 0.9 C 0 km/h
3010 15-01-2009 02:20:32 0.9 C 4.74 g/m*3 0.9 C 0 km/h
3011 15-01-2009 02:32:32 0.9 C 4.74 g/m*3 0.9 C 0 km/h
3012 15-01-2009 02:44:32 0.9 C 4.74 g/m*3 0.9 C 0 km/h
3013 15-01-2009 02:56:32 0.9 C 4.74 g/m*3 0.9 C 0 km/h
3014 15-01-2009 03:08:32 0.8 C 4.71 g/m*3 0.8 C 0 km/h
3015 15-01-2009 03:20:32 0.8 C 4.71 g/m*3 0.8 C 0 km/h
3016 15-01-2009 03:32:32 0.8 C 4.71 g/m*3 0.8 C 0 km/h
3017 15-01-2009 03:44:32 0.8 C 4.71 g/m*3 0.8 C 0 km/h
3018 15-01-2009 03:56:32 0.8 C 4.71 g/m*3 0.8 C 0 km/h
3019 15-01-2009 04:08:32 0.8 C 4.71 g/m*3 0.8 C 0 km/h
3020 15-01-2009 04:20:32 0.7 C 4.68 g/m*3 0.7 C 0 km/h
3021 15-01-2009 04:32:32 0.7 C 4.63 g/m*3 0.7 C 0 km/h
3022 15-01-2009 04:44:32 0.7 C 4.63 g/m*3 0.7 C 0 km/h
3023 15-01-2009 04:56:33 0.6 C 4.65 g/m*3 0.6 C 0 km/h
3024 15-01-2009 05:08:33 0.6 C 4.65 g/m*3 0.6 C 0 km/h
3025 15-01-2009 05:20:33 0.6 C 4.65 g/m*3 0.6 C 0 km/h
Sensor: Nr:Datum:Temp:Abs-Feuchte:Windchill:Wind:
Aussen-T/F 3026 15-01-2009 05:32:33 0.6 C 4.65 g/m*3 0.6 C 0 km/h
3027 15-01-2009 05:44:31 0.6 C 4.65 g/m*3 0.6 C 0 km/h
3028 15-01-2009 05:56:31 0.5 C 4.61 g/m*3 0.5 C 0 km/h
3029 15-01-2009 06:08:32 0.6 C 4.65 g/m*3 0.6 C 0 km/h
3030 15-01-2009 06:20:31 0.6 C 4.65 g/m*3 0.6 C 0 km/h
3031 15-01-2009 06:32:31 0.6 C 4.65 g/m*3 0.6 C 0 km/h
3032 15-01-2009 06:44:30 0.6 C 4.65 g/m*3 0.6 C 0 km/h
3033 15-01-2009 06:56:30 0.6 C 4.65 g/m*3 0.6 C 0 km/h
3034 15-01-2009 07:08:31 0.6 C 4.65 g/m*3 0.6 C 0 km/h
3035 15-01-2009 07:20:30 0.6 C 4.65 g/m*3 0.6 C 0 km/h
3036 15-01-2009 07:32:30 0.6 C 4.65 g/m*3 0.6 C 0 km/h
3037 15-01-2009 07:44:30 0.7 C 4.68 g/m*3 0.7 C 0 km/h
3038 15-01-2009 07:56:30 0.7 C 4.68 g/m*3 0.7 C 0 km/h
3039 15-01-2009 08:08:30 0.6 C 4.65 g/m*3 0.6 C 0 km/h
3040 15-01-2009 08:20:30 0.6 C 4.65 g/m*3 0.6 C 0 km/h
3041 15-01-2009 08:32:30 0.6 C 4.65 g/m*3 0.6 C 0 km/h
3042 15-01-2009 08:44:30 0.7 C 4.68 g/m*3 0.7 C 0 km/h
3043 15-01-2009 08:56:30 0.7 C 4.68 g/m*3 0.7 C 0 km/h
3044 15-01-2009 09:08:29 0.8 C 4.71 g/m*3 0.8 C 0 km/h
3045 15-01-2009 09:20:30 0.9 C 4.74 g/m*3 0.9 C 0 km/h
3046 15-01-2009 09:32:29 1 C 4.78 g/m*3 1 C 0 km/h
3047 15-01-2009 09:44:29 1.1 C 4.81 g/m*3 1.1 C 0 km/h
3048 15-01-2009 09:56:29 1.3 C 4.87 g/m*3 1.3 C 0 km/h
3049 15-01-2009 10:08:29 1.3 C 4.87 g/m*3 1.3 C 0 km/h
3050 15-01-2009 10:20:29 1.4 C 4.85 g/m*3 1.4 C 0 km/h
Sensor: Nr:Datum:Temp:Abs-Feuchte:Windchill:Wind:
Aussen-T/F 3051 15-01-2009 10:32:28 1.6 C 4.92 g/m*3 1.6 C 0 km/h
3052 15-01-2009 10:44:29 1.7 C 4.95 g/m*3 1.7 C 0 km/h
3053 15-01-2009 10:56:29 1.8 C 4.93 g/m*3 1.8 C 0 km/h
3054 15-01-2009 11:08:28 1.6 C 4.87 g/m*3 1.6 C 0 km/h
3055 15-01-2009 11:20:28 1.3 C 4.72 g/m*3 1.3 C 0 km/h
3056 15-01-2009 11:32:28 1.2 C 4.68 g/m*3 1.2 C 0 km/h
3057 15-01-2009 11:44:28 1.3 C 4.77 g/m*3 1.3 C 0 km/h
3058 15-01-2009 11:56:28 1.2 C 4.74 g/m*3 1.2 C 0 km/h
3059 15-01-2009 12:08:28 1.2 C 4.74 g/m*3 1.2 C 0 km/h
3060 15-01-2009 12:20:27 1.4 C 4.8 g/m*3 1.4 C 0 km/h
3061 15-01-2009 12:32:28 1.7 C 4.9 g/m*3 1.7 C 0 km/h
3062 15-01-2009 12:44:27 2.1 C 4.98 g/m*3 2.1 C 0 km/h
3063 15-01-2009 12:56:27 2.6 C 5.03 g/m*3 2.6 C 0 km/h
3064 15-01-2009 13:08:27 3.1 C 5.03 g/m*3 3.1 C 0 km/h
3065 15-01-2009 13:20:27 3.7 C 4.99 g/m*3 3.7 C 0 km/h
3066 15-01-2009 13:32:27 4 C 4.64 g/m*3 4 C 0 km/h
3067 15-01-2009 13:44:26 4.5 C 4.54 g/m*3 4.5 C 0 km/h
3068 15-01-2009 13:56:26 4.8 C 4.43 g/m*3 4.8 C 0 km/h
3069 15-01-2009 14:08:27 5 C 4.08 g/m*3 5 C 0 km/h
3070 15-01-2009 14:20:27 5 C 3.87 g/m*3 5 C 0 km/h
3071 15-01-2009 14:32:26 4.3 C 3.76 g/m*3 4.3 C 0 km/h
3072 15-01-2009 14:44:26 3.5 C 3.69 g/m*3 3.5 C 0 km/h
3073 15-01-2009 14:56:26 3.2 C 3.62 g/m*3 3.2 C 0 km/h
3074 15-01-2009 15:08:26 2.8 C 3.7 g/m*3 2.8 C 0 km/h
3075 15-01-2009 15:20:26 2.6 C 3.7 g/m*3 2.6 C 0 km/h
Sensor: Nr:Datum:Temp:Abs-Feuchte:Windchill:Wind:
Aussen-T/F 3076 15-01-2009 15:32:25 2.5 C 3.74 g/m*3 2.5 C 0 km/h
3077 15-01-2009 15:44:26 2.6 C 3.7 g/m*3 2.6 C 0 km/h
3078 15-01-2009 15:56:26 2.6 C 3.65 g/m*3 2.6 C 0 km/h
3079 15-01-2009 16:08:25 2.6 C 3.59 g/m*3 2.6 C 0 km/h
3080 15-01-2009 16:20:25 2.3 C 3.63 g/m*3 2.3 C 0 km/h
3081 15-01-2009 16:32:25 2.1 C 3.64 g/m*3 2.1 C 0 km/h
3082 15-01-2009 16:44:25 2.1 C 3.64 g/m*3 2.1 C 0 km/h
3083 15-01-2009 16:56:25 2 C 3.56 g/m*3 2 C 0 km/h
3084 15-01-2009 17:08:25 1.7 C 3.54 g/m*3 1.7 C 0 km/h
3085 15-01-2009 17:20:24 1.3 C 3.55 g/m*3 1.3 C 0 km/h
3086 15-01-2009 17:32:25 0.9 C 3.66 g/m*3 0.9 C 0 km/h
3087 15-01-2009 17:44:24 0.7 C 3.71 g/m*3 0.7 C 0 km/h
3088 15-01-2009 17:56:24 0.5 C 3.76 g/m*3 0.5 C 0 km/h
3089 15-01-2009 18:08:24 0.2 C 3.68 g/m*3 0.2 C 0 km/h
3090 15-01-2009 18:20:24 0.1 C 3.76 g/m*3 0.1 C 0 km/h
3091 15-01-2009 18:32:24 -0.2 C 3.68 g/m*3 -0.2 C 0 km/h
3092 15-01-2009 18:44:23 -0.4 C 3.68 g/m*3 -0.4 C 0 km/h
3093 15-01-2009 18:56:23 -0.5 C 3.7 g/m*3 -0.5 C 0 km/h
3094 15-01-2009 19:08:24 -0.7 C 3.69 g/m*3 -0.7 C 0 km/h
3095 15-01-2009 19:20:24 -0.8 C 3.67 g/m*3 -0.8 C 0 km/h
3096 15-01-2009 19:32:23 -1 C 3.66 g/m*3 -1 C 0 km/h
3097 15-01-2009 19:44:23 -0.9 C 3.69 g/m*3 -0.9 C 0 km/h
3098 15-01-2009 19:56:23 -0.6 C 3.81 g/m*3 -0.6 C 0 km/h
3099 15-01-2009 20:08:23 -0.5 C 3.84 g/m*3 -0.5 C 0 km/h
3100 15-01-2009 20:20:23 -0.5 C 3.74 g/m*3 -0.5 C 0 km/h
Sensor: Nr:Datum:Temp:Abs-Feuchte:Windchill:Wind:
Aussen-T/F 3101 15-01-2009 20:32:23 -0.7 C 3.69 g/m*3 -0.7 C 0 km/h
3102 15-01-2009 20:44:23 -0.9 C 3.64 g/m*3 -0.9 C 0 km/h
3103 15-01-2009 20:56:23 -1.2 C 3.61 g/m*3 -1.2 C 0 km/h
3104 15-01-2009 21:08:23 -1.3 C 3.59 g/m*3 -1.3 C 0 km/h
3105 15-01-2009 21:20:22 -1.5 C 3.58 g/m*3 -1.5 C 0 km/h
3106 15-01-2009 21:32:22 -1.7 C 3.53 g/m*3 -1.7 C 0 km/h
3107 15-01-2009 21:44:22 -2 C 3.46 g/m*3 -2 C 0 km/h
3108 15-01-2009 21:56:22 -2.1 C 3.47 g/m*3 -2.1 C 0 km/h
3109 15-01-2009 22:08:22 -2.1 C 3.47 g/m*3 -2.1 C 0 km/h
3110 15-01-2009 22:20:22 -2.1 C 3.52 g/m*3 -2.1 C 0 km/h
3111 15-01-2009 22:32:22 -2.3 C 3.47 g/m*3 -2.3 C 0 km/h
3112 15-01-2009 22:44:22 -2.4 C 3.44 g/m*3 -2.4 C 0 km/h
3113 15-01-2009 22:56:22 -2.4 C 3.44 g/m*3 -2.4 C 0 km/h
3114 15-01-2009 23:08:21 -2.4 C 3.48 g/m*3 -2.4 C 0 km/h
3115 15-01-2009 23:20:21 -2.6 C 3.43 g/m*3 -2.6 C 0 km/h
3116 15-01-2009 23:33:02 -2.7 C 3.45 g/m*3 -2.7 C 0 km/h
3117 15-01-2009 23:45:02 -2.3 C 3.59 g/m*3 -2.3 C 0 km/h
3118 15-01-2009 23:57:02 -1.6 C 3.81 g/m*3 -1.6 C 0 km/h
3119 16-01-2009 00:09:02 -1.3 C 3.94 g/m*3 -1.3 C 0 km/h
3120 16-01-2009 00:21:02 -1.2 C 3.97 g/m*3 -1.2 C 0 km/h
3121 16-01-2009 00:33:02 -1.1 C 3.95 g/m*3 -1.1 C 0 km/h
3122 16-01-2009 00:45:03 -0.9 C 4.01 g/m*3 -0.9 C 0 km/h
3123 16-01-2009 00:57:03 -0.7 C 4.06 g/m*3 -0.7 C 0 km/h
3124 16-01-2009 01:09:03 -0.6 C 4.04 g/m*3 -0.6 C 0 km/h
3125 16-01-2009 01:21:03 -0.5 C 4.07 g/m*3 -0.5 C 0 km/h
Sensor: Nr:Datum:Temp:Abs-Feuchte:Windchill:Wind:
Aussen-T/F 3126 16-01-2009 01:33:03 -0.4 C 4.1 g/m*3 -0.4 C 0 km/h
3127 16-01-2009 01:45:03 -0.3 C 4.13 g/m*3 -0.3 C 0 km/h
3128 16-01-2009 01:57:03 -0.3 C 4.13 g/m*3 -0.3 C 0 km/h
3129 16-01-2009 02:09:03 -0.2 C 4.11 g/m*3 -0.2 C 0 km/h
3130 16-01-2009 02:21:03 -0.2 C 4.11 g/m*3 -0.2 C 0 km/h
3131 16-01-2009 02:33:03 0 C 4.17 g/m*3 0 C 0 km/h
3132 16-01-2009 02:45:03 0 C 4.12 g/m*3 0 C 0 km/h
3133 16-01-2009 02:57:03 0 C 4.12 g/m*3 0 C 0 km/h
3134 16-01-2009 03:09:03 0 C 4.12 g/m*3 0 C 0 km/h
3135 16-01-2009 03:21:03 0 C 4.07 g/m*3 0 C 0 km/h
3136 16-01-2009 03:33:03 0.1 C 4.15 g/m*3 0.1 C 0 km/h
3137 16-01-2009 03:45:03 0.1 C 4.1 g/m*3 0.1 C 0 km/h
3138 16-01-2009 03:57:03 0.1 C 4.1 g/m*3 0.1 C 0 km/h
3139 16-01-2009 04:09:03 0.2 C 4.13 g/m*3 0.2 C 0 km/h
3140 16-01-2009 04:21:03 0.3 C 4.16 g/m*3 0.3 C 0 km/h
3141 16-01-2009 04:33:04 0.3 C 4.06 g/m*3 0.3 C 0 km/h
3142 16-01-2009 04:45:04 0.3 C 4.01 g/m*3 0.3 C 0 km/h
3143 16-01-2009 04:57:04 0.3 C 3.91 g/m*3 0.3 C 0 km/h
3144 16-01-2009 05:09:04 0.3 C 3.91 g/m*3 0.3 C 0 km/h
3145 16-01-2009 05:21:04 0.3 C 3.91 g/m*3 0.3 C 0 km/h
3146 16-01-2009 05:33:04 0.3 C 3.91 g/m*3 0.3 C 0 km/h
3147 16-01-2009 05:45:04 0.3 C 3.91 g/m*3 0.3 C 0 km/h
3148 16-01-2009 05:57:04 0.3 C 3.91 g/m*3 0.3 C 0 km/h
3149 16-01-2009 06:09:04 0.3 C 3.96 g/m*3 0.3 C 0 km/h
3150 16-01-2009 06:21:04 0.3 C 3.96 g/m*3 0.3 C 0 km/h
Sensor: Nr:Datum:Temp:Abs-Feuchte:Windchill:Wind:
Aussen-T/F 3151 16-01-2009 06:33:04 0.3 C 3.91 g/m*3 0.3 C 0 km/h
3152 16-01-2009 06:45:04 0.4 C 3.93 g/m*3 0.4 C 0 km/h
3153 16-01-2009 06:57:04 0.4 C 3.93 g/m*3 0.4 C 0 km/h
3154 16-01-2009 07:09:01 0.4 C 3.98 g/m*3 0.4 C 0 km/h
3155 16-01-2009 07:21:01 0.4 C 3.98 g/m*3 0.4 C 0 km/h
3156 16-01-2009 07:33:02 0.5 C 3.96 g/m*3 0.5 C 0 km/h
3157 16-01-2009 07:45:01 0.5 C 3.96 g/m*3 0.5 C 0 km/h
3158 16-01-2009 07:57:01 0.5 C 3.91 g/m*3 0.5 C 0 km/h
3159 16-01-2009 08:09:01 0.5 C 3.91 g/m*3 0.5 C 0 km/h
3160 16-01-2009 08:21:01 0.5 C 3.91 g/m*3 0.5 C 0 km/h
3161 16-01-2009 08:33:01 0.5 C 3.86 g/m*3 0.5 C 0 km/h
3162 16-01-2009 08:45:00 0.5 C 3.86 g/m*3 0.5 C 0 km/h
3163 16-01-2009 08:57:00 0.6 C 3.89 g/m*3 0.6 C 0 km/h
3164 16-01-2009 09:09:01 0.7 C 3.86 g/m*3 0.7 C 0 km/h
3165 16-01-2009 09:21:00 0.8 C 3.84 g/m*3 0.8 C 0 km/h
3166 16-01-2009 09:33:00 1 C 3.84 g/m*3 1 C 0 km/h
3167 16-01-2009 09:45:00 0.9 C 3.76 g/m*3 0.9 C 0 km/h
3168 16-01-2009 09:57:00 1 C 3.74 g/m*3 1 C 0 km/h
3169 16-01-2009 10:09:00 1.1 C 3.76 g/m*3 1.1 C 0 km/h
3170 16-01-2009 10:21:00 1.3 C 3.76 g/m*3 1.3 C 0 km/h
3171 16-01-2009 10:33:59 1.4 C 3.73 g/m*3 1.4 C 0 km/h
3172 16-01-2009 10:45:00 1.5 C 3.76 g/m*3 1.5 C 0 km/h
3173 16-01-2009 10:57:00 1.8 C 3.73 g/m*3 1.8 C 0 km/h
3174 16-01-2009 11:09:59 2.2 C 3.66 g/m*3 2.2 C 0 km/h
3175 16-01-2009 11:21:59 2.4 C 3.65 g/m*3 2.4 C 0 km/h
Sensor: Nr:Datum:Temp:Abs-Feuchte:Windchill:Wind:
Aussen-T/F 3176 16-01-2009 11:33:00 2.2 C 3.6 g/m*3 2.2 C 0 km/h
3177 16-01-2009 11:45:59 2.3 C 3.63 g/m*3 2.3 C 0 km/h
3178 16-01-2009 11:57:59 2.4 C 3.65 g/m*3 2.4 C 0 km/h
3179 16-01-2009 12:09:59 2.2 C 3.6 g/m*3 2.2 C 0 km/h
3180 16-01-2009 12:21:59 2.3 C 3.63 g/m*3 2.3 C 0 km/h
3181 16-01-2009 12:33:59 2.2 C 3.6 g/m*3 2.2 C 0 km/h
3182 16-01-2009 12:45:58 2.2 C 3.6 g/m*3 2.2 C 0 km/h
3183 16-01-2009 12:57:58 2.1 C 3.64 g/m*3 2.1 C 0 km/h
3184 16-01-2009 13:09:59 2.3 C 3.69 g/m*3 2.3 C 0 km/h
3185 16-01-2009 13:21:58 2.3 C 3.69 g/m*3 2.3 C 0 km/h
3186 16-01-2009 13:33:58 2.3 C 3.69 g/m*3 2.3 C 0 km/h
3187 16-01-2009 13:45:57 2.7 C 3.79 g/m*3 2.7 C 0 km/h
3188 16-01-2009 13:57:57 2.8 C 3.7 g/m*3 2.8 C 0 km/h
3189 16-01-2009 14:09:58 2.6 C 3.65 g/m*3 2.6 C 0 km/h
3190 16-01-2009 14:21:58 2.8 C 3.75 g/m*3 2.8 C 0 km/h
3191 16-01-2009 14:33:57 3.1 C 3.71 g/m*3 3.1 C 0 km/h
3192 16-01-2009 14:45:58 2.9 C 3.72 g/m*3 2.9 C 0 km/h
3193 16-01-2009 14:57:58 2.7 C 3.67 g/m*3 2.7 C 0 km/h
3194 16-01-2009 15:09:57 2.6 C 3.7 g/m*3 2.6 C 0 km/h
3195 16-01-2009 15:21:57 2.5 C 3.74 g/m*3 2.5 C 0 km/h
3196 16-01-2009 15:33:57 2.5 C 3.74 g/m*3 2.5 C 0 km/h
3197 16-01-2009 15:45:57 2.5 C 3.74 g/m*3 2.5 C 0 km/h
3198 16-01-2009 15:57:57 2.3 C 3.74 g/m*3 2.3 C 0 km/h
3199 16-01-2009 16:09:56 2 C 3.67 g/m*3 2 C 0 km/h
3200 16-01-2009 16:21:56 1.7 C 3.7 g/m*3 1.7 C 0 km/h
Sensor: Nr:Datum:Temp:Abs-Feuchte:Windchill:Wind:
Aussen-T/F 3201 16-01-2009 16:33:57 1.4 C 3.68 g/m*3 1.4 C 0 km/h
3202 16-01-2009 16:45:56 1.2 C 3.68 g/m*3 1.2 C 0 km/h
3203 16-01-2009 16:57:56 1 C 3.74 g/m*3 1 C 0 km/h
3204 16-01-2009 17:09:56 0.9 C 3.76 g/m*3 0.9 C 0 km/h
3205 16-01-2009 17:21:56 0.6 C 3.74 g/m*3 0.6 C 0 km/h
3206 16-01-2009 17:33:55 0.3 C 3.71 g/m*3 0.3 C 0 km/h
3207 16-01-2009 17:45:56 0.1 C 3.71 g/m*3 0.1 C 0 km/h
3208 16-01-2009 17:57:56 -0.2 C 3.73 g/m*3 -0.2 C 0 km/h
3209 16-01-2009 18:09:55 -0.3 C 3.75 g/m*3 -0.3 C 0 km/h
3210 16-01-2009 18:21:55 -0.5 C 3.74 g/m*3 -0.5 C 0 km/h
3211 16-01-2009 18:33:55 -0.6 C 3.72 g/m*3 -0.6 C 0 km/h
3212 16-01-2009 18:45:55 -0.6 C 3.76 g/m*3 -0.6 C 0 km/h
3213 16-01-2009 18:57:55 -0.6 C 3.81 g/m*3 -0.6 C 0 km/h
3214 16-01-2009 19:09:55 -0.7 C 3.78 g/m*3 -0.7 C 0 km/h
3215 16-01-2009 19:21:55 -0.7 C 3.78 g/m*3 -0.7 C 0 km/h
3216 16-01-2009 19:33:54 -0.7 C 3.83 g/m*3 -0.7 C 0 km/h
3217 16-01-2009 19:45:55 -0.8 C 3.8 g/m*3 -0.8 C 0 km/h
3218 16-01-2009 19:57:55 -0.7 C 3.83 g/m*3 -0.7 C 0 km/h
3219 16-01-2009 20:09:54 -0.7 C 3.88 g/m*3 -0.7 C 0 km/h
3220 16-01-2009 20:21:54 -0.5 C 3.93 g/m*3 -0.5 C 0 km/h
3221 16-01-2009 20:33:54 -0.4 C 3.96 g/m*3 -0.4 C 0 km/h
3222 16-01-2009 20:45:54 -0.2 C 4.01 g/m*3 -0.2 C 0 km/h
3223 16-01-2009 20:57:54 0 C 4.07 g/m*3 0 C 0 km/h
3224 16-01-2009 21:09:53 0.1 C 4.1 g/m*3 0.1 C 0 km/h
3225 16-01-2009 21:21:53 0.2 C 4.13 g/m*3 0.2 C 0 km/h
Sensor: Nr:Datum:Temp:Abs-Feuchte:Windchill:Wind:
Aussen-T/F 3226 16-01-2009 21:33:54 0.2 C 4.08 g/m*3 0.2 C 0 km/h
3227 16-01-2009 21:45:53 0.3 C 4.11 g/m*3 0.3 C 0 km/h
3228 16-01-2009 21:57:53 0.3 C 4.06 g/m*3 0.3 C 0 km/h
3229 16-01-2009 22:09:53 0.5 C 4.11 g/m*3 0.5 C 0 km/h
3230 16-01-2009 22:22:54 0.6 C 4.14 g/m*3 0.6 C 0 km/h
3231 16-01-2009 22:34:54 0.6 C 4.14 g/m*3 0.6 C 0 km/h
3232 16-01-2009 22:46:54 0.6 C 4.09 g/m*3 0.6 C 0 km/h
3233 16-01-2009 22:58:54 0.7 C 4.07 g/m*3 0.7 C 0 km/h
3234 16-01-2009 23:10:54 0.7 C 4.07 g/m*3 0.7 C 0 km/h
3235 16-01-2009 23:22:54 0.7 C 4.07 g/m*3 0.7 C 0 km/h
3236 16-01-2009 23:34:54 0.8 C 4.1 g/m*3 0.8 C 0 km/h
<